PWSweather.com
Personal Weather Stations
Station Observations
KCOFALCO8
Falcon Hills, Falcon, CO 80831

Falcon HillsFalcon, CO 80831

Lat: 38.979792, Lon: -104.61195

Elevation: 7170

Station Type: AcuRite Pro 5-in-1

http://wx.frazierhome.net/

High Low Average
Temperature 42.4°F5.8°C 18.7°F-7.4°C 29.4°F-1.4°C
Dew Point 41.9°F5.5°C 18.2°F-7.7°C 28.9°F-1.7°C
Winds 58.0 mph 93.3 kmh 2.0 mph 3.2 kmh 24.0 mph W38.6 kmh W
Wind Gusts -- -- --
Humidity 98% 98% 98%
Pressure 29.76 in1007.8 mb 29.14 in986.8 mb -
Precipitation 0.33 in8.4 mm - -
Hour Temp Dew Point Humidity Winds Wind Gusts Pressure Precip Precip Rate Daily Precip Total
12:00 AM 43.2°F6.2°C 42.6°F5.9°C 98% 8.0 mph SSE12.9 kmh SSE -- 29.56 in1001.0 mb 0.07 in1.8 mm 0.00 in0.0 mm 0.07 in1.8 mm
12:01 AM 43.2°F6.2°C 42.6°F5.9°C 98% 8.0 mph ESE12.9 kmh ESE -- 29.56 in1001.0 mb 0.00 in0.0 mm 0.00 in0.0 mm 0.07 in1.8 mm
12:03 AM 43.2°F6.2°C 42.6°F5.9°C 98% 7.0 mph SE11.3 kmh SE -- 29.56 in1001.0 mb 0.00 in0.0 mm 0.00 in0.0 mm 0.07 in1.8 mm
12:04 AM 43.2°F6.2°C 42.6°F5.9°C 98% 11.0 mph SSE17.7 kmh SSE -- 29.56 in1001.0 mb 0.00 in0.0 mm 0.00 in0.0 mm 0.07 in1.8 mm
12:05 AM 43.2°F6.2°C 42.6°F5.9°C 98% 11.0 mph SE17.7 kmh SE -- 29.56 in1001.0 mb 0.00 in0.0 mm 0.00 in0.0 mm 0.07 in1.8 mm
12:07 AM 43.2°F6.2°C 42.6°F5.9°C 98% 11.0 mph ESE17.7 kmh ESE -- 29.56 in1001.0 mb 0.01 in0.3 mm 0.30 in7.6 mm 0.01 in0.3 mm
12:08 AM 43.2°F6.2°C 42.6°F5.9°C 98% 8.0 mph SE12.9 kmh SE -- 29.56 in1001.0 mb 0.01 in0.3 mm 0.00 in0.0 mm 0.01 in0.3 mm
12:09 AM 43.2°F6.2°C 42.6°F5.9°C 98% 11.0 mph ESE17.7 kmh ESE -- 29.56 in1001.0 mb 0.01 in0.3 mm 0.00 in0.0 mm 0.01 in0.3 mm
12:10 AM 43.2°F6.2°C 42.6°F5.9°C 98% 10.0 mph SE16.1 kmh SE -- 29.55 in1000.7 mb 0.01 in0.3 mm 0.00 in0.0 mm 0.01 in0.3 mm
12:11 AM 43.2°F6.2°C 42.6°F5.9°C 98% 12.0 mph ESE19.3 kmh ESE -- 29.55 in1000.7 mb 0.01 in0.3 mm 0.00 in0.0 mm 0.01 in0.3 mm
12:12 AM 43.2°F6.2°C 42.6°F5.9°C 98% 9.0 mph ESE14.5 kmh ESE -- 29.55 in1000.7 mb 0.01 in0.3 mm 0.00 in0.0 mm 0.01 in0.3 mm
12:13 AM 43.2°F6.2°C 42.6°F5.9°C 98% 8.0 mph ESE12.9 kmh ESE -- 29.55 in1000.7 mb 0.01 in0.3 mm 0.00 in0.0 mm 0.01 in0.3 mm
12:14 AM 43.2°F6.2°C 42.6°F5.9°C 98% 8.0 mph SSE12.9 kmh SSE -- 29.55 in1000.7 mb 0.01 in0.3 mm 0.00 in0.0 mm 0.01 in0.3 mm
12:15 AM 43.2°F6.2°C 42.6°F5.9°C 98% 9.0 mph SE14.5 kmh SE -- 29.55 in1000.7 mb 0.01 in0.3 mm 0.00 in0.0 mm 0.01 in0.3 mm
12:16 AM 43.2°F6.2°C 42.6°F5.9°C 98% 8.0 mph SE12.9 kmh SE -- 29.55 in1000.7 mb 0.01 in0.3 mm 0.00 in0.0 mm 0.01 in0.3 mm
12:17 AM 43.2°F6.2°C 42.6°F5.9°C 98% 10.0 mph SSE16.1 kmh SSE -- 29.55 in1000.7 mb 0.01 in0.3 mm 0.00 in0.0 mm 0.01 in0.3 mm
12:18 AM 43.2°F6.2°C 42.6°F5.9°C 98% 7.0 mph SE11.3 kmh SE -- 29.55 in1000.7 mb 0.01 in0.3 mm 0.00 in0.0 mm 0.01 in0.3 mm
12:19 AM 43.0°F6.1°C 42.4°F5.8°C 98% 11.0 mph SE17.7 kmh SE -- 29.55 in1000.7 mb 0.01 in0.3 mm 0.00 in0.0 mm 0.01 in0.3 mm
12:20 AM 43.0°F6.1°C 42.4°F5.8°C 98% 12.0 mph ESE19.3 kmh ESE -- 29.55 in1000.7 mb 0.01 in0.3 mm 0.00 in0.0 mm 0.01 in0.3 mm
12:21 AM 43.0°F6.1°C 42.4°F5.8°C 98% 8.0 mph ESE12.9 kmh ESE -- 29.55 in1000.7 mb 0.01 in0.3 mm 0.00 in0.0 mm 0.01 in0.3 mm
12:22 AM 42.7°F5.9°C 42.1°F5.6°C 98% 9.0 mph ESE14.5 kmh ESE -- 29.55 in1000.7 mb 0.01 in0.3 mm 0.00 in0.0 mm 0.01 in0.3 mm
12:23 AM 42.7°F5.9°C 42.1°F5.6°C 98% 6.0 mph ESE9.7 kmh ESE -- 29.55 in1000.7 mb 0.01 in0.3 mm 0.00 in0.0 mm 0.01 in0.3 mm
12:24 AM 42.7°F5.9°C 42.1°F5.6°C 98% 12.0 mph ESE19.3 kmh ESE -- 29.54 in1000.3 mb 0.01 in0.3 mm 0.00 in0.0 mm 0.01 in0.3 mm
12:25 AM 42.7°F5.9°C 42.1°F5.6°C 98% 10.0 mph ESE16.1 kmh ESE -- 29.55 in1000.7 mb 0.01 in0.3 mm 0.00 in0.0 mm 0.01 in0.3 mm
12:26 AM 42.7°F5.9°C 42.1°F5.6°C 98% 7.0 mph SE11.3 kmh SE -- 29.55 in1000.7 mb 0.01 in0.3 mm 0.00 in0.0 mm 0.01 in0.3 mm
12:27 AM 42.7°F5.9°C 42.1°F5.6°C 98% 7.0 mph SSE11.3 kmh SSE -- 29.54 in1000.3 mb 0.01 in0.3 mm 0.00 in0.0 mm 0.01 in0.3 mm
12:28 AM 42.7°F5.9°C 42.1°F5.6°C 98% 11.0 mph SE17.7 kmh SE -- 29.54 in1000.3 mb 0.01 in0.3 mm 0.00 in0.0 mm 0.01 in0.3 mm
12:29 AM 42.5°F5.8°C 41.9°F5.5°C 98% 11.0 mph SE17.7 kmh SE -- 29.55 in1000.7 mb 0.01 in0.3 mm 0.00 in0.0 mm 0.01 in0.3 mm
12:30 AM 42.5°F5.8°C 41.9°F5.5°C 98% 12.0 mph ESE19.3 kmh ESE -- 29.54 in1000.3 mb 0.01 in0.3 mm 0.00 in0.0 mm 0.01 in0.3 mm
12:31 AM 42.5°F5.8°C 41.9°F5.5°C 98% 9.0 mph ESE14.5 kmh ESE -- 29.54 in1000.3 mb 0.01 in0.3 mm 0.00 in0.0 mm 0.01 in0.3 mm
12:32 AM 42.5°F5.8°C 41.9°F5.5°C 98% 9.0 mph S14.5 kmh S -- 29.54 in1000.3 mb 0.01 in0.3 mm 0.00 in0.0 mm 0.01 in0.3 mm
12:33 AM 42.5°F5.8°C 41.9°F5.5°C 98% 10.0 mph ESE16.1 kmh ESE -- 29.54 in1000.3 mb 0.01 in0.3 mm 0.00 in0.0 mm 0.01 in0.3 mm
12:35 AM 42.5°F5.8°C 41.9°F5.5°C 98% 7.0 mph SE11.3 kmh SE -- 29.54 in1000.3 mb 0.01 in0.3 mm 0.00 in0.0 mm 0.01 in0.3 mm
12:36 AM 42.5°F5.8°C 41.9°F5.5°C 98% 10.0 mph SE16.1 kmh SE -- 29.54 in1000.3 mb 0.01 in0.3 mm 0.00 in0.0 mm 0.01 in0.3 mm
12:37 AM 42.5°F5.8°C 41.9°F5.5°C 98% 8.0 mph SE12.9 kmh SE -- 29.54 in1000.3 mb 0.01 in0.3 mm 0.00 in0.0 mm 0.01 in0.3 mm
12:38 AM 42.5°F5.8°C 41.9°F5.5°C 98% 8.0 mph SSE12.9 kmh SSE -- 29.55 in1000.7 mb 0.01 in0.3 mm 0.00 in0.0 mm 0.01 in0.3 mm
12:39 AM 42.5°F5.8°C 41.9°F5.5°C 98% 8.0 mph ESE12.9 kmh ESE -- 29.54 in1000.3 mb 0.01 in0.3 mm 0.00 in0.0 mm 0.01 in0.3 mm
12:40 AM 42.5°F5.8°C 41.9°F5.5°C 98% 8.0 mph SSE12.9 kmh SSE -- 29.54 in1000.3 mb 0.01 in0.3 mm 0.00 in0.0 mm 0.01 in0.3 mm
12:41 AM 42.5°F5.8°C 41.9°F5.5°C 98% 8.0 mph SE12.9 kmh SE -- 29.54 in1000.3 mb 0.01 in0.3 mm 0.00 in0.0 mm 0.01 in0.3 mm
12:42 AM 42.4°F5.8°C 41.9°F5.5°C 98% 7.0 mph SSE11.3 kmh SSE -- 29.54 in1000.3 mb 0.01 in0.3 mm 0.00 in0.0 mm 0.01 in0.3 mm
12:43 AM 42.4°F5.8°C 41.9°F5.5°C 98% 8.0 mph SE12.9 kmh SE -- 29.54 in1000.3 mb 0.01 in0.3 mm 0.00 in0.0 mm 0.01 in0.3 mm
12:44 AM 42.4°F5.8°C 41.9°F5.5°C 98% 9.0 mph SSE14.5 kmh SSE -- 29.54 in1000.3 mb 0.01 in0.3 mm 0.00 in0.0 mm 0.01 in0.3 mm
12:45 AM 42.4°F5.8°C 41.9°F5.5°C 98% 7.0 mph SE11.3 kmh SE -- 29.53 in1000.0 mb 0.01 in0.3 mm 0.00 in0.0 mm 0.01 in0.3 mm
12:47 AM 42.4°F5.8°C 41.9°F5.5°C 98% 8.0 mph ESE12.9 kmh ESE -- 29.53 in1000.0 mb 0.01 in0.3 mm 0.00 in0.0 mm 0.01 in0.3 mm
12:48 AM 42.4°F5.8°C 41.9°F5.5°C 98% 6.0 mph ESE9.7 kmh ESE -- 29.53 in1000.0 mb 0.01 in0.3 mm 0.00 in0.0 mm 0.01 in0.3 mm
12:49 AM 42.4°F5.8°C 41.9°F5.5°C 98% 4.0 mph E6.4 kmh E -- 29.53 in1000.0 mb 0.01 in0.3 mm 0.00 in0.0 mm 0.01 in0.3 mm
12:50 AM 42.3°F5.7°C 41.7°F5.4°C 98% 8.0 mph ESE12.9 kmh ESE -- 29.53 in1000.0 mb 0.01 in0.3 mm 0.00 in0.0 mm 0.01 in0.3 mm
12:51 AM 42.3°F5.7°C 41.7°F5.4°C 98% 7.0 mph SSE11.3 kmh SSE -- 29.53 in1000.0 mb 0.01 in0.3 mm 0.00 in0.0 mm 0.01 in0.3 mm
12:53 AM 42.3°F5.7°C 41.7°F5.4°C 98% 6.0 mph SE9.7 kmh SE -- 29.53 in1000.0 mb 0.01 in0.3 mm 0.00 in0.0 mm 0.01 in0.3 mm
12:54 AM 42.3°F5.7°C 41.7°F5.4°C 98% 7.0 mph SE11.3 kmh SE -- 29.52 in999.7 mb 0.01 in0.3 mm 0.00 in0.0 mm 0.01 in0.3 mm
12:55 AM 42.3°F5.7°C 41.7°F5.4°C 98% 7.0 mph ESE11.3 kmh ESE -- 29.52 in999.7 mb 0.01 in0.3 mm 0.00 in0.0 mm 0.01 in0.3 mm
12:56 AM 42.3°F5.7°C 41.7°F5.4°C 98% 8.0 mph ESE12.9 kmh ESE -- 29.52 in999.7 mb 0.02 in0.5 mm 0.60 in15.2 mm 0.02 in0.5 mm
12:57 AM 42.3°F5.7°C 41.7°F5.4°C 98% 11.0 mph ESE17.7 kmh ESE -- 29.52 in999.7 mb 0.02 in0.5 mm 0.00 in0.0 mm 0.02 in0.5 mm
12:58 AM 42.3°F5.7°C 41.7°F5.4°C 98% 7.0 mph SE11.3 kmh SE -- 29.52 in999.7 mb 0.02 in0.5 mm 0.00 in0.0 mm 0.02 in0.5 mm
12:59 AM 42.3°F5.7°C 41.7°F5.4°C 98% 11.0 mph ESE17.7 kmh ESE -- 29.52 in999.7 mb 0.02 in0.5 mm 0.00 in0.0 mm 0.02 in0.5 mm
01:00 AM 42.3°F5.7°C 41.7°F5.4°C 98% 11.0 mph SE17.7 kmh SE -- 29.52 in999.7 mb 0.02 in0.5 mm 0.00 in0.0 mm 0.02 in0.5 mm
01:01 AM 42.3°F5.7°C 41.7°F5.4°C 98% 11.0 mph ESE17.7 kmh ESE -- 29.52 in999.7 mb 0.00 in0.0 mm 0.00 in0.0 mm 0.02 in0.5 mm
01:02 AM 42.3°F5.7°C 41.7°F5.4°C 98% 10.0 mph SE16.1 kmh SE -- 29.52 in999.7 mb 0.00 in0.0 mm 0.00 in0.0 mm 0.02 in0.5 mm
01:04 AM 42.4°F5.8°C 41.9°F5.5°C 98% 9.0 mph ESE14.5 kmh ESE -- 29.51 in999.3 mb 0.00 in0.0 mm 0.00 in0.0 mm 0.02 in0.5 mm
01:05 AM 42.4°F5.8°C 41.9°F5.5°C 98% 7.0 mph ESE11.3 kmh ESE -- 29.51 in999.3 mb 0.00 in0.0 mm 0.00 in0.0 mm 0.02 in0.5 mm
01:06 AM 42.4°F5.8°C 41.9°F5.5°C 98% 10.0 mph ESE16.1 kmh ESE -- 29.52 in999.7 mb 0.00 in0.0 mm 0.00 in0.0 mm 0.02 in0.5 mm
01:07 AM 42.4°F5.8°C 41.9°F5.5°C 98% 15.0 mph SSE24.1 kmh SSE -- 29.52 in999.7 mb 0.00 in0.0 mm 0.00 in0.0 mm 0.02 in0.5 mm
01:08 AM 42.4°F5.8°C 41.9°F5.5°C 98% 10.0 mph ESE16.1 kmh ESE -- 29.51 in999.3 mb 0.00 in0.0 mm 0.00 in0.0 mm 0.02 in0.5 mm
01:09 AM 42.4°F5.8°C 41.9°F5.5°C 98% 9.0 mph ESE14.5 kmh ESE -- 29.51 in999.3 mb 0.00 in0.0 mm 0.00 in0.0 mm 0.02 in0.5 mm
01:10 AM 42.4°F5.8°C 41.9°F5.5°C 98% 10.0 mph ESE16.1 kmh ESE -- 29.51 in999.3 mb 0.00 in0.0 mm 0.00 in0.0 mm 0.02 in0.5 mm
01:11 AM 42.4°F5.8°C 41.9°F5.5°C 98% 8.0 mph ESE12.9 kmh ESE -- 29.51 in999.3 mb 0.00 in0.0 mm 0.00 in0.0 mm 0.02 in0.5 mm
01:12 AM 42.4°F5.8°C 41.9°F5.5°C 98% 10.0 mph ESE16.1 kmh ESE -- 29.51 in999.3 mb 0.00 in0.0 mm 0.00 in0.0 mm 0.02 in0.5 mm
01:13 AM 42.4°F5.8°C 41.9°F5.5°C 98% 12.0 mph ESE19.3 kmh ESE -- 29.51 in999.3 mb 0.00 in0.0 mm 0.00 in0.0 mm 0.02 in0.5 mm
01:14 AM 42.4°F5.8°C 41.9°F5.5°C 98% 9.0 mph SE14.5 kmh SE -- 29.52 in999.7 mb 0.00 in0.0 mm 0.00 in0.0 mm 0.02 in0.5 mm
01:15 AM 42.4°F5.8°C 41.9°F5.5°C 98% 10.0 mph SE16.1 kmh SE -- 29.52 in999.7 mb 0.00 in0.0 mm 0.00 in0.0 mm 0.02 in0.5 mm
01:16 AM 42.4°F5.8°C 41.9°F5.5°C 98% 12.0 mph ESE19.3 kmh ESE -- 29.51 in999.3 mb 0.00 in0.0 mm 0.00 in0.0 mm 0.02 in0.5 mm
01:17 AM 42.4°F5.8°C 41.9°F5.5°C 98% 8.0 mph SSE12.9 kmh SSE -- 29.51 in999.3 mb 0.00 in0.0 mm 0.00 in0.0 mm 0.02 in0.5 mm
01:19 AM 42.4°F5.8°C 41.9°F5.5°C 98% 5.0 mph SSE8.0 kmh SSE -- 29.51 in999.3 mb 0.00 in0.0 mm 0.00 in0.0 mm 0.02 in0.5 mm
01:20 AM 42.4°F5.8°C 41.9°F5.5°C 98% 5.0 mph SE8.0 kmh SE -- 29.51 in999.3 mb 0.00 in0.0 mm 0.00 in0.0 mm 0.02 in0.5 mm
01:21 AM 42.4°F5.8°C 41.9°F5.5°C 98% 9.0 mph ESE14.5 kmh ESE -- 29.50 in999.0 mb 0.00 in0.0 mm 0.00 in0.0 mm 0.02 in0.5 mm
01:22 AM 42.4°F5.8°C 41.9°F5.5°C 98% 7.0 mph ESE11.3 kmh ESE -- 29.50 in999.0 mb 0.00 in0.0 mm 0.00 in0.0 mm 0.02 in0.5 mm
01:23 AM 42.4°F5.8°C 41.9°F5.5°C 98% 9.0 mph ESE14.5 kmh ESE -- 29.50 in999.0 mb 0.00 in0.0 mm 0.00 in0.0 mm 0.02 in0.5 mm
01:24 AM 42.4°F5.8°C 41.9°F5.5°C 98% 7.0 mph SE11.3 kmh SE -- 29.50 in999.0 mb 0.00 in0.0 mm 0.00 in0.0 mm 0.02 in0.5 mm
01:25 AM 42.4°F5.8°C 41.9°F5.5°C 98% 7.0 mph ESE11.3 kmh ESE -- 29.50 in999.0 mb 0.00 in0.0 mm 0.00 in0.0 mm 0.02 in0.5 mm
01:26 AM 42.4°F5.8°C 41.9°F5.5°C 98% 10.0 mph SE16.1 kmh SE -- 29.50 in999.0 mb 0.00 in0.0 mm 0.00 in0.0 mm 0.02 in0.5 mm
01:27 AM 42.4°F5.8°C 41.9°F5.5°C 98% 7.0 mph SE11.3 kmh SE -- 29.50 in999.0 mb 0.00 in0.0 mm 0.00 in0.0 mm 0.02 in0.5 mm
01:28 AM 42.4°F5.8°C 41.9°F5.5°C 98% 7.0 mph SSE11.3 kmh SSE -- 29.50 in999.0 mb 0.01 in0.3 mm 0.60 in15.2 mm 0.03 in0.8 mm
01:29 AM 42.4°F5.8°C 41.9°F5.5°C 98% 10.0 mph SE16.1 kmh SE -- 29.49 in998.6 mb 0.01 in0.3 mm 0.00 in0.0 mm 0.03 in0.8 mm
01:30 AM 42.4°F5.8°C 41.9°F5.5°C 98% 9.0 mph SSE14.5 kmh SSE -- 29.50 in999.0 mb 0.01 in0.3 mm 0.00 in0.0 mm 0.03 in0.8 mm
01:31 AM 42.4°F5.8°C 41.9°F5.5°C 98% 8.0 mph SSE12.9 kmh SSE -- 29.50 in999.0 mb 0.01 in0.3 mm 0.00 in0.0 mm 0.03 in0.8 mm
01:32 AM 42.4°F5.8°C 41.9°F5.5°C 98% 9.0 mph SE14.5 kmh SE -- 29.50 in999.0 mb 0.01 in0.3 mm 0.00 in0.0 mm 0.03 in0.8 mm
01:33 AM 42.4°F5.8°C 41.9°F5.5°C 98% 9.0 mph SSE14.5 kmh SSE -- 29.50 in999.0 mb 0.01 in0.3 mm 0.00 in0.0 mm 0.03 in0.8 mm
01:34 AM 42.4°F5.8°C 41.9°F5.5°C 98% 11.0 mph SE17.7 kmh SE -- 29.50 in999.0 mb 0.01 in0.3 mm 0.00 in0.0 mm 0.03 in0.8 mm
01:35 AM 42.4°F5.8°C 41.9°F5.5°C 98% 10.0 mph ESE16.1 kmh ESE -- 29.50 in999.0 mb 0.01 in0.3 mm 0.00 in0.0 mm 0.03 in0.8 mm
01:36 AM 42.4°F5.8°C 41.9°F5.5°C 98% 8.0 mph SE12.9 kmh SE -- 29.50 in999.0 mb 0.01 in0.3 mm 0.00 in0.0 mm 0.03 in0.8 mm
01:37 AM 42.4°F5.8°C 41.9°F5.5°C 98% 8.0 mph ESE12.9 kmh ESE -- 29.50 in999.0 mb 0.01 in0.3 mm 0.00 in0.0 mm 0.03 in0.8 mm
01:38 AM 42.4°F5.8°C 41.9°F5.5°C 98% 9.0 mph ESE14.5 kmh ESE -- 29.50 in999.0 mb 0.01 in0.3 mm 0.00 in0.0 mm 0.03 in0.8 mm
01:39 AM 42.4°F5.8°C 41.9°F5.5°C 98% 10.0 mph ESE16.1 kmh ESE -- 29.50 in999.0 mb 0.01 in0.3 mm 0.00 in0.0 mm 0.03 in0.8 mm
01:40 AM 42.4°F5.8°C 41.9°F5.5°C 98% 9.0 mph SE14.5 kmh SE -- 29.50 in999.0 mb 0.01 in0.3 mm 0.00 in0.0 mm 0.03 in0.8 mm
01:41 AM 42.4°F5.8°C 41.9°F5.5°C 98% 6.0 mph ESE9.7 kmh ESE -- 29.50 in999.0 mb 0.01 in0.3 mm 0.00 in0.0 mm 0.03 in0.8 mm
01:42 AM 42.4°F5.8°C 41.9°F5.5°C 98% 8.0 mph ESE12.9 kmh ESE -- 29.50 in999.0 mb 0.02 in0.5 mm 0.60 in15.2 mm 0.04 in1.0 mm
01:43 AM 42.4°F5.8°C 41.9°F5.5°C 98% 6.0 mph ESE9.7 kmh ESE -- 29.50 in999.0 mb 0.02 in0.5 mm 0.00 in0.0 mm 0.04 in1.0 mm
01:44 AM 42.4°F5.8°C 41.9°F5.5°C 98% 8.0 mph ESE12.9 kmh ESE -- 29.49 in998.6 mb 0.02 in0.5 mm 0.00 in0.0 mm 0.04 in1.0 mm
01:45 AM 42.4°F5.8°C 41.9°F5.5°C 98% 9.0 mph ESE14.5 kmh ESE -- 29.49 in998.6 mb 0.02 in0.5 mm 0.00 in0.0 mm 0.04 in1.0 mm
01:46 AM 42.4°F5.8°C 41.9°F5.5°C 98% 7.0 mph ESE11.3 kmh ESE -- 29.49 in998.6 mb 0.02 in0.5 mm 0.00 in0.0 mm 0.04 in1.0 mm
01:47 AM 42.4°F5.8°C 41.9°F5.5°C 98% 5.0 mph ESE8.0 kmh ESE -- 29.49 in998.6 mb 0.02 in0.5 mm 0.00 in0.0 mm 0.04 in1.0 mm
01:48 AM 42.4°F5.8°C 41.9°F5.5°C 98% 9.0 mph ESE14.5 kmh ESE -- 29.49 in998.6 mb 0.02 in0.5 mm 0.00 in0.0 mm 0.04 in1.0 mm
01:49 AM 42.4°F5.8°C 41.9°F5.5°C 98% 8.0 mph ESE12.9 kmh ESE -- 29.49 in998.6 mb 0.02 in0.5 mm 0.00 in0.0 mm 0.04 in1.0 mm
01:50 AM 42.4°F5.8°C 41.9°F5.5°C 98% 8.0 mph E12.9 kmh E -- 29.49 in998.6 mb 0.02 in0.5 mm 0.00 in0.0 mm 0.04 in1.0 mm
01:51 AM 42.4°F5.8°C 41.9°F5.5°C 98% 11.0 mph ESE17.7 kmh ESE -- 29.49 in998.6 mb 0.02 in0.5 mm 0.00 in0.0 mm 0.04 in1.0 mm
01:53 AM 42.4°F5.8°C 41.9°F5.5°C 98% 7.0 mph ESE11.3 kmh ESE -- 29.49 in998.6 mb 0.03 in0.8 mm 0.30 in7.6 mm 0.05 in1.3 mm
01:54 AM 42.4°F5.8°C 41.9°F5.5°C 98% 7.0 mph SE11.3 kmh SE -- 29.49 in998.6 mb 0.03 in0.8 mm 0.00 in0.0 mm 0.05 in1.3 mm
01:56 AM 42.4°F5.8°C 41.9°F5.5°C 98% 10.0 mph ESE16.1 kmh ESE -- 29.49 in998.6 mb 0.03 in0.8 mm 0.00 in0.0 mm 0.05 in1.3 mm
01:58 AM 42.4°F5.8°C 41.9°F5.5°C 98% 9.0 mph ESE14.5 kmh ESE -- 29.49 in998.6 mb 0.03 in0.8 mm 0.00 in0.0 mm 0.05 in1.3 mm
01:59 AM 42.4°F5.8°C 41.9°F5.5°C 98% 10.0 mph SSE16.1 kmh SSE -- 29.49 in998.6 mb 0.03 in0.8 mm 0.00 in0.0 mm 0.05 in1.3 mm
02:00 AM 42.4°F5.8°C 41.9°F5.5°C 98% 9.0 mph ESE14.5 kmh ESE -- 29.48 in998.3 mb 0.03 in0.8 mm 0.00 in0.0 mm 0.05 in1.3 mm
02:02 AM 42.4°F5.8°C 41.9°F5.5°C 98% 10.0 mph ESE16.1 kmh ESE -- 29.48 in998.3 mb 0.00 in0.0 mm 0.00 in0.0 mm 0.05 in1.3 mm
02:03 AM 42.4°F5.8°C 41.9°F5.5°C 98% 8.0 mph ESE12.9 kmh ESE -- 29.48 in998.3 mb 0.00 in0.0 mm 0.00 in0.0 mm 0.05 in1.3 mm
02:04 AM 42.4°F5.8°C 41.9°F5.5°C 98% 9.0 mph SSE14.5 kmh SSE -- 29.48 in998.3 mb 0.00 in0.0 mm 0.00 in0.0 mm 0.05 in1.3 mm
02:05 AM 42.4°F5.8°C 41.9°F5.5°C 98% 8.0 mph ESE12.9 kmh ESE -- 29.48 in998.3 mb 0.00 in0.0 mm 0.00 in0.0 mm 0.05 in1.3 mm
02:06 AM 42.4°F5.8°C 41.9°F5.5°C 98% 7.0 mph SE11.3 kmh SE -- 29.48 in998.3 mb 0.00 in0.0 mm 0.00 in0.0 mm 0.05 in1.3 mm
02:07 AM 42.4°F5.8°C 41.9°F5.5°C 98% 7.0 mph ESE11.3 kmh ESE -- 29.47 in998.0 mb 0.00 in0.0 mm 0.00 in0.0 mm 0.05 in1.3 mm
02:08 AM 42.4°F5.8°C 41.9°F5.5°C 98% 7.0 mph SE11.3 kmh SE -- 29.47 in998.0 mb 0.00 in0.0 mm 0.00 in0.0 mm 0.05 in1.3 mm
02:09 AM 42.4°F5.8°C 41.9°F5.5°C 98% 8.0 mph ESE12.9 kmh ESE -- 29.47 in998.0 mb 0.00 in0.0 mm 0.00 in0.0 mm 0.05 in1.3 mm
02:10 AM 42.4°F5.8°C 41.9°F5.5°C 98% 7.0 mph ESE11.3 kmh ESE -- 29.47 in998.0 mb 0.00 in0.0 mm 0.00 in0.0 mm 0.05 in1.3 mm
02:11 AM 42.4°F5.8°C 41.9°F5.5°C 98% 5.0 mph SE8.0 kmh SE -- 29.47 in998.0 mb 0.00 in0.0 mm 0.00 in0.0 mm 0.05 in1.3 mm
02:12 AM 42.4°F5.8°C 41.9°F5.5°C 98% 7.0 mph ESE11.3 kmh ESE -- 29.46 in997.6 mb 0.00 in0.0 mm 0.00 in0.0 mm 0.05 in1.3 mm
02:13 AM 42.4°F5.8°C 41.9°F5.5°C 98% 8.0 mph ESE12.9 kmh ESE -- 29.46 in997.6 mb 0.00 in0.0 mm 0.00 in0.0 mm 0.05 in1.3 mm
02:14 AM 42.4°F5.8°C 41.9°F5.5°C 98% 10.0 mph SSE16.1 kmh SSE -- 29.46 in997.6 mb 0.00 in0.0 mm 0.00 in0.0 mm 0.05 in1.3 mm
02:15 AM 42.4°F5.8°C 41.9°F5.5°C 98% 7.0 mph ESE11.3 kmh ESE -- 29.46 in997.6 mb 0.00 in0.0 mm 0.00 in0.0 mm 0.05 in1.3 mm
02:16 AM 42.4°F5.8°C 41.9°F5.5°C 98% 8.0 mph ESE12.9 kmh ESE -- 29.46 in997.6 mb 0.00 in0.0 mm 0.00 in0.0 mm 0.05 in1.3 mm
02:18 AM 42.4°F5.8°C 41.9°F5.5°C 98% 6.0 mph SE9.7 kmh SE -- 29.46 in997.6 mb 0.00 in0.0 mm 0.00 in0.0 mm 0.05 in1.3 mm
02:19 AM 42.4°F5.8°C 41.9°F5.5°C 98% 8.0 mph ESE12.9 kmh ESE -- 29.46 in997.6 mb 0.00 in0.0 mm 0.00 in0.0 mm 0.05 in1.3 mm
02:20 AM 42.4°F5.8°C 41.9°F5.5°C 98% 6.0 mph E9.7 kmh E -- 29.46 in997.6 mb 0.00 in0.0 mm 0.00 in0.0 mm 0.05 in1.3 mm
02:21 AM 42.4°F5.8°C 41.9°F5.5°C 98% 9.0 mph ESE14.5 kmh ESE -- 29.46 in997.6 mb 0.00 in0.0 mm 0.00 in0.0 mm 0.05 in1.3 mm
02:22 AM 42.4°F5.8°C 41.9°F5.5°C 98% 10.0 mph ESE16.1 kmh ESE -- 29.47 in998.0 mb 0.01 in0.3 mm 0.60 in15.2 mm 0.06 in1.5 mm
02:23 AM 42.4°F5.8°C 41.9°F5.5°C 98% 12.0 mph ESE19.3 kmh ESE -- 29.46 in997.6 mb 0.01 in0.3 mm 0.00 in0.0 mm 0.06 in1.5 mm
02:24 AM 42.3°F5.7°C 41.7°F5.4°C 98% 12.0 mph ESE19.3 kmh ESE -- 29.46 in997.6 mb 0.01 in0.3 mm 0.00 in0.0 mm 0.06 in1.5 mm
02:25 AM 42.3°F5.7°C 41.7°F5.4°C 98% 10.0 mph ESE16.1 kmh ESE -- 29.47 in998.0 mb 0.01 in0.3 mm 0.00 in0.0 mm 0.06 in1.5 mm
02:26 AM 42.3°F5.7°C 41.7°F5.4°C 98% 7.0 mph ESE11.3 kmh ESE -- 29.47 in998.0 mb 0.01 in0.3 mm 0.00 in0.0 mm 0.06 in1.5 mm
02:27 AM 42.3°F5.7°C 41.7°F5.4°C 98% 7.0 mph SE11.3 kmh SE -- 29.46 in997.6 mb 0.01 in0.3 mm 0.00 in0.0 mm 0.06 in1.5 mm
02:28 AM 42.3°F5.7°C 41.7°F5.4°C 98% 10.0 mph SE16.1 kmh SE -- 29.46 in997.6 mb 0.01 in0.3 mm 0.00 in0.0 mm 0.06 in1.5 mm
02:29 AM 42.1°F5.6°C 41.5°F5.3°C 98% 8.0 mph ESE12.9 kmh ESE -- 29.46 in997.6 mb 0.01 in0.3 mm 0.00 in0.0 mm 0.06 in1.5 mm
02:30 AM 42.1°F5.6°C 41.5°F5.3°C 98% 10.0 mph SSE16.1 kmh SSE -- 29.45 in997.3 mb 0.01 in0.3 mm 0.00 in0.0 mm 0.06 in1.5 mm
02:31 AM 42.1°F5.6°C 41.5°F5.3°C 98% 11.0 mph ESE17.7 kmh ESE -- 29.45 in997.3 mb 0.01 in0.3 mm 0.00 in0.0 mm 0.06 in1.5 mm
02:32 AM 42.1°F5.6°C 41.5°F5.3°C 98% 9.0 mph ESE14.5 kmh ESE -- 29.45 in997.3 mb 0.01 in0.3 mm 0.00 in0.0 mm 0.06 in1.5 mm
02:33 AM 42.1°F5.6°C 41.5°F5.3°C 98% 8.0 mph ESE12.9 kmh ESE -- 29.45 in997.3 mb 0.01 in0.3 mm 0.00 in0.0 mm 0.06 in1.5 mm
02:34 AM 42.1°F5.6°C 41.5°F5.3°C 98% 11.0 mph ESE17.7 kmh ESE -- 29.45 in997.3 mb 0.01 in0.3 mm 0.00 in0.0 mm 0.06 in1.5 mm
02:35 AM 42.1°F5.6°C 41.5°F5.3°C 98% 9.0 mph ESE14.5 kmh ESE -- 29.45 in997.3 mb 0.01 in0.3 mm 0.00 in0.0 mm 0.06 in1.5 mm
02:36 AM 42.1°F5.6°C 41.5°F5.3°C 98% 8.0 mph ESE12.9 kmh ESE -- 29.45 in997.3 mb 0.01 in0.3 mm 0.00 in0.0 mm 0.06 in1.5 mm
02:37 AM 42.1°F5.6°C 41.5°F5.3°C 98% 9.0 mph ESE14.5 kmh ESE -- 29.45 in997.3 mb 0.01 in0.3 mm 0.00 in0.0 mm 0.06 in1.5 mm
02:38 AM 42.1°F5.6°C 41.5°F5.3°C 98% 8.0 mph ESE12.9 kmh ESE -- 29.45 in997.3 mb 0.01 in0.3 mm 0.00 in0.0 mm 0.06 in1.5 mm
02:40 AM 42.1°F5.6°C 41.5°F5.3°C 98% 10.0 mph ESE16.1 kmh ESE -- 29.46 in997.6 mb 0.02 in0.5 mm 0.30 in7.6 mm 0.07 in1.8 mm
02:41 AM 41.9°F5.5°C 41.4°F5.2°C 98% 8.0 mph ESE12.9 kmh ESE -- 29.45 in997.3 mb 0.02 in0.5 mm 0.00 in0.0 mm 0.07 in1.8 mm
02:42 AM 41.9°F5.5°C 41.4°F5.2°C 98% 7.0 mph ESE11.3 kmh ESE -- 29.45 in997.3 mb 0.02 in0.5 mm 0.00 in0.0 mm 0.07 in1.8 mm
02:43 AM 41.9°F5.5°C 41.4°F5.2°C 98% 9.0 mph ESE14.5 kmh ESE -- 29.45 in997.3 mb 0.02 in0.5 mm 0.00 in0.0 mm 0.07 in1.8 mm
02:45 AM 41.9°F5.5°C 41.4°F5.2°C 98% 8.0 mph SE12.9 kmh SE -- 29.45 in997.3 mb 0.02 in0.5 mm 0.00 in0.0 mm 0.07 in1.8 mm
02:46 AM 41.9°F5.5°C 41.4°F5.2°C 98% 7.0 mph ESE11.3 kmh ESE -- 29.45 in997.3 mb 0.02 in0.5 mm 0.00 in0.0 mm 0.07 in1.8 mm
02:47 AM 41.9°F5.5°C 41.4°F5.2°C 98% 5.0 mph ESE8.0 kmh ESE -- 29.46 in997.6 mb 0.02 in0.5 mm 0.00 in0.0 mm 0.07 in1.8 mm
02:48 AM 41.9°F5.5°C 41.4°F5.2°C 98% 5.0 mph ESE8.0 kmh ESE -- 29.45 in997.3 mb 0.02 in0.5 mm 0.00 in0.0 mm 0.07 in1.8 mm
02:49 AM 41.9°F5.5°C 41.4°F5.2°C 98% 8.0 mph ESE12.9 kmh ESE -- 29.45 in997.3 mb 0.03 in0.8 mm 0.60 in15.2 mm 0.08 in2.0 mm
02:50 AM 41.9°F5.5°C 41.4°F5.2°C 98% 11.0 mph ESE17.7 kmh ESE -- 29.45 in997.3 mb 0.03 in0.8 mm 0.00 in0.0 mm 0.08 in2.0 mm
02:51 AM 41.9°F5.5°C 41.4°F5.2°C 98% 10.0 mph ESE16.1 kmh ESE -- 29.45 in997.3 mb 0.03 in0.8 mm 0.00 in0.0 mm 0.08 in2.0 mm
02:52 AM 41.9°F5.5°C 41.4°F5.2°C 98% 11.0 mph ESE17.7 kmh ESE -- 29.45 in997.3 mb 0.03 in0.8 mm 0.00 in0.0 mm 0.08 in2.0 mm
02:53 AM 41.9°F5.5°C 41.4°F5.2°C 98% 8.0 mph ESE12.9 kmh ESE -- 29.45 in997.3 mb 0.03 in0.8 mm 0.00 in0.0 mm 0.08 in2.0 mm
02:54 AM 41.9°F5.5°C 41.4°F5.2°C 98% 7.0 mph ESE11.3 kmh ESE -- 29.45 in997.3 mb 0.03 in0.8 mm 0.00 in0.0 mm 0.08 in2.0 mm
02:55 AM 41.9°F5.5°C 41.4°F5.2°C 98% 8.0 mph SE12.9 kmh SE -- 29.45 in997.3 mb 0.04 in1.0 mm 0.60 in15.2 mm 0.09 in2.3 mm
02:56 AM 41.7°F5.4°C 41.2°F5.1°C 98% 8.0 mph ESE12.9 kmh ESE -- 29.44 in997.0 mb 0.04 in1.0 mm 0.00 in0.0 mm 0.09 in2.3 mm
02:58 AM 41.7°F5.4°C 41.2°F5.1°C 98% 5.0 mph ESE8.0 kmh ESE -- 29.44 in997.0 mb 0.04 in1.0 mm 0.00 in0.0 mm 0.09 in2.3 mm
02:59 AM 41.7°F5.4°C 41.2°F5.1°C 98% 8.0 mph ESE12.9 kmh ESE -- 29.44 in997.0 mb 0.04 in1.0 mm 0.00 in0.0 mm 0.09 in2.3 mm
03:00 AM 41.7°F5.4°C 41.2°F5.1°C 98% 4.0 mph ESE6.4 kmh ESE -- 29.44 in997.0 mb 0.04 in1.0 mm 0.00 in0.0 mm 0.09 in2.3 mm
03:01 AM 41.7°F5.4°C 41.2°F5.1°C 98% 6.0 mph ESE9.7 kmh ESE -- 29.43 in996.6 mb 0.00 in0.0 mm 0.00 in0.0 mm 0.09 in2.3 mm
03:03 AM 41.7°F5.4°C 41.2°F5.1°C 98% 8.0 mph ESE12.9 kmh ESE -- 29.43 in996.6 mb 0.00 in0.0 mm 0.00 in0.0 mm 0.09 in2.3 mm
03:04 AM 41.7°F5.4°C 41.2°F5.1°C 98% 9.0 mph ESE14.5 kmh ESE -- 29.43 in996.6 mb 0.00 in0.0 mm 0.00 in0.0 mm 0.09 in2.3 mm
03:05 AM 41.7°F5.4°C 41.2°F5.1°C 98% 9.0 mph E14.5 kmh E -- 29.43 in996.6 mb 0.00 in0.0 mm 0.00 in0.0 mm 0.09 in2.3 mm
03:06 AM 41.7°F5.4°C 41.2°F5.1°C 98% 7.0 mph SE11.3 kmh SE -- 29.43 in996.6 mb 0.00 in0.0 mm 0.00 in0.0 mm 0.09 in2.3 mm
03:07 AM 41.7°F5.4°C 41.2°F5.1°C 98% 4.0 mph ESE6.4 kmh ESE -- 29.43 in996.6 mb 0.00 in0.0 mm 0.00 in0.0 mm 0.09 in2.3 mm
03:08 AM 41.7°F5.4°C 41.2°F5.1°C 98% 6.0 mph ESE9.7 kmh ESE -- 29.43 in996.6 mb 0.00 in0.0 mm 0.00 in0.0 mm 0.09 in2.3 mm
03:09 AM 41.7°F5.4°C 41.2°F5.1°C 98% 4.0 mph ESE6.4 kmh ESE -- 29.43 in996.6 mb 0.00 in0.0 mm 0.00 in0.0 mm 0.09 in2.3 mm
03:10 AM 41.7°F5.4°C 41.2°F5.1°C 98% 5.0 mph ESE8.0 kmh ESE -- 29.43 in996.6 mb 0.00 in0.0 mm 0.00 in0.0 mm 0.09 in2.3 mm
03:11 AM 41.7°F5.4°C 41.2°F5.1°C 98% 7.0 mph ESE11.3 kmh ESE -- 29.43 in996.6 mb 0.00 in0.0 mm 0.00 in0.0 mm 0.09 in2.3 mm
03:14 AM 41.7°F5.4°C 41.2°F5.1°C 98% 6.0 mph ESE9.7 kmh ESE -- 29.43 in996.6 mb 0.00 in0.0 mm 0.00 in0.0 mm 0.09 in2.3 mm
03:15 AM 41.7°F5.4°C 41.2°F5.1°C 98% 5.0 mph ESE8.0 kmh ESE -- 29.43 in996.6 mb 0.00 in0.0 mm 0.00 in0.0 mm 0.09 in2.3 mm
03:16 AM 41.7°F5.4°C 41.2°F5.1°C 98% 6.0 mph ESE9.7 kmh ESE -- 29.43 in996.6 mb 0.00 in0.0 mm 0.00 in0.0 mm 0.09 in2.3 mm
03:17 AM 41.7°F5.4°C 41.2°F5.1°C 98% 3.0 mph E4.8 kmh E -- 29.43 in996.6 mb 0.00 in0.0 mm 0.00 in0.0 mm 0.09 in2.3 mm
03:18 AM 41.7°F5.4°C 41.2°F5.1°C 98% 6.0 mph E9.7 kmh E -- 29.42 in996.3 mb 0.00 in0.0 mm 0.00 in0.0 mm 0.09 in2.3 mm
03:19 AM 41.7°F5.4°C 41.2°F5.1°C 98% 3.0 mph E4.8 kmh E -- 29.42 in996.3 mb 0.00 in0.0 mm 0.00 in0.0 mm 0.09 in2.3 mm
03:20 AM 41.7°F5.4°C 41.2°F5.1°C 98% 5.0 mph E8.0 kmh E -- 29.42 in996.3 mb 0.00 in0.0 mm 0.00 in0.0 mm 0.09 in2.3 mm
03:21 AM 41.7°F5.4°C 41.2°F5.1°C 98% 2.0 mph E3.2 kmh E -- 29.42 in996.3 mb 0.00 in0.0 mm 0.00 in0.0 mm 0.09 in2.3 mm
03:22 AM 41.7°F5.4°C 41.2°F5.1°C 98% 5.0 mph E8.0 kmh E -- 29.41 in995.9 mb 0.00 in0.0 mm 0.00 in0.0 mm 0.09 in2.3 mm
03:23 AM 41.7°F5.4°C 41.2°F5.1°C 98% 2.0 mph ENE3.2 kmh ENE -- 29.41 in995.9 mb 0.00 in0.0 mm 0.00 in0.0 mm 0.09 in2.3 mm
03:24 AM 41.5°F5.3°C 41.0°F5.0°C 98% 5.0 mph E8.0 kmh E -- 29.41 in995.9 mb 0.00 in0.0 mm 0.00 in0.0 mm 0.09 in2.3 mm
03:26 AM 41.5°F5.3°C 41.0°F5.0°C 98% 3.0 mph E4.8 kmh E -- 29.41 in995.9 mb 0.01 in0.3 mm 0.30 in7.6 mm 0.10 in2.5 mm
03:27 AM 41.5°F5.3°C 41.0°F5.0°C 98% 2.0 mph ENE3.2 kmh ENE -- 29.41 in995.9 mb 0.01 in0.3 mm 0.00 in0.0 mm 0.10 in2.5 mm
03:28 AM 41.5°F5.3°C 41.0°F5.0°C 98% 2.0 mph ESE3.2 kmh ESE -- 29.41 in995.9 mb 0.01 in0.3 mm 0.00 in0.0 mm 0.10 in2.5 mm
03:29 AM 41.5°F5.3°C 41.0°F5.0°C 98% 3.0 mph NE4.8 kmh NE -- 29.41 in995.9 mb 0.01 in0.3 mm 0.00 in0.0 mm 0.10 in2.5 mm
03:31 AM 41.5°F5.3°C 41.0°F5.0°C 98% 3.0 mph E4.8 kmh E -- 29.41 in995.9 mb 0.01 in0.3 mm 0.00 in0.0 mm 0.10 in2.5 mm
03:32 AM 41.5°F5.3°C 41.0°F5.0°C 98% 3.0 mph E4.8 kmh E -- 29.40 in995.6 mb 0.01 in0.3 mm 0.00 in0.0 mm 0.10 in2.5 mm
03:33 AM 41.5°F5.3°C 41.0°F5.0°C 98% 2.0 mph NE3.2 kmh NE -- 29.40 in995.6 mb 0.01 in0.3 mm 0.00 in0.0 mm 0.10 in2.5 mm
03:34 AM 41.5°F5.3°C 41.0°F5.0°C 98% 4.0 mph NE6.4 kmh NE -- 29.40 in995.6 mb 0.01 in0.3 mm 0.00 in0.0 mm 0.10 in2.5 mm
03:36 AM 41.5°F5.3°C 41.0°F5.0°C 98% 3.0 mph NE4.8 kmh NE -- 29.40 in995.6 mb 0.01 in0.3 mm 0.00 in0.0 mm 0.10 in2.5 mm
03:37 AM 41.5°F5.3°C 41.0°F5.0°C 98% 4.0 mph NE6.4 kmh NE -- 29.40 in995.6 mb 0.01 in0.3 mm 0.00 in0.0 mm 0.10 in2.5 mm
03:38 AM 41.5°F5.3°C 41.0°F5.0°C 98% 3.0 mph NE4.8 kmh NE -- 29.40 in995.6 mb 0.01 in0.3 mm 0.00 in0.0 mm 0.10 in2.5 mm
03:39 AM 41.5°F5.3°C 41.0°F5.0°C 98% 3.0 mph ENE4.8 kmh ENE -- 29.40 in995.6 mb 0.02 in0.5 mm 0.60 in15.2 mm 0.11 in2.8 mm
03:40 AM 41.5°F5.3°C 41.0°F5.0°C 98% 3.0 mph NE4.8 kmh NE -- 29.40 in995.6 mb 0.02 in0.5 mm 0.00 in0.0 mm 0.11 in2.8 mm
03:41 AM 41.5°F5.3°C 41.0°F5.0°C 98% 2.0 mph NE3.2 kmh NE -- 29.40 in995.6 mb 0.02 in0.5 mm 0.00 in0.0 mm 0.11 in2.8 mm
03:42 AM 41.5°F5.3°C 41.0°F5.0°C 98% 5.0 mph NNE8.0 kmh NNE -- 29.40 in995.6 mb 0.03 in0.8 mm 0.60 in15.2 mm 0.12 in3.0 mm
03:43 AM 41.5°F5.3°C 41.0°F5.0°C 98% 3.0 mph NE4.8 kmh NE -- 29.40 in995.6 mb 0.03 in0.8 mm 0.00 in0.0 mm 0.12 in3.0 mm
03:44 AM 41.5°F5.3°C 41.0°F5.0°C 98% 3.0 mph NNE4.8 kmh NNE -- 29.40 in995.6 mb 0.03 in0.8 mm 0.00 in0.0 mm 0.12 in3.0 mm
03:45 AM 41.5°F5.3°C 41.0°F5.0°C 98% 5.0 mph NE8.0 kmh NE -- 29.39 in995.3 mb 0.03 in0.8 mm 0.00 in0.0 mm 0.12 in3.0 mm
03:46 AM 41.5°F5.3°C 41.0°F5.0°C 98% 3.0 mph NNE4.8 kmh NNE -- 29.39 in995.3 mb 0.03 in0.8 mm 0.00 in0.0 mm 0.12 in3.0 mm
03:47 AM 41.5°F5.3°C 41.0°F5.0°C 98% 4.0 mph NNE6.4 kmh NNE -- 29.39 in995.3 mb 0.04 in1.0 mm 0.60 in15.2 mm 0.13 in3.3 mm
03:49 AM 41.5°F5.3°C 41.0°F5.0°C 98% 3.0 mph NW4.8 kmh NW -- 29.39 in995.3 mb 0.04 in1.0 mm 0.00 in0.0 mm 0.13 in3.3 mm
03:50 AM 40.7°F4.8°C 40.1°F4.5°C 98% 8.0 mph NNW12.9 kmh NNW -- 29.39 in995.3 mb 0.04 in1.0 mm 0.00 in0.0 mm 0.13 in3.3 mm
03:51 AM 39.2°F4.0°C 38.7°F3.7°C 98% 8.0 mph NW12.9 kmh NW -- 29.39 in995.3 mb 0.04 in1.0 mm 0.00 in0.0 mm 0.13 in3.3 mm
03:52 AM 38.7°F3.7°C 38.1°F3.4°C 98% 8.0 mph WNW12.9 kmh WNW -- 29.38 in994.9 mb 0.05 in1.3 mm 0.60 in15.2 mm 0.14 in3.6 mm
03:53 AM 37.8°F3.2°C 37.2°F2.9°C 98% 9.0 mph NW14.5 kmh NW -- 29.38 in994.9 mb 0.05 in1.3 mm 0.00 in0.0 mm 0.14 in3.6 mm
03:54 AM 37.8°F3.2°C 37.2°F2.9°C 98% 6.0 mph NNW9.7 kmh NNW -- 29.38 in994.9 mb 0.05 in1.3 mm 0.00 in0.0 mm 0.14 in3.6 mm
03:55 AM 37.2°F2.9°C 36.7°F2.6°C 98% 8.0 mph WNW12.9 kmh WNW -- 29.38 in994.9 mb 0.05 in1.3 mm 0.00 in0.0 mm 0.14 in3.6 mm
03:56 AM 36.9°F2.7°C 36.3°F2.4°C 98% 8.0 mph NW12.9 kmh NW -- 29.38 in994.9 mb 0.05 in1.3 mm 0.00 in0.0 mm 0.14 in3.6 mm
03:57 AM 36.7°F2.6°C 36.2°F2.3°C 98% 9.0 mph NW14.5 kmh NW -- 29.37 in994.6 mb 0.05 in1.3 mm 0.00 in0.0 mm 0.14 in3.6 mm
03:58 AM 36.5°F2.5°C 36.0°F2.2°C 98% 11.0 mph NW17.7 kmh NW -- 29.38 in994.9 mb 0.05 in1.3 mm 0.00 in0.0 mm 0.14 in3.6 mm
03:59 AM 36.2°F2.3°C 35.6°F2.0°C 98% 12.0 mph WNW19.3 kmh WNW -- 29.38 in994.9 mb 0.05 in1.3 mm 0.00 in0.0 mm 0.14 in3.6 mm
04:00 AM 36.1°F2.3°C 35.6°F2.0°C 98% 10.0 mph NNW16.1 kmh NNW -- 29.37 in994.6 mb 0.05 in1.3 mm 0.00 in0.0 mm 0.14 in3.6 mm
04:01 AM 36.1°F2.3°C 35.6°F2.0°C 98% 8.0 mph W12.9 kmh W -- 29.37 in994.6 mb 0.00 in0.0 mm 0.00 in0.0 mm 0.15 in3.8 mm
04:02 AM 36.1°F2.3°C 35.6°F2.0°C 98% 7.0 mph NW11.3 kmh NW -- 29.37 in994.6 mb 0.00 in0.0 mm 0.00 in0.0 mm 0.15 in3.8 mm
04:03 AM 36.1°F2.3°C 35.6°F2.0°C 98% 10.0 mph WNW16.1 kmh WNW -- 29.37 in994.6 mb 0.00 in0.0 mm 0.00 in0.0 mm 0.15 in3.8 mm
04:04 AM 35.9°F2.2°C 35.4°F1.9°C 98% 7.0 mph NW11.3 kmh NW -- 29.37 in994.6 mb 0.00 in0.0 mm 0.00 in0.0 mm 0.15 in3.8 mm
04:05 AM 35.9°F2.2°C 35.4°F1.9°C 98% 7.0 mph WNW11.3 kmh WNW -- 29.37 in994.6 mb 0.00 in0.0 mm 0.00 in0.0 mm 0.15 in3.8 mm
04:06 AM 35.9°F2.2°C 35.4°F1.9°C 98% 12.0 mph NW19.3 kmh NW -- 29.37 in994.6 mb 0.00 in0.0 mm 0.00 in0.0 mm 0.15 in3.8 mm
04:07 AM 35.7°F2.1°C 35.3°F1.8°C 98% 11.0 mph NW17.7 kmh NW -- 29.37 in994.6 mb 0.00 in0.0 mm 0.00 in0.0 mm 0.15 in3.8 mm
04:08 AM 35.7°F2.1°C 35.3°F1.8°C 98% 9.0 mph NNW14.5 kmh NNW -- 29.36 in994.2 mb 0.01 in0.3 mm 0.60 in15.2 mm 0.16 in4.1 mm
04:09 AM 35.5°F1.9°C 34.9°F1.6°C 98% 9.0 mph NW14.5 kmh NW -- 29.36 in994.2 mb 0.01 in0.3 mm 0.00 in0.0 mm 0.16 in4.1 mm
04:10 AM 35.5°F1.9°C 34.9°F1.6°C 98% 8.0 mph NW12.9 kmh NW -- 29.36 in994.2 mb 0.01 in0.3 mm 0.00 in0.0 mm 0.16 in4.1 mm
04:11 AM 35.5°F1.9°C 34.9°F1.6°C 98% 11.0 mph NNW17.7 kmh NNW -- 29.36 in994.2 mb 0.01 in0.3 mm 0.00 in0.0 mm 0.16 in4.1 mm
04:12 AM 35.5°F1.9°C 34.9°F1.6°C 98% 13.0 mph NW20.9 kmh NW -- 29.36 in994.2 mb 0.01 in0.3 mm 0.00 in0.0 mm 0.16 in4.1 mm
04:13 AM 35.5°F1.9°C 34.9°F1.6°C 98% 10.0 mph WNW16.1 kmh WNW -- 29.36 in994.2 mb 0.01 in0.3 mm 0.00 in0.0 mm 0.16 in4.1 mm
04:14 AM 35.5°F1.9°C 34.9°F1.6°C 98% 7.0 mph NW11.3 kmh NW -- 29.35 in993.9 mb 0.01 in0.3 mm 0.00 in0.0 mm 0.16 in4.1 mm
04:15 AM 35.5°F1.9°C 34.9°F1.6°C 98% 10.0 mph 16.1 kmh -- 29.35 in993.9 mb 0.01 in0.3 mm 0.00 in0.0 mm 0.16 in4.1 mm
04:16 AM 35.5°F1.9°C 34.9°F1.6°C 98% 13.0 mph WNW20.9 kmh WNW -- 29.35 in993.9 mb 0.01 in0.3 mm 0.00 in0.0 mm 0.16 in4.1 mm
04:17 AM 35.4°F1.9°C 34.9°F1.6°C 98% 8.0 mph NW12.9 kmh NW -- 29.35 in993.9 mb 0.01 in0.3 mm 0.00 in0.0 mm 0.16 in4.1 mm
04:18 AM 35.4°F1.9°C 34.9°F1.6°C 98% 12.0 mph NNW19.3 kmh NNW -- 29.35 in993.9 mb 0.01 in0.3 mm 0.00 in0.0 mm 0.16 in4.1 mm
04:19 AM 35.4°F1.9°C 34.9°F1.6°C 98% 13.0 mph WNW20.9 kmh WNW -- 29.35 in993.9 mb 0.01 in0.3 mm 0.00 in0.0 mm 0.16 in4.1 mm
04:20 AM 35.4°F1.9°C 34.9°F1.6°C 98% 14.0 mph W22.5 kmh W -- 29.34 in993.6 mb 0.01 in0.3 mm 0.00 in0.0 mm 0.16 in4.1 mm
04:21 AM 35.4°F1.9°C 34.9°F1.6°C 98% 14.0 mph NW22.5 kmh NW -- 29.34 in993.6 mb 0.01 in0.3 mm 0.00 in0.0 mm 0.16 in4.1 mm
04:22 AM 35.4°F1.9°C 34.9°F1.6°C 98% 9.0 mph NW14.5 kmh NW -- 29.35 in993.9 mb 0.02 in0.5 mm 0.60 in15.2 mm 0.17 in4.3 mm
04:23 AM 35.4°F1.9°C 34.9°F1.6°C 98% 17.0 mph WNW27.4 kmh WNW -- 29.34 in993.6 mb 0.02 in0.5 mm 0.00 in0.0 mm 0.17 in4.3 mm
04:24 AM 35.4°F1.9°C 34.9°F1.6°C 98% 13.0 mph NW20.9 kmh NW -- 29.34 in993.6 mb 0.02 in0.5 mm 0.00 in0.0 mm 0.17 in4.3 mm
04:25 AM 35.4°F1.9°C 34.9°F1.6°C 98% 17.0 mph NW27.4 kmh NW -- 29.34 in993.6 mb 0.02 in0.5 mm 0.00 in0.0 mm 0.17 in4.3 mm
04:26 AM 35.4°F1.9°C 34.9°F1.6°C 98% 13.0 mph NNW20.9 kmh NNW -- 29.34 in993.6 mb 0.02 in0.5 mm 0.00 in0.0 mm 0.17 in4.3 mm
04:27 AM 35.4°F1.9°C 34.9°F1.6°C 98% 12.0 mph W19.3 kmh W -- 29.34 in993.6 mb 0.02 in0.5 mm 0.00 in0.0 mm 0.17 in4.3 mm
04:28 AM 35.4°F1.9°C 34.9°F1.6°C 98% 16.0 mph WNW25.7 kmh WNW -- 29.34 in993.6 mb 0.02 in0.5 mm 0.00 in0.0 mm 0.17 in4.3 mm
04:29 AM 35.4°F1.9°C 34.9°F1.6°C 98% 11.0 mph W17.7 kmh W -- 29.34 in993.6 mb 0.02 in0.5 mm 0.00 in0.0 mm 0.17 in4.3 mm
04:30 AM 35.4°F1.9°C 34.9°F1.6°C 98% 13.0 mph W20.9 kmh W -- 29.34 in993.6 mb 0.02 in0.5 mm 0.00 in0.0 mm 0.17 in4.3 mm
04:31 AM 35.4°F1.9°C 34.9°F1.6°C 98% 12.0 mph NNW19.3 kmh NNW -- 29.34 in993.6 mb 0.02 in0.5 mm 0.00 in0.0 mm 0.17 in4.3 mm
04:32 AM 35.4°F1.9°C 34.9°F1.6°C 98% 16.0 mph NW25.7 kmh NW -- 29.34 in993.6 mb 0.02 in0.5 mm 0.00 in0.0 mm 0.17 in4.3 mm
04:33 AM 35.4°F1.9°C 34.9°F1.6°C 98% 12.0 mph NNW19.3 kmh NNW -- 29.34 in993.6 mb 0.02 in0.5 mm 0.00 in0.0 mm 0.17 in4.3 mm
04:34 AM 35.4°F1.9°C 34.9°F1.6°C 98% 11.0 mph NNW17.7 kmh NNW -- 29.34 in993.6 mb 0.02 in0.5 mm 0.00 in0.0 mm 0.17 in4.3 mm
04:35 AM 35.4°F1.9°C 34.9°F1.6°C 98% 12.0 mph NNW19.3 kmh NNW -- 29.34 in993.6 mb 0.02 in0.5 mm 0.00 in0.0 mm 0.17 in4.3 mm
04:36 AM 35.4°F1.9°C 34.9°F1.6°C 98% 15.0 mph W24.1 kmh W -- 29.34 in993.6 mb 0.03 in0.8 mm 0.60 in15.2 mm 0.18 in4.6 mm
04:37 AM 35.4°F1.9°C 34.9°F1.6°C 98% 17.0 mph NW27.4 kmh NW -- 29.34 in993.6 mb 0.03 in0.8 mm 0.00 in0.0 mm 0.18 in4.6 mm
04:38 AM 35.4°F1.9°C 34.9°F1.6°C 98% 15.0 mph WNW24.1 kmh WNW -- 29.34 in993.6 mb 0.03 in0.8 mm 0.00 in0.0 mm 0.18 in4.6 mm
04:39 AM 35.4°F1.9°C 34.9°F1.6°C 98% 10.0 mph WNW16.1 kmh WNW -- 29.33 in993.2 mb 0.03 in0.8 mm 0.00 in0.0 mm 0.18 in4.6 mm
04:40 AM 35.4°F1.9°C 34.9°F1.6°C 98% 16.0 mph NW25.7 kmh NW -- 29.33 in993.2 mb 0.03 in0.8 mm 0.00 in0.0 mm 0.18 in4.6 mm
04:41 AM 35.4°F1.9°C 34.9°F1.6°C 98% 12.0 mph WNW19.3 kmh WNW -- 29.33 in993.2 mb 0.03 in0.8 mm 0.00 in0.0 mm 0.18 in4.6 mm
04:43 AM 35.4°F1.9°C 34.9°F1.6°C 98% 15.0 mph NW24.1 kmh NW -- 29.33 in993.2 mb 0.03 in0.8 mm 0.00 in0.0 mm 0.18 in4.6 mm
04:44 AM 35.4°F1.9°C 34.9°F1.6°C 98% 16.0 mph NNW25.7 kmh NNW -- 29.33 in993.2 mb 0.03 in0.8 mm 0.00 in0.0 mm 0.18 in4.6 mm
04:45 AM 35.4°F1.9°C 34.9°F1.6°C 98% 16.0 mph NW25.7 kmh NW -- 29.33 in993.2 mb 0.03 in0.8 mm 0.00 in0.0 mm 0.18 in4.6 mm
04:47 AM 35.4°F1.9°C 34.9°F1.6°C 98% 12.0 mph WNW19.3 kmh WNW -- 29.33 in993.2 mb 0.03 in0.8 mm 0.00 in0.0 mm 0.18 in4.6 mm
04:48 AM 35.4°F1.9°C 34.9°F1.6°C 98% 16.0 mph W25.7 kmh W -- 29.33 in993.2 mb 0.03 in0.8 mm 0.00 in0.0 mm 0.18 in4.6 mm
04:49 AM 35.4°F1.9°C 34.9°F1.6°C 98% 13.0 mph WNW20.9 kmh WNW -- 29.33 in993.2 mb 0.03 in0.8 mm 0.00 in0.0 mm 0.18 in4.6 mm
04:50 AM 35.4°F1.9°C 34.9°F1.6°C 98% 17.0 mph NW27.4 kmh NW -- 29.33 in993.2 mb 0.03 in0.8 mm 0.00 in0.0 mm 0.18 in4.6 mm
04:51 AM 35.4°F1.9°C 34.9°F1.6°C 98% 13.0 mph NW20.9 kmh NW -- 29.33 in993.2 mb 0.03 in0.8 mm 0.00 in0.0 mm 0.18 in4.6 mm
04:52 AM 35.4°F1.9°C 34.9°F1.6°C 98% 16.0 mph WNW25.7 kmh WNW -- 29.33 in993.2 mb 0.03 in0.8 mm 0.00 in0.0 mm 0.18 in4.6 mm
04:53 AM 35.4°F1.9°C 34.9°F1.6°C 98% 17.0 mph W27.4 kmh W -- 29.33 in993.2 mb 0.04 in1.0 mm 0.60 in15.2 mm 0.19 in4.8 mm
04:54 AM 35.4°F1.9°C 34.9°F1.6°C 98% 16.0 mph NNW25.7 kmh NNW -- 29.33 in993.2 mb 0.04 in1.0 mm 0.00 in0.0 mm 0.19 in4.8 mm
04:55 AM 35.4°F1.9°C 34.9°F1.6°C 98% 15.0 mph NW24.1 kmh NW -- 29.33 in993.2 mb 0.04 in1.0 mm 0.00 in0.0 mm 0.19 in4.8 mm
04:56 AM 35.4°F1.9°C 34.9°F1.6°C 98% 12.0 mph NW19.3 kmh NW -- 29.32 in992.9 mb 0.05 in1.3 mm 0.60 in15.2 mm 0.20 in5.1 mm
04:57 AM 35.4°F1.9°C 34.9°F1.6°C 98% 11.0 mph NNW17.7 kmh NNW -- 29.32 in992.9 mb 0.05 in1.3 mm 0.00 in0.0 mm 0.20 in5.1 mm
04:58 AM 35.4°F1.9°C 34.9°F1.6°C 98% 10.0 mph NW16.1 kmh NW -- 29.32 in992.9 mb 0.07 in1.8 mm 1.20 in30.5 mm 0.22 in5.6 mm
04:59 AM 35.4°F1.9°C 34.9°F1.6°C 98% 9.0 mph W14.5 kmh W -- 29.32 in992.9 mb 0.07 in1.8 mm 0.00 in0.0 mm 0.22 in5.6 mm
05:00 AM 35.4°F1.9°C 34.9°F1.6°C 98% 20.0 mph NNW32.2 kmh NNW -- 29.32 in992.9 mb 0.07 in1.8 mm 0.00 in0.0 mm 0.22 in5.6 mm
05:01 AM 35.4°F1.9°C 34.9°F1.6°C 98% 21.0 mph WNW33.8 kmh WNW -- 29.32 in992.9 mb 0.00 in0.0 mm 0.00 in0.0 mm 0.22 in5.6 mm
05:02 AM 35.4°F1.9°C 34.9°F1.6°C 98% 13.0 mph WNW20.9 kmh WNW -- 29.32 in992.9 mb 0.00 in0.0 mm 0.00 in0.0 mm 0.22 in5.6 mm
05:03 AM 35.4°F1.9°C 34.9°F1.6°C 98% 18.0 mph NW29.0 kmh NW -- 29.31 in992.6 mb 0.00 in0.0 mm 0.00 in0.0 mm 0.22 in5.6 mm
05:04 AM 35.4°F1.9°C 34.9°F1.6°C 98% 13.0 mph WNW20.9 kmh WNW -- 29.31 in992.6 mb 0.00 in0.0 mm 0.00 in0.0 mm 0.22 in5.6 mm
05:05 AM 35.4°F1.9°C 34.9°F1.6°C 98% 12.0 mph NW19.3 kmh NW -- 29.31 in992.6 mb 0.01 in0.3 mm 0.60 in15.2 mm 0.23 in5.8 mm
05:06 AM 35.1°F1.7°C 34.5°F1.4°C 98% 17.0 mph WNW27.4 kmh WNW -- 29.32 in992.9 mb 0.01 in0.3 mm 0.00 in0.0 mm 0.23 in5.8 mm
05:07 AM 35.1°F1.7°C 34.5°F1.4°C 98% 16.0 mph NW25.7 kmh NW -- 29.31 in992.6 mb 0.01 in0.3 mm 0.00 in0.0 mm 0.23 in5.8 mm
05:08 AM 35.1°F1.7°C 34.5°F1.4°C 98% 15.0 mph NW24.1 kmh NW -- 29.31 in992.6 mb 0.01 in0.3 mm 0.00 in0.0 mm 0.23 in5.8 mm
05:09 AM 35.1°F1.7°C 34.5°F1.4°C 98% 16.0 mph WNW25.7 kmh WNW -- 29.31 in992.6 mb 0.01 in0.3 mm 0.00 in0.0 mm 0.23 in5.8 mm
05:10 AM 35.1°F1.7°C 34.5°F1.4°C 98% 16.0 mph NNW25.7 kmh NNW -- 29.31 in992.6 mb 0.01 in0.3 mm 0.00 in0.0 mm 0.23 in5.8 mm
05:11 AM 35.1°F1.7°C 34.5°F1.4°C 98% 15.0 mph WNW24.1 kmh WNW -- 29.31 in992.6 mb 0.01 in0.3 mm 0.00 in0.0 mm 0.23 in5.8 mm
05:12 AM 35.1°F1.7°C 34.5°F1.4°C 98% 10.0 mph WNW16.1 kmh WNW -- 29.31 in992.6 mb 0.01 in0.3 mm 0.00 in0.0 mm 0.23 in5.8 mm
05:13 AM 35.1°F1.7°C 34.5°F1.4°C 98% 12.0 mph W19.3 kmh W -- 29.31 in992.6 mb 0.02 in0.5 mm 0.60 in15.2 mm 0.24 in6.1 mm
05:14 AM 35.1°F1.7°C 34.5°F1.4°C 98% 19.0 mph NW30.6 kmh NW -- 29.31 in992.6 mb 0.02 in0.5 mm 0.00 in0.0 mm 0.24 in6.1 mm
05:15 AM 35.0°F1.7°C 34.5°F1.4°C 98% 18.0 mph WNW29.0 kmh WNW -- 29.31 in992.6 mb 0.02 in0.5 mm 0.00 in0.0 mm 0.24 in6.1 mm
05:16 AM 35.0°F1.7°C 34.5°F1.4°C 98% 19.0 mph WNW30.6 kmh WNW -- 29.31 in992.6 mb 0.02 in0.5 mm 0.00 in0.0 mm 0.24 in6.1 mm
05:17 AM 35.0°F1.7°C 34.5°F1.4°C 98% 11.0 mph WNW17.7 kmh WNW -- 29.30 in992.2 mb 0.02 in0.5 mm 0.00 in0.0 mm 0.24 in6.1 mm
05:18 AM 35.0°F1.7°C 34.5°F1.4°C 98% 14.0 mph NNW22.5 kmh NNW -- 29.30 in992.2 mb 0.02 in0.5 mm 0.00 in0.0 mm 0.24 in6.1 mm
05:19 AM 35.0°F1.7°C 34.5°F1.4°C 98% 18.0 mph W29.0 kmh W -- 29.30 in992.2 mb 0.02 in0.5 mm 0.00 in0.0 mm 0.24 in6.1 mm
05:20 AM 35.0°F1.7°C 34.5°F1.4°C 98% 12.0 mph W19.3 kmh W -- 29.30 in992.2 mb 0.02 in0.5 mm 0.00 in0.0 mm 0.24 in6.1 mm
05:21 AM 35.0°F1.7°C 34.5°F1.4°C 98% 16.0 mph NW25.7 kmh NW -- 29.30 in992.2 mb 0.03 in0.8 mm 0.60 in15.2 mm 0.25 in6.4 mm
05:22 AM 35.0°F1.7°C 34.5°F1.4°C 98% 18.0 mph NW29.0 kmh NW -- 29.30 in992.2 mb 0.03 in0.8 mm 0.00 in0.0 mm 0.25 in6.4 mm
05:23 AM 34.9°F1.6°C 34.4°F1.3°C 98% 20.0 mph W32.2 kmh W -- 29.30 in992.2 mb 0.03 in0.8 mm 0.00 in0.0 mm 0.25 in6.4 mm
05:24 AM 34.9°F1.6°C 34.4°F1.3°C 98% 13.0 mph WNW20.9 kmh WNW -- 29.30 in992.2 mb 0.03 in0.8 mm 0.00 in0.0 mm 0.25 in6.4 mm
05:25 AM 34.9°F1.6°C 34.4°F1.3°C 98% 17.0 mph W27.4 kmh W -- 29.30 in992.2 mb 0.03 in0.8 mm 0.00 in0.0 mm 0.25 in6.4 mm
05:26 AM 34.9°F1.6°C 34.4°F1.3°C 98% 15.0 mph NNW24.1 kmh NNW -- 29.30 in992.2 mb 0.03 in0.8 mm 0.00 in0.0 mm 0.25 in6.4 mm
05:27 AM 34.9°F1.6°C 34.4°F1.3°C 98% 13.0 mph WNW20.9 kmh WNW -- 29.30 in992.2 mb 0.03 in0.8 mm 0.00 in0.0 mm 0.25 in6.4 mm
05:28 AM 34.9°F1.6°C 34.4°F1.3°C 98% 17.0 mph WNW27.4 kmh WNW -- 29.30 in992.2 mb 0.03 in0.8 mm 0.00 in0.0 mm 0.25 in6.4 mm
05:29 AM 34.9°F1.6°C 34.4°F1.3°C 98% 10.0 mph NW16.1 kmh NW -- 29.30 in992.2 mb 0.03 in0.8 mm 0.00 in0.0 mm 0.25 in6.4 mm
05:30 AM 34.9°F1.6°C 34.4°F1.3°C 98% 19.0 mph W30.6 kmh W -- 29.30 in992.2 mb 0.03 in0.8 mm 0.00 in0.0 mm 0.25 in6.4 mm
05:31 AM 34.9°F1.6°C 34.4°F1.3°C 98% 21.0 mph NNW33.8 kmh NNW -- 29.30 in992.2 mb 0.03 in0.8 mm 0.00 in0.0 mm 0.25 in6.4 mm
05:32 AM 34.9°F1.6°C 34.4°F1.3°C 98% 17.0 mph WNW27.4 kmh WNW -- 29.30 in992.2 mb 0.03 in0.8 mm 0.00 in0.0 mm 0.25 in6.4 mm
05:33 AM 34.9°F1.6°C 34.4°F1.3°C 98% 15.0 mph W24.1 kmh W -- 29.30 in992.2 mb 0.03 in0.8 mm 0.00 in0.0 mm 0.25 in6.4 mm
05:34 AM 34.9°F1.6°C 34.4°F1.3°C 98% 18.0 mph NW29.0 kmh NW -- 29.30 in992.2 mb 0.03 in0.8 mm 0.00 in0.0 mm 0.25 in6.4 mm
05:35 AM 34.9°F1.6°C 34.4°F1.3°C 98% 19.0 mph NW30.6 kmh NW -- 29.30 in992.2 mb 0.03 in0.8 mm 0.00 in0.0 mm 0.25 in6.4 mm
05:36 AM 34.7°F1.5°C 34.2°F1.2°C 98% 14.0 mph NW22.5 kmh NW -- 29.30 in992.2 mb 0.03 in0.8 mm 0.00 in0.0 mm 0.25 in6.4 mm
05:37 AM 34.7°F1.5°C 34.2°F1.2°C 98% 18.0 mph WNW29.0 kmh WNW -- 29.30 in992.2 mb 0.03 in0.8 mm 0.00 in0.0 mm 0.25 in6.4 mm
05:38 AM 34.7°F1.5°C 34.2°F1.2°C 98% 19.0 mph NW30.6 kmh NW -- 29.30 in992.2 mb 0.03 in0.8 mm 0.00 in0.0 mm 0.25 in6.4 mm
05:39 AM 34.7°F1.5°C 34.2°F1.2°C 98% 15.0 mph WNW24.1 kmh WNW -- 29.29 in991.9 mb 0.03 in0.8 mm 0.00 in0.0 mm 0.25 in6.4 mm
05:40 AM 34.7°F1.5°C 34.2°F1.2°C 98% 15.0 mph W24.1 kmh W -- 29.29 in991.9 mb 0.03 in0.8 mm 0.00 in0.0 mm 0.25 in6.4 mm
05:41 AM 34.7°F1.5°C 34.2°F1.2°C 98% 16.0 mph WNW25.7 kmh WNW -- 29.29 in991.9 mb 0.03 in0.8 mm 0.00 in0.0 mm 0.25 in6.4 mm
05:42 AM 34.7°F1.5°C 34.2°F1.2°C 98% 20.0 mph NW32.2 kmh NW -- 29.29 in991.9 mb 0.04 in1.0 mm 0.60 in15.2 mm 0.26 in6.6 mm
05:43 AM 34.7°F1.5°C 34.2°F1.2°C 98% 12.0 mph W19.3 kmh W -- 29.29 in991.9 mb 0.04 in1.0 mm 0.00 in0.0 mm 0.26 in6.6 mm
05:44 AM 34.7°F1.5°C 34.2°F1.2°C 98% 18.0 mph NNW29.0 kmh NNW -- 29.29 in991.9 mb 0.04 in1.0 mm 0.00 in0.0 mm 0.26 in6.6 mm
05:45 AM 34.7°F1.5°C 34.2°F1.2°C 98% 18.0 mph NW29.0 kmh NW -- 29.28 in991.5 mb 0.04 in1.0 mm 0.00 in0.0 mm 0.26 in6.6 mm
05:46 AM 34.7°F1.5°C 34.2°F1.2°C 98% 18.0 mph W29.0 kmh W -- 29.28 in991.5 mb 0.04 in1.0 mm 0.00 in0.0 mm 0.26 in6.6 mm
05:47 AM 34.7°F1.5°C 34.2°F1.2°C 98% 19.0 mph WNW30.6 kmh WNW -- 29.28 in991.5 mb 0.04 in1.0 mm 0.00 in0.0 mm 0.26 in6.6 mm
05:49 AM 34.5°F1.4°C 34.0°F1.1°C 98% 14.0 mph W22.5 kmh W -- 29.28 in991.5 mb 0.04 in1.0 mm 0.00 in0.0 mm 0.26 in6.6 mm
05:50 AM 34.5°F1.4°C 34.0°F1.1°C 98% 22.0 mph W35.4 kmh W -- 29.28 in991.5 mb 0.04 in1.0 mm 0.00 in0.0 mm 0.26 in6.6 mm
05:51 AM 34.5°F1.4°C 34.0°F1.1°C 98% 14.0 mph NNW22.5 kmh NNW -- 29.28 in991.5 mb 0.04 in1.0 mm 0.00 in0.0 mm 0.26 in6.6 mm
05:53 AM 34.5°F1.4°C 34.0°F1.1°C 98% 16.0 mph WNW25.7 kmh WNW -- 29.28 in991.5 mb 0.04 in1.0 mm 0.00 in0.0 mm 0.26 in6.6 mm
05:54 AM 34.5°F1.4°C 34.0°F1.1°C 98% 23.0 mph WNW37.0 kmh WNW -- 29.28 in991.5 mb 0.04 in1.0 mm 0.00 in0.0 mm 0.26 in6.6 mm
05:55 AM 34.5°F1.4°C 34.0°F1.1°C 98% 16.0 mph W25.7 kmh W -- 29.28 in991.5 mb 0.04 in1.0 mm 0.00 in0.0 mm 0.26 in6.6 mm
05:56 AM 34.5°F1.4°C 34.0°F1.1°C 98% 15.0 mph NNW24.1 kmh NNW -- 29.28 in991.5 mb 0.04 in1.0 mm 0.00 in0.0 mm 0.26 in6.6 mm
05:57 AM 34.5°F1.4°C 34.0°F1.1°C 98% 16.0 mph W25.7 kmh W -- 29.28 in991.5 mb 0.04 in1.0 mm 0.00 in0.0 mm 0.26 in6.6 mm
05:58 AM 34.5°F1.4°C 34.0°F1.1°C 98% 13.0 mph NW20.9 kmh NW -- 29.27 in991.2 mb 0.04 in1.0 mm 0.00 in0.0 mm 0.26 in6.6 mm
05:59 AM 34.5°F1.4°C 34.0°F1.1°C 98% 26.0 mph WNW41.8 kmh WNW -- 29.28 in991.5 mb 0.04 in1.0 mm 0.00 in0.0 mm 0.26 in6.6 mm
06:00 AM 34.5°F1.4°C 34.0°F1.1°C 98% 16.0 mph NW25.7 kmh NW -- 29.28 in991.5 mb 0.04 in1.0 mm 0.00 in0.0 mm 0.26 in6.6 mm
06:01 AM 34.5°F1.4°C 34.0°F1.1°C 98% 11.0 mph WNW17.7 kmh WNW -- 29.28 in991.5 mb 0.00 in0.0 mm 0.00 in0.0 mm 0.26 in6.6 mm
06:02 AM 34.5°F1.4°C 34.0°F1.1°C 98% 18.0 mph W29.0 kmh W -- 29.28 in991.5 mb 0.00 in0.0 mm 0.00 in0.0 mm 0.26 in6.6 mm
06:03 AM 34.5°F1.4°C 34.0°F1.1°C 98% 15.0 mph WNW24.1 kmh WNW -- 29.28 in991.5 mb 0.00 in0.0 mm 0.00 in0.0 mm 0.26 in6.6 mm
06:04 AM 34.5°F1.4°C 34.0°F1.1°C 98% 13.0 mph WNW20.9 kmh WNW -- 29.27 in991.2 mb 0.00 in0.0 mm 0.00 in0.0 mm 0.26 in6.6 mm
06:05 AM 34.5°F1.4°C 34.0°F1.1°C 98% 23.0 mph W37.0 kmh W -- 29.27 in991.2 mb 0.00 in0.0 mm 0.00 in0.0 mm 0.26 in6.6 mm
06:06 AM 34.5°F1.4°C 34.0°F1.1°C 98% 18.0 mph NW29.0 kmh NW -- 29.26 in990.9 mb 0.00 in0.0 mm 0.00 in0.0 mm 0.26 in6.6 mm
06:07 AM 34.5°F1.4°C 34.0°F1.1°C 98% 14.0 mph W22.5 kmh W -- 29.27 in991.2 mb 0.00 in0.0 mm 0.00 in0.0 mm 0.26 in6.6 mm
06:08 AM 34.5°F1.4°C 34.0°F1.1°C 98% 10.0 mph W16.1 kmh W -- 29.26 in990.9 mb 0.00 in0.0 mm 0.00 in0.0 mm 0.26 in6.6 mm
06:09 AM 34.5°F1.4°C 34.0°F1.1°C 98% 15.0 mph WNW24.1 kmh WNW -- 29.27 in991.2 mb 0.00 in0.0 mm 0.00 in0.0 mm 0.26 in6.6 mm
06:10 AM 34.5°F1.4°C 34.0°F1.1°C 98% 19.0 mph WNW30.6 kmh WNW -- 29.26 in990.9 mb 0.00 in0.0 mm 0.00 in0.0 mm 0.26 in6.6 mm
06:11 AM 34.5°F1.4°C 34.0°F1.1°C 98% 16.0 mph NW25.7 kmh NW -- 29.26 in990.9 mb 0.00 in0.0 mm 0.00 in0.0 mm 0.26 in6.6 mm
06:12 AM 34.5°F1.4°C 34.0°F1.1°C 98% 16.0 mph WNW25.7 kmh WNW -- 29.26 in990.9 mb 0.00 in0.0 mm 0.00 in0.0 mm 0.26 in6.6 mm
06:13 AM 34.5°F1.4°C 34.0°F1.1°C 98% 22.0 mph NW35.4 kmh NW -- 29.26 in990.9 mb 0.00 in0.0 mm 0.00 in0.0 mm 0.26 in6.6 mm
06:14 AM 34.5°F1.4°C 34.0°F1.1°C 98% 21.0 mph NW33.8 kmh NW -- 29.26 in990.9 mb 0.00 in0.0 mm 0.00 in0.0 mm 0.26 in6.6 mm
06:15 AM 34.5°F1.4°C 34.0°F1.1°C 98% 22.0 mph NNW35.4 kmh NNW -- 29.26 in990.9 mb 0.00 in0.0 mm 0.00 in0.0 mm 0.26 in6.6 mm
06:16 AM 34.5°F1.4°C 34.0°F1.1°C 98% 21.0 mph NNW33.8 kmh NNW -- 29.26 in990.9 mb 0.00 in0.0 mm 0.00 in0.0 mm 0.26 in6.6 mm
06:17 AM 34.5°F1.4°C 34.0°F1.1°C 98% 18.0 mph WNW29.0 kmh WNW -- 29.26 in990.9 mb 0.00 in0.0 mm 0.00 in0.0 mm 0.26 in6.6 mm
06:18 AM 34.5°F1.4°C 34.0°F1.1°C 98% 17.0 mph NNW27.4 kmh NNW -- 29.26 in990.9 mb 0.00 in0.0 mm 0.00 in0.0 mm 0.26 in6.6 mm
06:19 AM 34.5°F1.4°C 34.0°F1.1°C 98% 10.0 mph WNW16.1 kmh WNW -- 29.26 in990.9 mb 0.00 in0.0 mm 0.00 in0.0 mm 0.26 in6.6 mm
06:20 AM 34.5°F1.4°C 34.0°F1.1°C 98% 19.0 mph NW30.6 kmh NW -- 29.25 in990.5 mb 0.00 in0.0 mm 0.00 in0.0 mm 0.26 in6.6 mm
06:21 AM 34.2°F1.2°C 33.6°F0.9°C 98% 27.0 mph WNW43.5 kmh WNW -- 29.25 in990.5 mb 0.00 in0.0 mm 0.00 in0.0 mm 0.26 in6.6 mm
06:22 AM 34.2°F1.2°C 33.6°F0.9°C 98% 18.0 mph W29.0 kmh W -- 29.25 in990.5 mb 0.00 in0.0 mm 0.00 in0.0 mm 0.26 in6.6 mm
06:23 AM 34.2°F1.2°C 33.6°F0.9°C 98% 12.0 mph W19.3 kmh W -- 29.25 in990.5 mb 0.00 in0.0 mm 0.00 in0.0 mm 0.26 in6.6 mm
06:24 AM 34.2°F1.2°C 33.6°F0.9°C 98% 16.0 mph NW25.7 kmh NW -- 29.25 in990.5 mb 0.00 in0.0 mm 0.00 in0.0 mm 0.26 in6.6 mm
06:25 AM 34.2°F1.2°C 33.6°F0.9°C 98% 20.0 mph NW32.2 kmh NW -- 29.25 in990.5 mb 0.00 in0.0 mm 0.00 in0.0 mm 0.26 in6.6 mm
06:26 AM 34.2°F1.2°C 33.6°F0.9°C 98% 18.0 mph WNW29.0 kmh WNW -- 29.25 in990.5 mb 0.00 in0.0 mm 0.00 in0.0 mm 0.26 in6.6 mm
06:27 AM 34.2°F1.2°C 33.6°F0.9°C 98% 14.0 mph W22.5 kmh W -- 29.25 in990.5 mb 0.00 in0.0 mm 0.00 in0.0 mm 0.26 in6.6 mm
06:28 AM 34.2°F1.2°C 33.6°F0.9°C 98% 15.0 mph WNW24.1 kmh WNW -- 29.25 in990.5 mb 0.00 in0.0 mm 0.00 in0.0 mm 0.26 in6.6 mm
06:29 AM 34.2°F1.2°C 33.6°F0.9°C 98% 17.0 mph W27.4 kmh W -- 29.25 in990.5 mb 0.00 in0.0 mm 0.00 in0.0 mm 0.26 in6.6 mm
06:30 AM 34.2°F1.2°C 33.6°F0.9°C 98% 22.0 mph NW35.4 kmh NW -- 29.25 in990.5 mb 0.00 in0.0 mm 0.00 in0.0 mm 0.26 in6.6 mm
06:31 AM 34.2°F1.2°C 33.6°F0.9°C 98% 16.0 mph WNW25.7 kmh WNW -- 29.25 in990.5 mb 0.01 in0.3 mm 0.60 in15.2 mm 0.27 in6.9 mm
06:32 AM 34.2°F1.2°C 33.6°F0.9°C 98% 15.0 mph W24.1 kmh W -- 29.24 in990.2 mb 0.01 in0.3 mm 0.00 in0.0 mm 0.27 in6.9 mm
06:33 AM 34.2°F1.2°C 33.6°F0.9°C 98% 16.0 mph WNW25.7 kmh WNW -- 29.24 in990.2 mb 0.01 in0.3 mm 0.00 in0.0 mm 0.27 in6.9 mm
06:34 AM 34.2°F1.2°C 33.6°F0.9°C 98% 20.0 mph WNW32.2 kmh WNW -- 29.25 in990.5 mb 0.01 in0.3 mm 0.00 in0.0 mm 0.27 in6.9 mm
06:35 AM 34.2°F1.2°C 33.6°F0.9°C 98% 19.0 mph W30.6 kmh W -- 29.25 in990.5 mb 0.01 in0.3 mm 0.00 in0.0 mm 0.27 in6.9 mm
06:36 AM 34.2°F1.2°C 33.6°F0.9°C 98% 18.0 mph NW29.0 kmh NW -- 29.25 in990.5 mb 0.01 in0.3 mm 0.00 in0.0 mm 0.27 in6.9 mm
06:37 AM 34.2°F1.2°C 33.6°F0.9°C 98% 19.0 mph NW30.6 kmh NW -- 29.25 in990.5 mb 0.01 in0.3 mm 0.00 in0.0 mm 0.27 in6.9 mm
06:38 AM 34.2°F1.2°C 33.6°F0.9°C 98% 20.0 mph W32.2 kmh W -- 29.25 in990.5 mb 0.01 in0.3 mm 0.00 in0.0 mm 0.27 in6.9 mm
06:39 AM 34.2°F1.2°C 33.6°F0.9°C 98% 14.0 mph SW22.5 kmh SW -- 29.25 in990.5 mb 0.01 in0.3 mm 0.00 in0.0 mm 0.27 in6.9 mm
06:40 AM 34.2°F1.2°C 33.6°F0.9°C 98% 17.0 mph NW27.4 kmh NW -- 29.25 in990.5 mb 0.01 in0.3 mm 0.00 in0.0 mm 0.27 in6.9 mm
06:41 AM 34.2°F1.2°C 33.6°F0.9°C 98% 13.0 mph WNW20.9 kmh WNW -- 29.25 in990.5 mb 0.01 in0.3 mm 0.00 in0.0 mm 0.27 in6.9 mm
06:42 AM 34.2°F1.2°C 33.6°F0.9°C 98% 25.0 mph WNW40.2 kmh WNW -- 29.25 in990.5 mb 0.01 in0.3 mm 0.00 in0.0 mm 0.27 in6.9 mm
06:43 AM 34.2°F1.2°C 33.6°F0.9°C 98% 14.0 mph WNW22.5 kmh WNW -- 29.25 in990.5 mb 0.01 in0.3 mm 0.00 in0.0 mm 0.27 in6.9 mm
06:44 AM 34.2°F1.2°C 33.6°F0.9°C 98% 23.0 mph WNW37.0 kmh WNW -- 29.25 in990.5 mb 0.01 in0.3 mm 0.00 in0.0 mm 0.27 in6.9 mm
06:45 AM 34.0°F1.1°C 33.5°F0.8°C 98% 16.0 mph WNW25.7 kmh WNW -- 29.25 in990.5 mb 0.01 in0.3 mm 0.00 in0.0 mm 0.27 in6.9 mm
06:46 AM 34.0°F1.1°C 33.5°F0.8°C 98% 16.0 mph W25.7 kmh W -- 29.25 in990.5 mb 0.01 in0.3 mm 0.00 in0.0 mm 0.27 in6.9 mm
06:47 AM 34.0°F1.1°C 33.5°F0.8°C 98% 17.0 mph NW27.4 kmh NW -- 29.24 in990.2 mb 0.01 in0.3 mm 0.00 in0.0 mm 0.27 in6.9 mm
06:48 AM 34.0°F1.1°C 33.5°F0.8°C 98% 15.0 mph W24.1 kmh W -- 29.24 in990.2 mb 0.01 in0.3 mm 0.00 in0.0 mm 0.27 in6.9 mm
06:49 AM 34.0°F1.1°C 33.5°F0.8°C 98% 19.0 mph NNW30.6 kmh NNW -- 29.24 in990.2 mb 0.01 in0.3 mm 0.00 in0.0 mm 0.27 in6.9 mm
06:50 AM 33.8°F1.0°C 33.3°F0.7°C 98% 21.0 mph W33.8 kmh W -- 29.24 in990.2 mb 0.01 in0.3 mm 0.00 in0.0 mm 0.27 in6.9 mm
06:51 AM 33.8°F1.0°C 33.3°F0.7°C 98% 24.0 mph W38.6 kmh W -- 29.24 in990.2 mb 0.01 in0.3 mm 0.00 in0.0 mm 0.27 in6.9 mm
06:52 AM 33.8°F1.0°C 33.3°F0.7°C 98% 17.0 mph W27.4 kmh W -- 29.24 in990.2 mb 0.01 in0.3 mm 0.00 in0.0 mm 0.27 in6.9 mm
06:53 AM 33.8°F1.0°C 33.3°F0.7°C 98% 15.0 mph NNW24.1 kmh NNW -- 29.24 in990.2 mb 0.01 in0.3 mm 0.00 in0.0 mm 0.27 in6.9 mm
06:54 AM 33.8°F1.0°C 33.3°F0.7°C 98% 16.0 mph WNW25.7 kmh WNW -- 29.24 in990.2 mb 0.01 in0.3 mm 0.00 in0.0 mm 0.27 in6.9 mm
06:56 AM 33.8°F1.0°C 33.3°F0.7°C 98% 13.0 mph NW20.9 kmh NW -- 29.24 in990.2 mb 0.01 in0.3 mm 0.00 in0.0 mm 0.27 in6.9 mm
06:57 AM 33.8°F1.0°C 33.3°F0.7°C 98% 18.0 mph WNW29.0 kmh WNW -- 29.24 in990.2 mb 0.01 in0.3 mm 0.00 in0.0 mm 0.27 in6.9 mm
06:58 AM 33.8°F1.0°C 33.3°F0.7°C 98% 20.0 mph WNW32.2 kmh WNW -- 29.23 in989.8 mb 0.01 in0.3 mm 0.00 in0.0 mm 0.27 in6.9 mm
06:59 AM 33.8°F1.0°C 33.3°F0.7°C 98% 16.0 mph WNW25.7 kmh WNW -- 29.23 in989.8 mb 0.01 in0.3 mm 0.00 in0.0 mm 0.27 in6.9 mm
07:00 AM 33.8°F1.0°C 33.3°F0.7°C 98% 12.0 mph W19.3 kmh W -- 29.23 in989.8 mb 0.01 in0.3 mm 0.00 in0.0 mm 0.27 in6.9 mm
07:01 AM 33.8°F1.0°C 33.3°F0.7°C 98% 18.0 mph WNW29.0 kmh WNW -- 29.23 in989.8 mb 0.00 in0.0 mm 0.00 in0.0 mm 0.27 in6.9 mm
07:02 AM 33.8°F1.0°C 33.3°F0.7°C 98% 19.0 mph NW30.6 kmh NW -- 29.23 in989.8 mb 0.00 in0.0 mm 0.00 in0.0 mm 0.27 in6.9 mm
07:03 AM 33.8°F1.0°C 33.3°F0.7°C 98% 24.0 mph W38.6 kmh W -- 29.24 in990.2 mb 0.00 in0.0 mm 0.00 in0.0 mm 0.27 in6.9 mm
07:04 AM 33.8°F1.0°C 33.3°F0.7°C 98% 20.0 mph WNW32.2 kmh WNW -- 29.22 in989.5 mb 0.00 in0.0 mm 0.00 in0.0 mm 0.27 in6.9 mm
07:05 AM 33.8°F1.0°C 33.3°F0.7°C 98% 19.0 mph WNW30.6 kmh WNW -- 29.22 in989.5 mb 0.00 in0.0 mm 0.00 in0.0 mm 0.27 in6.9 mm
07:06 AM 33.8°F1.0°C 33.3°F0.7°C 98% 21.0 mph W33.8 kmh W -- 29.22 in989.5 mb 0.00 in0.0 mm 0.00 in0.0 mm 0.27 in6.9 mm
07:07 AM 33.5°F0.8°C 32.9°F0.5°C 98% 22.0 mph NW35.4 kmh NW -- 29.23 in989.8 mb 0.00 in0.0 mm 0.00 in0.0 mm 0.27 in6.9 mm
07:08 AM 33.5°F0.8°C 32.9°F0.5°C 98% 18.0 mph WNW29.0 kmh WNW -- 29.23 in989.8 mb 0.00 in0.0 mm 0.00 in0.0 mm 0.27 in6.9 mm
07:09 AM 33.5°F0.8°C 32.9°F0.5°C 98% 20.0 mph WNW32.2 kmh WNW -- 29.23 in989.8 mb 0.00 in0.0 mm 0.00 in0.0 mm 0.27 in6.9 mm
07:10 AM 33.5°F0.8°C 32.9°F0.5°C 98% 20.0 mph W32.2 kmh W -- 29.22 in989.5 mb 0.00 in0.0 mm 0.00 in0.0 mm 0.27 in6.9 mm
07:11 AM 33.5°F0.8°C 32.9°F0.5°C 98% 25.0 mph NW40.2 kmh NW -- 29.22 in989.5 mb 0.01 in0.3 mm 0.60 in15.2 mm 0.28 in7.1 mm
07:12 AM 33.5°F0.8°C 32.9°F0.5°C 98% 21.0 mph W33.8 kmh W -- 29.22 in989.5 mb 0.01 in0.3 mm 0.00 in0.0 mm 0.28 in7.1 mm
07:13 AM 33.5°F0.8°C 32.9°F0.5°C 98% 20.0 mph NW32.2 kmh NW -- 29.22 in989.5 mb 0.01 in0.3 mm 0.00 in0.0 mm 0.28 in7.1 mm
07:14 AM 33.4°F0.8°C 32.9°F0.5°C 98% 19.0 mph WNW30.6 kmh WNW -- 29.22 in989.5 mb 0.01 in0.3 mm 0.00 in0.0 mm 0.28 in7.1 mm
07:15 AM 33.4°F0.8°C 32.9°F0.5°C 98% 27.0 mph NW43.5 kmh NW -- 29.22 in989.5 mb 0.01 in0.3 mm 0.00 in0.0 mm 0.28 in7.1 mm
07:16 AM 33.4°F0.8°C 32.9°F0.5°C 98% 24.0 mph WNW38.6 kmh WNW -- 29.22 in989.5 mb 0.01 in0.3 mm 0.00 in0.0 mm 0.28 in7.1 mm
07:17 AM 33.4°F0.8°C 32.9°F0.5°C 98% 25.0 mph W40.2 kmh W -- 29.21 in989.2 mb 0.02 in0.5 mm 0.60 in15.2 mm 0.29 in7.4 mm
07:18 AM 33.4°F0.8°C 32.9°F0.5°C 98% 21.0 mph WNW33.8 kmh WNW -- 29.21 in989.2 mb 0.02 in0.5 mm 0.00 in0.0 mm 0.29 in7.4 mm
07:19 AM 33.4°F0.8°C 32.9°F0.5°C 98% 16.0 mph W25.7 kmh W -- 29.21 in989.2 mb 0.02 in0.5 mm 0.00 in0.0 mm 0.29 in7.4 mm
07:20 AM 33.4°F0.8°C 32.9°F0.5°C 98% 17.0 mph NW27.4 kmh NW -- 29.22 in989.5 mb 0.02 in0.5 mm 0.00 in0.0 mm 0.29 in7.4 mm
07:21 AM 33.4°F0.8°C 32.9°F0.5°C 98% 21.0 mph WNW33.8 kmh WNW -- 29.21 in989.2 mb 0.02 in0.5 mm 0.00 in0.0 mm 0.29 in7.4 mm
07:22 AM 33.4°F0.8°C 32.9°F0.5°C 98% 20.0 mph NNW32.2 kmh NNW -- 29.21 in989.2 mb 0.02 in0.5 mm 0.00 in0.0 mm 0.29 in7.4 mm
07:23 AM 33.4°F0.8°C 32.9°F0.5°C 98% 17.0 mph WNW27.4 kmh WNW -- 29.21 in989.2 mb 0.02 in0.5 mm 0.00 in0.0 mm 0.29 in7.4 mm
07:24 AM 33.4°F0.8°C 32.9°F0.5°C 98% 22.0 mph NNW35.4 kmh NNW -- 29.21 in989.2 mb 0.02 in0.5 mm 0.00 in0.0 mm 0.29 in7.4 mm
07:25 AM 33.4°F0.8°C 32.9°F0.5°C 98% 16.0 mph NW25.7 kmh NW -- 29.21 in989.2 mb 0.02 in0.5 mm 0.00 in0.0 mm 0.29 in7.4 mm
07:26 AM 33.4°F0.8°C 32.9°F0.5°C 98% 18.0 mph NNW29.0 kmh NNW -- 29.21 in989.2 mb 0.02 in0.5 mm 0.00 in0.0 mm 0.29 in7.4 mm
07:28 AM 33.4°F0.8°C 32.9°F0.5°C 98% 19.0 mph WNW30.6 kmh WNW -- 29.21 in989.2 mb 0.02 in0.5 mm 0.00 in0.0 mm 0.29 in7.4 mm
07:29 AM 33.4°F0.8°C 32.9°F0.5°C 98% 19.0 mph W30.6 kmh W -- 29.21 in989.2 mb 0.02 in0.5 mm 0.00 in0.0 mm 0.29 in7.4 mm
07:30 AM 33.4°F0.8°C 32.9°F0.5°C 98% 17.0 mph WNW27.4 kmh WNW -- 29.21 in989.2 mb 0.02 in0.5 mm 0.00 in0.0 mm 0.29 in7.4 mm
07:31 AM 33.4°F0.8°C 32.9°F0.5°C 98% 19.0 mph W30.6 kmh W -- 29.21 in989.2 mb 0.02 in0.5 mm 0.00 in0.0 mm 0.29 in7.4 mm
07:32 AM 33.4°F0.8°C 32.9°F0.5°C 98% 19.0 mph NW30.6 kmh NW -- 29.21 in989.2 mb 0.02 in0.5 mm 0.00 in0.0 mm 0.29 in7.4 mm
07:33 AM 33.2°F0.7°C 32.7°F0.4°C 98% 22.0 mph W35.4 kmh W -- 29.21 in989.2 mb 0.03 in0.8 mm 0.60 in15.2 mm 0.30 in7.6 mm
07:34 AM 33.2°F0.7°C 32.7°F0.4°C 98% 25.0 mph WNW40.2 kmh WNW -- 29.20 in988.8 mb 0.03 in0.8 mm 0.00 in0.0 mm 0.30 in7.6 mm
07:35 AM 33.2°F0.7°C 32.7°F0.4°C 98% 22.0 mph NNW35.4 kmh NNW -- 29.20 in988.8 mb 0.03 in0.8 mm 0.00 in0.0 mm 0.30 in7.6 mm
07:36 AM 33.2°F0.7°C 32.7°F0.4°C 98% 24.0 mph 38.6 kmh -- 29.20 in988.8 mb 0.03 in0.8 mm 0.00 in0.0 mm 0.30 in7.6 mm
07:37 AM 33.2°F0.7°C 32.7°F0.4°C 98% 21.0 mph NNW33.8 kmh NNW -- 29.20 in988.8 mb 0.03 in0.8 mm 0.00 in0.0 mm 0.30 in7.6 mm
07:38 AM 33.2°F0.7°C 32.7°F0.4°C 98% 22.0 mph WNW35.4 kmh WNW -- 29.20 in988.8 mb 0.03 in0.8 mm 0.00 in0.0 mm 0.30 in7.6 mm
07:39 AM 33.2°F0.7°C 32.7°F0.4°C 98% 27.0 mph W43.5 kmh W -- 29.20 in988.8 mb 0.03 in0.8 mm 0.00 in0.0 mm 0.30 in7.6 mm
07:40 AM 33.2°F0.7°C 32.7°F0.4°C 98% 21.0 mph W33.8 kmh W -- 29.20 in988.8 mb 0.03 in0.8 mm 0.00 in0.0 mm 0.30 in7.6 mm
07:41 AM 33.2°F0.7°C 32.7°F0.4°C 98% 24.0 mph W38.6 kmh W -- 29.20 in988.8 mb 0.03 in0.8 mm 0.00 in0.0 mm 0.30 in7.6 mm
07:42 AM 33.2°F0.7°C 32.7°F0.4°C 98% 22.0 mph WNW35.4 kmh WNW -- 29.20 in988.8 mb 0.03 in0.8 mm 0.00 in0.0 mm 0.30 in7.6 mm
07:43 AM 33.2°F0.7°C 32.7°F0.4°C 98% 23.0 mph WNW37.0 kmh WNW -- 29.20 in988.8 mb 0.03 in0.8 mm 0.00 in0.0 mm 0.30 in7.6 mm
07:44 AM 33.2°F0.7°C 32.7°F0.4°C 98% 17.0 mph WNW27.4 kmh WNW -- 29.20 in988.8 mb 0.03 in0.8 mm 0.00 in0.0 mm 0.30 in7.6 mm
07:45 AM 33.2°F0.7°C 32.7°F0.4°C 98% 21.0 mph WNW33.8 kmh WNW -- 29.20 in988.8 mb 0.03 in0.8 mm 0.00 in0.0 mm 0.30 in7.6 mm
07:46 AM 33.2°F0.7°C 32.7°F0.4°C 98% 23.0 mph NNW37.0 kmh NNW -- 29.20 in988.8 mb 0.03 in0.8 mm 0.00 in0.0 mm 0.30 in7.6 mm
07:47 AM 33.2°F0.7°C 32.7°F0.4°C 98% 29.0 mph WNW46.7 kmh WNW -- 29.20 in988.8 mb 0.03 in0.8 mm 0.00 in0.0 mm 0.30 in7.6 mm
07:48 AM 33.2°F0.7°C 32.7°F0.4°C 98% 27.0 mph WNW43.5 kmh WNW -- 29.20 in988.8 mb 0.03 in0.8 mm 0.00 in0.0 mm 0.30 in7.6 mm
07:49 AM 33.2°F0.7°C 32.7°F0.4°C 98% 21.0 mph WNW33.8 kmh WNW -- 29.20 in988.8 mb 0.03 in0.8 mm 0.00 in0.0 mm 0.30 in7.6 mm
07:50 AM 33.2°F0.7°C 32.7°F0.4°C 98% 17.0 mph WNW27.4 kmh WNW -- 29.20 in988.8 mb 0.03 in0.8 mm 0.00 in0.0 mm 0.30 in7.6 mm
07:51 AM 33.2°F0.7°C 32.7°F0.4°C 98% 16.0 mph WNW25.7 kmh WNW -- 29.20 in988.8 mb 0.03 in0.8 mm 0.00 in0.0 mm 0.30 in7.6 mm
07:52 AM 33.2°F0.7°C 32.7°F0.4°C 98% 23.0 mph WNW37.0 kmh WNW -- 29.20 in988.8 mb 0.03 in0.8 mm 0.00 in0.0 mm 0.30 in7.6 mm
07:54 AM 33.2°F0.7°C 32.7°F0.4°C 98% 21.0 mph NNW33.8 kmh NNW -- 29.20 in988.8 mb 0.03 in0.8 mm 0.00 in0.0 mm 0.30 in7.6 mm
07:55 AM 33.0°F0.6°C 32.6°F0.3°C 98% 24.0 mph NW38.6 kmh NW -- 29.20 in988.8 mb 0.03 in0.8 mm 0.00 in0.0 mm 0.30 in7.6 mm
07:56 AM 33.0°F0.6°C 32.6°F0.3°C 98% 25.0 mph W40.2 kmh W -- 29.20 in988.8 mb 0.03 in0.8 mm 0.00 in0.0 mm 0.30 in7.6 mm
07:57 AM 33.0°F0.6°C 32.6°F0.3°C 98% 17.0 mph NW27.4 kmh NW -- 29.20 in988.8 mb 0.03 in0.8 mm 0.00 in0.0 mm 0.30 in7.6 mm
07:58 AM 33.0°F0.6°C 32.6°F0.3°C 98% 13.0 mph WNW20.9 kmh WNW -- 29.19 in988.5 mb 0.03 in0.8 mm 0.00 in0.0 mm 0.30 in7.6 mm
07:59 AM 33.0°F0.6°C 32.6°F0.3°C 98% 24.0 mph NW38.6 kmh NW -- 29.19 in988.5 mb 0.03 in0.8 mm 0.00 in0.0 mm 0.30 in7.6 mm
08:00 AM 33.0°F0.6°C 32.6°F0.3°C 98% 17.0 mph NW27.4 kmh NW -- 29.20 in988.8 mb 0.03 in0.8 mm 0.00 in0.0 mm 0.30 in7.6 mm
08:01 AM 33.0°F0.6°C 32.6°F0.3°C 98% 21.0 mph WNW33.8 kmh WNW -- 29.19 in988.5 mb 0.00 in0.0 mm 0.00 in0.0 mm 0.30 in7.6 mm
08:02 AM 33.0°F0.6°C 32.6°F0.3°C 98% 18.0 mph W29.0 kmh W -- 29.20 in988.8 mb 0.00 in0.0 mm 0.00 in0.0 mm 0.30 in7.6 mm
08:03 AM 33.0°F0.6°C 32.6°F0.3°C 98% 20.0 mph WNW32.2 kmh WNW -- 29.20 in988.8 mb 0.00 in0.0 mm 0.00 in0.0 mm 0.30 in7.6 mm
08:04 AM 33.0°F0.6°C 32.6°F0.3°C 98% 23.0 mph WNW37.0 kmh WNW -- 29.20 in988.8 mb 0.00 in0.0 mm 0.00 in0.0 mm 0.30 in7.6 mm
08:05 AM 33.0°F0.6°C 32.6°F0.3°C 98% 25.0 mph NW40.2 kmh NW -- 29.20 in988.8 mb 0.00 in0.0 mm 0.00 in0.0 mm 0.30 in7.6 mm
08:06 AM 33.0°F0.6°C 32.6°F0.3°C 98% 22.0 mph WNW35.4 kmh WNW -- 29.20 in988.8 mb 0.00 in0.0 mm 0.00 in0.0 mm 0.30 in7.6 mm
08:07 AM 33.0°F0.6°C 32.6°F0.3°C 98% 16.0 mph NW25.7 kmh NW -- 29.20 in988.8 mb 0.00 in0.0 mm 0.00 in0.0 mm 0.30 in7.6 mm
08:08 AM 33.0°F0.6°C 32.6°F0.3°C 98% 19.0 mph WNW30.6 kmh WNW -- 29.19 in988.5 mb 0.00 in0.0 mm 0.00 in0.0 mm 0.30 in7.6 mm
08:09 AM 33.0°F0.6°C 32.6°F0.3°C 98% 21.0 mph W33.8 kmh W -- 29.20 in988.8 mb 0.00 in0.0 mm 0.00 in0.0 mm 0.30 in7.6 mm
08:10 AM 33.0°F0.6°C 32.6°F0.3°C 98% 22.0 mph NW35.4 kmh NW -- 29.19 in988.5 mb 0.00 in0.0 mm 0.00 in0.0 mm 0.30 in7.6 mm
08:11 AM 33.0°F0.6°C 32.6°F0.3°C 98% 20.0 mph NNW32.2 kmh NNW -- 29.20 in988.8 mb 0.00 in0.0 mm 0.00 in0.0 mm 0.30 in7.6 mm
08:12 AM 33.0°F0.6°C 32.6°F0.3°C 98% 14.0 mph NW22.5 kmh NW -- 29.19 in988.5 mb 0.00 in0.0 mm 0.00 in0.0 mm 0.30 in7.6 mm
08:13 AM 32.9°F0.5°C 32.4°F0.2°C 98% 24.0 mph NW38.6 kmh NW -- 29.19 in988.5 mb 0.00 in0.0 mm 0.00 in0.0 mm 0.30 in7.6 mm
08:14 AM 32.9°F0.5°C 32.4°F0.2°C 98% 22.0 mph NNW35.4 kmh NNW -- 29.19 in988.5 mb 0.00 in0.0 mm 0.00 in0.0 mm 0.30 in7.6 mm
08:15 AM 32.6°F0.3°C 32.0°F0.0°C 98% 25.0 mph W40.2 kmh W -- 29.20 in988.8 mb 0.00 in0.0 mm 0.00 in0.0 mm 0.30 in7.6 mm
08:16 AM 32.5°F0.3°C 32.0°F0.0°C 98% 23.0 mph NW37.0 kmh NW -- 29.20 in988.8 mb 0.00 in0.0 mm 0.00 in0.0 mm 0.30 in7.6 mm
08:17 AM 32.4°F0.2°C 31.9°F-0.1°C 98% 20.0 mph W32.2 kmh W -- 29.20 in988.8 mb 0.00 in0.0 mm 0.00 in0.0 mm 0.30 in7.6 mm
08:18 AM 32.4°F0.2°C 31.9°F-0.1°C 98% 22.0 mph NNW35.4 kmh NNW -- 29.20 in988.8 mb 0.00 in0.0 mm 0.00 in0.0 mm 0.30 in7.6 mm
08:19 AM 32.2°F0.1°C 31.7°F-0.2°C 98% 25.0 mph WNW40.2 kmh WNW -- 29.20 in988.8 mb 0.01 in0.3 mm 0.60 in15.2 mm 0.31 in7.9 mm
08:20 AM 32.2°F0.1°C 31.7°F-0.2°C 98% 24.0 mph NW38.6 kmh NW -- 29.19 in988.5 mb 0.01 in0.3 mm 0.00 in0.0 mm 0.31 in7.9 mm
08:21 AM 32.2°F0.1°C 31.7°F-0.2°C 98% 22.0 mph NW35.4 kmh NW -- 29.19 in988.5 mb 0.01 in0.3 mm 0.00 in0.0 mm 0.31 in7.9 mm
08:22 AM 32.2°F0.1°C 31.7°F-0.2°C 98% 19.0 mph WNW30.6 kmh WNW -- 29.19 in988.5 mb 0.01 in0.3 mm 0.00 in0.0 mm 0.31 in7.9 mm
08:23 AM 32.2°F0.1°C 31.7°F-0.2°C 98% 16.0 mph WNW25.7 kmh WNW -- 29.19 in988.5 mb 0.01 in0.3 mm 0.00 in0.0 mm 0.31 in7.9 mm
08:24 AM 32.2°F0.1°C 31.7°F-0.2°C 98% 17.0 mph W27.4 kmh W -- 29.19 in988.5 mb 0.01 in0.3 mm 0.00 in0.0 mm 0.31 in7.9 mm
08:26 AM 32.2°F0.1°C 31.7°F-0.2°C 98% 20.0 mph NNW32.2 kmh NNW -- 29.19 in988.5 mb 0.01 in0.3 mm 0.00 in0.0 mm 0.31 in7.9 mm
08:27 AM 32.2°F0.1°C 31.7°F-0.2°C 98% 24.0 mph W38.6 kmh W -- 29.19 in988.5 mb 0.01 in0.3 mm 0.00 in0.0 mm 0.31 in7.9 mm
08:28 AM 31.9°F-0.1°C 31.3°F-0.4°C 98% 17.0 mph WNW27.4 kmh WNW -- 29.19 in988.5 mb 0.01 in0.3 mm 0.00 in0.0 mm 0.31 in7.9 mm
08:29 AM 31.9°F-0.1°C 31.3°F-0.4°C 98% 15.0 mph WNW24.1 kmh WNW -- 29.19 in988.5 mb 0.01 in0.3 mm 0.00 in0.0 mm 0.31 in7.9 mm
08:30 AM 31.9°F-0.1°C 31.3°F-0.4°C 98% 17.0 mph NW27.4 kmh NW -- 29.19 in988.5 mb 0.01 in0.3 mm 0.00 in0.0 mm 0.31 in7.9 mm
08:31 AM 31.9°F-0.1°C 31.3°F-0.4°C 98% 21.0 mph NW33.8 kmh NW -- 29.19 in988.5 mb 0.01 in0.3 mm 0.00 in0.0 mm 0.31 in7.9 mm
08:32 AM 31.9°F-0.1°C 31.3°F-0.4°C 98% 13.0 mph WNW20.9 kmh WNW -- 29.19 in988.5 mb 0.01 in0.3 mm 0.00 in0.0 mm 0.31 in7.9 mm
08:33 AM 31.9°F-0.1°C 31.3°F-0.4°C 98% 21.0 mph W33.8 kmh W -- 29.19 in988.5 mb 0.01 in0.3 mm 0.00 in0.0 mm 0.31 in7.9 mm
08:34 AM 31.9°F-0.1°C 31.3°F-0.4°C 98% 21.0 mph NNW33.8 kmh NNW -- 29.19 in988.5 mb 0.01 in0.3 mm 0.00 in0.0 mm 0.31 in7.9 mm
08:35 AM 31.9°F-0.1°C 31.3°F-0.4°C 98% 15.0 mph W24.1 kmh W -- 29.19 in988.5 mb 0.01 in0.3 mm 0.00 in0.0 mm 0.31 in7.9 mm
08:36 AM 31.9°F-0.1°C 31.3°F-0.4°C 98% 19.0 mph W30.6 kmh W -- 29.19 in988.5 mb 0.01 in0.3 mm 0.00 in0.0 mm 0.31 in7.9 mm
08:37 AM 31.9°F-0.1°C 31.3°F-0.4°C 98% 13.0 mph WNW20.9 kmh WNW -- 29.19 in988.5 mb 0.01 in0.3 mm 0.00 in0.0 mm 0.31 in7.9 mm
08:38 AM 31.9°F-0.1°C 31.3°F-0.4°C 98% 21.0 mph NW33.8 kmh NW -- 29.19 in988.5 mb 0.01 in0.3 mm 0.00 in0.0 mm 0.31 in7.9 mm
08:39 AM 31.9°F-0.1°C 31.3°F-0.4°C 98% 16.0 mph WNW25.7 kmh WNW -- 29.19 in988.5 mb 0.01 in0.3 mm 0.00 in0.0 mm 0.31 in7.9 mm
08:40 AM 31.9°F-0.1°C 31.3°F-0.4°C 98% 17.0 mph W27.4 kmh W -- 29.18 in988.1 mb 0.01 in0.3 mm 0.00 in0.0 mm 0.31 in7.9 mm
08:41 AM 31.9°F-0.1°C 31.3°F-0.4°C 98% 18.0 mph WNW29.0 kmh WNW -- 29.18 in988.1 mb 0.01 in0.3 mm 0.00 in0.0 mm 0.31 in7.9 mm
08:42 AM 31.9°F-0.1°C 31.3°F-0.4°C 98% 20.0 mph W32.2 kmh W -- 29.18 in988.1 mb 0.01 in0.3 mm 0.00 in0.0 mm 0.31 in7.9 mm
08:43 AM 31.9°F-0.1°C 31.3°F-0.4°C 98% 23.0 mph NW37.0 kmh NW -- 29.18 in988.1 mb 0.01 in0.3 mm 0.00 in0.0 mm 0.31 in7.9 mm
08:44 AM 31.9°F-0.1°C 31.3°F-0.4°C 98% 20.0 mph NW32.2 kmh NW -- 29.18 in988.1 mb 0.01 in0.3 mm 0.00 in0.0 mm 0.31 in7.9 mm
08:45 AM 31.9°F-0.1°C 31.3°F-0.4°C 98% 16.0 mph WNW25.7 kmh WNW -- 29.18 in988.1 mb 0.01 in0.3 mm 0.00 in0.0 mm 0.31 in7.9 mm
08:46 AM 31.9°F-0.1°C 31.3°F-0.4°C 98% 17.0 mph WNW27.4 kmh WNW -- 29.18 in988.1 mb 0.01 in0.3 mm 0.00 in0.0 mm 0.31 in7.9 mm
08:47 AM 31.7°F-0.2°C 31.1°F-0.5°C 98% 22.0 mph WNW35.4 kmh WNW -- 29.18 in988.1 mb 0.01 in0.3 mm 0.00 in0.0 mm 0.31 in7.9 mm
08:48 AM 31.7°F-0.2°C 31.1°F-0.5°C 98% 22.0 mph W35.4 kmh W -- 29.17 in987.8 mb 0.01 in0.3 mm 0.00 in0.0 mm 0.31 in7.9 mm
08:49 AM 31.7°F-0.2°C 31.1°F-0.5°C 98% 16.0 mph W25.7 kmh W -- 29.18 in988.1 mb 0.01 in0.3 mm 0.00 in0.0 mm 0.31 in7.9 mm
08:50 AM 31.7°F-0.2°C 31.1°F-0.5°C 98% 23.0 mph WNW37.0 kmh WNW -- 29.17 in987.8 mb 0.01 in0.3 mm 0.00 in0.0 mm 0.31 in7.9 mm
08:51 AM 31.7°F-0.2°C 31.1°F-0.5°C 98% 24.0 mph W38.6 kmh W -- 29.18 in988.1 mb 0.01 in0.3 mm 0.00 in0.0 mm 0.31 in7.9 mm
08:52 AM 31.6°F-0.2°C 31.1°F-0.5°C 98% 21.0 mph NNW33.8 kmh NNW -- 29.17 in987.8 mb 0.01 in0.3 mm 0.00 in0.0 mm 0.31 in7.9 mm
08:53 AM 31.6°F-0.2°C 31.1°F-0.5°C 98% 16.0 mph NW25.7 kmh NW -- 29.17 in987.8 mb 0.01 in0.3 mm 0.00 in0.0 mm 0.31 in7.9 mm
08:54 AM 31.6°F-0.2°C 31.1°F-0.5°C 98% 24.0 mph WNW38.6 kmh WNW -- 29.17 in987.8 mb 0.01 in0.3 mm 0.00 in0.0 mm 0.31 in7.9 mm
08:55 AM 31.6°F-0.2°C 31.1°F-0.5°C 98% 17.0 mph W27.4 kmh W -- 29.17 in987.8 mb 0.01 in0.3 mm 0.00 in0.0 mm 0.31 in7.9 mm
08:56 AM 31.6°F-0.2°C 31.1°F-0.5°C 98% 19.0 mph NW30.6 kmh NW -- 29.17 in987.8 mb 0.01 in0.3 mm 0.00 in0.0 mm 0.31 in7.9 mm
08:57 AM 31.6°F-0.2°C 31.1°F-0.5°C 98% 22.0 mph WNW35.4 kmh WNW -- 29.17 in987.8 mb 0.01 in0.3 mm 0.00 in0.0 mm 0.31 in7.9 mm
08:58 AM 31.6°F-0.2°C 31.1°F-0.5°C 98% 24.0 mph WNW38.6 kmh WNW -- 29.17 in987.8 mb 0.01 in0.3 mm 0.00 in0.0 mm 0.31 in7.9 mm
08:59 AM 31.6°F-0.2°C 31.1°F-0.5°C 98% 18.0 mph W29.0 kmh W -- 29.17 in987.8 mb 0.01 in0.3 mm 0.00 in0.0 mm 0.31 in7.9 mm
09:00 AM 31.6°F-0.2°C 31.1°F-0.5°C 98% 16.0 mph NW25.7 kmh NW -- 29.17 in987.8 mb 0.01 in0.3 mm 0.00 in0.0 mm 0.31 in7.9 mm
09:01 AM 31.6°F-0.2°C 31.1°F-0.5°C 98% 18.0 mph WNW29.0 kmh WNW -- 29.17 in987.8 mb 0.00 in0.0 mm 0.00 in0.0 mm 0.31 in7.9 mm
09:02 AM 31.6°F-0.2°C 31.1°F-0.5°C 98% 20.0 mph WNW32.2 kmh WNW -- 29.17 in987.8 mb 0.00 in0.0 mm 0.00 in0.0 mm 0.31 in7.9 mm
09:03 AM 31.6°F-0.2°C 31.1°F-0.5°C 98% 19.0 mph NW30.6 kmh NW -- 29.17 in987.8 mb 0.00 in0.0 mm 0.00 in0.0 mm 0.31 in7.9 mm
09:04 AM 31.5°F-0.3°C 31.0°F-0.6°C 98% 22.0 mph NW35.4 kmh NW -- 29.17 in987.8 mb 0.00 in0.0 mm 0.00 in0.0 mm 0.31 in7.9 mm
09:05 AM 31.5°F-0.3°C 31.0°F-0.6°C 98% 33.0 mph WNW53.1 kmh WNW -- 29.17 in987.8 mb 0.00 in0.0 mm 0.00 in0.0 mm 0.31 in7.9 mm
09:06 AM 31.5°F-0.3°C 31.0°F-0.6°C 98% 22.0 mph WNW35.4 kmh WNW -- 29.16 in987.5 mb 0.02 in0.5 mm 1.20 in30.5 mm 0.33 in8.4 mm
09:07 AM 31.2°F-0.4°C 30.8°F-0.7°C 98% 22.0 mph NW35.4 kmh NW -- 29.16 in987.5 mb 0.02 in0.5 mm 0.00 in0.0 mm 0.33 in8.4 mm
09:08 AM 31.2°F-0.4°C 30.8°F-0.7°C 98% 18.0 mph W29.0 kmh W -- 29.17 in987.8 mb 0.02 in0.5 mm 0.00 in0.0 mm 0.33 in8.4 mm
09:09 AM 31.2°F-0.4°C 30.8°F-0.7°C 98% 19.0 mph NW30.6 kmh NW -- 29.17 in987.8 mb 0.02 in0.5 mm 0.00 in0.0 mm 0.33 in8.4 mm
09:10 AM 31.2°F-0.4°C 30.8°F-0.7°C 98% 21.0 mph NW33.8 kmh NW -- 29.17 in987.8 mb 0.02 in0.5 mm 0.00 in0.0 mm 0.33 in8.4 mm
09:11 AM 31.1°F-0.5°C 30.6°F-0.8°C 98% 16.0 mph WNW25.7 kmh WNW -- 29.17 in987.8 mb 0.02 in0.5 mm 0.00 in0.0 mm 0.33 in8.4 mm
09:12 AM 31.1°F-0.5°C 30.6°F-0.8°C 98% 22.0 mph WNW35.4 kmh WNW -- 29.17 in987.8 mb 0.02 in0.5 mm 0.00 in0.0 mm 0.33 in8.4 mm
09:13 AM 31.1°F-0.5°C 30.6°F-0.8°C 98% 26.0 mph WNW41.8 kmh WNW -- 29.17 in987.8 mb 0.02 in0.5 mm 0.00 in0.0 mm 0.33 in8.4 mm
09:14 AM 31.1°F-0.5°C 30.6°F-0.8°C 98% 16.0 mph WNW25.7 kmh WNW -- 29.16 in987.5 mb 0.02 in0.5 mm 0.00 in0.0 mm 0.33 in8.4 mm
09:15 AM 31.1°F-0.5°C 30.6°F-0.8°C 98% 22.0 mph NNW35.4 kmh NNW -- 29.16 in987.5 mb 0.02 in0.5 mm 0.00 in0.0 mm 0.33 in8.4 mm
09:16 AM 30.8°F-0.7°C 30.2°F-1.0°C 98% 20.0 mph WNW32.2 kmh WNW -- 29.16 in987.5 mb 0.02 in0.5 mm 0.00 in0.0 mm 0.33 in8.4 mm
09:17 AM 30.8°F-0.7°C 30.2°F-1.0°C 98% 25.0 mph WNW40.2 kmh WNW -- 29.16 in987.5 mb 0.02 in0.5 mm 0.00 in0.0 mm 0.33 in8.4 mm
09:18 AM 30.8°F-0.7°C 30.2°F-1.0°C 98% 24.0 mph NNW38.6 kmh NNW -- 29.16 in987.5 mb 0.02 in0.5 mm 0.00 in0.0 mm 0.33 in8.4 mm
09:19 AM 30.8°F-0.7°C 30.2°F-1.0°C 98% 22.0 mph W35.4 kmh W -- 29.16 in987.5 mb 0.02 in0.5 mm 0.00 in0.0 mm 0.33 in8.4 mm
09:20 AM 30.7°F-0.7°C 30.2°F-1.0°C 98% 22.0 mph WNW35.4 kmh WNW -- 29.16 in987.5 mb 0.02 in0.5 mm 0.00 in0.0 mm 0.33 in8.4 mm
09:21 AM 30.7°F-0.7°C 30.2°F-1.0°C 98% 28.0 mph WNW45.1 kmh WNW -- 29.16 in987.5 mb 0.02 in0.5 mm 0.00 in0.0 mm 0.33 in8.4 mm
09:22 AM 30.7°F-0.7°C 30.2°F-1.0°C 98% 16.0 mph NNW25.7 kmh NNW -- 29.16 in987.5 mb 0.02 in0.5 mm 0.00 in0.0 mm 0.33 in8.4 mm
09:23 AM 30.7°F-0.7°C 30.2°F-1.0°C 98% 34.0 mph WNW54.7 kmh WNW -- 29.16 in987.5 mb 0.02 in0.5 mm 0.00 in0.0 mm 0.33 in8.4 mm
09:24 AM 30.5°F-0.8°C 30.1°F-1.1°C 98% 23.0 mph NNW37.0 kmh NNW -- 29.16 in987.5 mb 0.02 in0.5 mm 0.00 in0.0 mm 0.33 in8.4 mm
09:25 AM 30.5°F-0.8°C 30.1°F-1.1°C 98% 25.0 mph NW40.2 kmh NW -- 29.16 in987.5 mb 0.02 in0.5 mm 0.00 in0.0 mm 0.33 in8.4 mm
09:26 AM 30.5°F-0.8°C 30.1°F-1.1°C 98% 19.0 mph WNW30.6 kmh WNW -- 29.16 in987.5 mb 0.02 in0.5 mm 0.00 in0.0 mm 0.33 in8.4 mm
09:27 AM 30.5°F-0.8°C 30.1°F-1.1°C 98% 24.0 mph WNW38.6 kmh WNW -- 29.16 in987.5 mb 0.02 in0.5 mm 0.00 in0.0 mm 0.33 in8.4 mm
09:28 AM 30.5°F-0.8°C 30.1°F-1.1°C 98% 18.0 mph WNW29.0 kmh WNW -- 29.16 in987.5 mb 0.02 in0.5 mm 0.00 in0.0 mm 0.33 in8.4 mm
09:29 AM 30.5°F-0.8°C 30.1°F-1.1°C 98% 24.0 mph NW38.6 kmh NW -- 29.16 in987.5 mb 0.02 in0.5 mm 0.00 in0.0 mm 0.33 in8.4 mm
09:30 AM 30.5°F-0.8°C 30.1°F-1.1°C 98% 22.0 mph WNW35.4 kmh WNW -- 29.16 in987.5 mb 0.02 in0.5 mm 0.00 in0.0 mm 0.33 in8.4 mm
09:31 AM 30.5°F-0.8°C 30.1°F-1.1°C 98% 26.0 mph WNW41.8 kmh WNW -- 29.16 in987.5 mb 0.02 in0.5 mm 0.00 in0.0 mm 0.33 in8.4 mm
09:32 AM 30.5°F-0.8°C 30.1°F-1.1°C 98% 16.0 mph NW25.7 kmh NW -- 29.16 in987.5 mb 0.02 in0.5 mm 0.00 in0.0 mm 0.33 in8.4 mm
09:33 AM 30.3°F-0.9°C 29.9°F-1.2°C 98% 22.0 mph WNW35.4 kmh WNW -- 29.16 in987.5 mb 0.02 in0.5 mm 0.00 in0.0 mm 0.33 in8.4 mm
09:34 AM 30.3°F-0.9°C 29.9°F-1.2°C 98% 24.0 mph NNW38.6 kmh NNW -- 29.16 in987.5 mb 0.02 in0.5 mm 0.00 in0.0 mm 0.33 in8.4 mm
09:35 AM 30.3°F-0.9°C 29.9°F-1.2°C 98% 29.0 mph WNW46.7 kmh WNW -- 29.16 in987.5 mb 0.02 in0.5 mm 0.00 in0.0 mm 0.33 in8.4 mm
09:36 AM 30.3°F-0.9°C 29.9°F-1.2°C 98% 25.0 mph NW40.2 kmh NW -- 29.16 in987.5 mb 0.02 in0.5 mm 0.00 in0.0 mm 0.33 in8.4 mm
09:37 AM 30.3°F-0.9°C 29.9°F-1.2°C 98% 30.0 mph WNW48.3 kmh WNW -- 29.16 in987.5 mb 0.02 in0.5 mm 0.00 in0.0 mm 0.33 in8.4 mm
09:38 AM 30.1°F-1.1°C 29.5°F-1.4°C 98% 27.0 mph WNW43.5 kmh WNW -- 29.16 in987.5 mb 0.02 in0.5 mm 0.00 in0.0 mm 0.33 in8.4 mm
09:39 AM 30.1°F-1.1°C 29.5°F-1.4°C 98% 22.0 mph WNW35.4 kmh WNW -- 29.16 in987.5 mb 0.02 in0.5 mm 0.00 in0.0 mm 0.33 in8.4 mm
09:40 AM 30.1°F-1.1°C 29.5°F-1.4°C 98% 20.0 mph NNW32.2 kmh NNW -- 29.16 in987.5 mb 0.02 in0.5 mm 0.00 in0.0 mm 0.33 in8.4 mm
09:41 AM 30.1°F-1.1°C 29.5°F-1.4°C 98% 18.0 mph WNW29.0 kmh WNW -- 29.16 in987.5 mb 0.02 in0.5 mm 0.00 in0.0 mm 0.33 in8.4 mm
09:42 AM 30.1°F-1.1°C 29.5°F-1.4°C 98% 28.0 mph NW45.1 kmh NW -- 29.16 in987.5 mb 0.02 in0.5 mm 0.00 in0.0 mm 0.33 in8.4 mm
09:43 AM 30.1°F-1.1°C 29.5°F-1.4°C 98% 19.0 mph WNW30.6 kmh WNW -- 29.16 in987.5 mb 0.02 in0.5 mm 0.00 in0.0 mm 0.33 in8.4 mm
09:44 AM 30.1°F-1.1°C 29.5°F-1.4°C 98% 29.0 mph WNW46.7 kmh WNW -- 29.16 in987.5 mb 0.02 in0.5 mm 0.00 in0.0 mm 0.33 in8.4 mm
09:45 AM 30.1°F-1.1°C 29.5°F-1.4°C 98% 30.0 mph W48.3 kmh W -- 29.16 in987.5 mb 0.02 in0.5 mm 0.00 in0.0 mm 0.33 in8.4 mm
09:46 AM 30.1°F-1.1°C 29.5°F-1.4°C 98% 28.0 mph WNW45.1 kmh WNW -- 29.16 in987.5 mb 0.02 in0.5 mm 0.00 in0.0 mm 0.33 in8.4 mm
09:47 AM 30.1°F-1.1°C 29.5°F-1.4°C 98% 17.0 mph WNW27.4 kmh WNW -- 29.16 in987.5 mb 0.02 in0.5 mm 0.00 in0.0 mm 0.33 in8.4 mm
09:48 AM 30.1°F-1.1°C 29.5°F-1.4°C 98% 20.0 mph WNW32.2 kmh WNW -- 29.16 in987.5 mb 0.02 in0.5 mm 0.00 in0.0 mm 0.33 in8.4 mm
09:49 AM 30.1°F-1.1°C 29.5°F-1.4°C 98% 27.0 mph NW43.5 kmh NW -- 29.16 in987.5 mb 0.02 in0.5 mm 0.00 in0.0 mm 0.33 in8.4 mm
09:50 AM 30.0°F-1.1°C 29.5°F-1.4°C 98% 21.0 mph WNW33.8 kmh WNW -- 29.16 in987.5 mb 0.02 in0.5 mm 0.00 in0.0 mm 0.33 in8.4 mm
09:51 AM 30.0°F-1.1°C 29.5°F-1.4°C 98% 24.0 mph NNW38.6 kmh NNW -- 29.16 in987.5 mb 0.02 in0.5 mm 0.00 in0.0 mm 0.33 in8.4 mm
09:52 AM 30.0°F-1.1°C 29.5°F-1.4°C 98% 17.0 mph W27.4 kmh W -- 29.16 in987.5 mb 0.02 in0.5 mm 0.00 in0.0 mm 0.33 in8.4 mm
09:53 AM 30.0°F-1.1°C 29.5°F-1.4°C 98% 32.0 mph WNW51.5 kmh WNW -- 29.16 in987.5 mb 0.02 in0.5 mm 0.00 in0.0 mm 0.33 in8.4 mm
09:54 AM 30.0°F-1.1°C 29.5°F-1.4°C 98% 28.0 mph NW45.1 kmh NW -- 29.15 in987.1 mb 0.02 in0.5 mm 0.00 in0.0 mm 0.33 in8.4 mm
09:55 AM 30.0°F-1.1°C 29.5°F-1.4°C 98% 25.0 mph WNW40.2 kmh WNW -- 29.15 in987.1 mb 0.02 in0.5 mm 0.00 in0.0 mm 0.33 in8.4 mm
09:56 AM 30.0°F-1.1°C 29.5°F-1.4°C 98% 24.0 mph NNW38.6 kmh NNW -- 29.16 in987.5 mb 0.02 in0.5 mm 0.00 in0.0 mm 0.33 in8.4 mm
09:57 AM 30.0°F-1.1°C 29.5°F-1.4°C 98% 29.0 mph WNW46.7 kmh WNW -- 29.16 in987.5 mb 0.02 in0.5 mm 0.00 in0.0 mm 0.33 in8.4 mm
09:58 AM 30.0°F-1.1°C 29.5°F-1.4°C 98% 26.0 mph NW41.8 kmh NW -- 29.15 in987.1 mb 0.02 in0.5 mm 0.00 in0.0 mm 0.33 in8.4 mm
09:59 AM 30.0°F-1.1°C 29.5°F-1.4°C 98% 25.0 mph NW40.2 kmh NW -- 29.16 in987.5 mb 0.02 in0.5 mm 0.00 in0.0 mm 0.33 in8.4 mm
10:00 AM 30.0°F-1.1°C 29.5°F-1.4°C 98% 20.0 mph NW32.2 kmh NW -- 29.15 in987.1 mb 0.02 in0.5 mm 0.00 in0.0 mm 0.33 in8.4 mm
10:01 AM 30.0°F-1.1°C 29.5°F-1.4°C 98% 25.0 mph NW40.2 kmh NW -- 29.16 in987.5 mb 0.00 in0.0 mm 0.00 in0.0 mm 0.33 in8.4 mm
10:02 AM 30.0°F-1.1°C 29.5°F-1.4°C 98% 20.0 mph W32.2 kmh W -- 29.15 in987.1 mb 0.00 in0.0 mm 0.00 in0.0 mm 0.33 in8.4 mm
10:03 AM 30.0°F-1.1°C 29.5°F-1.4°C 98% 28.0 mph NW45.1 kmh NW -- 29.16 in987.5 mb 0.00 in0.0 mm 0.00 in0.0 mm 0.33 in8.4 mm
10:04 AM 30.0°F-1.1°C 29.5°F-1.4°C 98% 29.0 mph WNW46.7 kmh WNW -- 29.15 in987.1 mb 0.00 in0.0 mm 0.00 in0.0 mm 0.33 in8.4 mm
10:05 AM 30.0°F-1.1°C 29.5°F-1.4°C 98% 24.0 mph WNW38.6 kmh WNW -- 29.15 in987.1 mb 0.00 in0.0 mm 0.00 in0.0 mm 0.33 in8.4 mm
10:06 AM 30.0°F-1.1°C 29.5°F-1.4°C 98% 38.0 mph W61.2 kmh W -- 29.15 in987.1 mb 0.00 in0.0 mm 0.00 in0.0 mm 0.33 in8.4 mm
10:07 AM 30.0°F-1.1°C 29.5°F-1.4°C 98% 24.0 mph NNW38.6 kmh NNW -- 29.15 in987.1 mb 0.00 in0.0 mm 0.00 in0.0 mm 0.33 in8.4 mm
10:08 AM 29.8°F-1.2°C 29.3°F-1.5°C 98% 24.0 mph NW38.6 kmh NW -- 29.15 in987.1 mb 0.00 in0.0 mm 0.00 in0.0 mm 0.33 in8.4 mm
10:09 AM 29.8°F-1.2°C 29.3°F-1.5°C 98% 31.0 mph NW49.9 kmh NW -- 29.15 in987.1 mb 0.00 in0.0 mm 0.00 in0.0 mm 0.33 in8.4 mm
10:10 AM 29.8°F-1.2°C 29.3°F-1.5°C 98% 21.0 mph NW33.8 kmh NW -- 29.15 in987.1 mb 0.00 in0.0 mm 0.00 in0.0 mm 0.33 in8.4 mm
10:11 AM 29.8°F-1.2°C 29.3°F-1.5°C 98% 27.0 mph NNW43.5 kmh NNW -- 29.15 in987.1 mb 0.00 in0.0 mm 0.00 in0.0 mm 0.33 in8.4 mm
10:12 AM 29.8°F-1.2°C 29.3°F-1.5°C 98% 25.0 mph W40.2 kmh W -- 29.14 in986.8 mb 0.00 in0.0 mm 0.00 in0.0 mm 0.33 in8.4 mm
10:13 AM 29.8°F-1.2°C 29.3°F-1.5°C 98% 30.0 mph NW48.3 kmh NW -- 29.15 in987.1 mb 0.00 in0.0 mm 0.00 in0.0 mm 0.33 in8.4 mm
10:14 AM 29.8°F-1.2°C 29.3°F-1.5°C 98% 34.0 mph W54.7 kmh W -- 29.15 in987.1 mb 0.00 in0.0 mm 0.00 in0.0 mm 0.33 in8.4 mm
10:15 AM 29.8°F-1.2°C 29.3°F-1.5°C 98% 23.0 mph NW37.0 kmh NW -- 29.15 in987.1 mb 0.00 in0.0 mm 0.00 in0.0 mm 0.33 in8.4 mm
10:16 AM 29.8°F-1.2°C 29.3°F-1.5°C 98% 35.0 mph NW56.3 kmh NW -- 29.15 in987.1 mb 0.00 in0.0 mm 0.00 in0.0 mm 0.33 in8.4 mm
10:17 AM 29.8°F-1.2°C 29.3°F-1.5°C 98% 31.0 mph NW49.9 kmh NW -- 29.15 in987.1 mb 0.00 in0.0 mm 0.00 in0.0 mm 0.33 in8.4 mm
10:18 AM 29.8°F-1.2°C 29.3°F-1.5°C 98% 29.0 mph WNW46.7 kmh WNW -- 29.15 in987.1 mb 0.00 in0.0 mm 0.00 in0.0 mm 0.33 in8.4 mm
10:19 AM 29.6°F-1.3°C 29.2°F-1.6°C 98% 33.0 mph NW53.1 kmh NW -- 29.15 in987.1 mb 0.00 in0.0 mm 0.00 in0.0 mm 0.33 in8.4 mm
10:20 AM 29.6°F-1.3°C 29.2°F-1.6°C 98% 24.0 mph WNW38.6 kmh WNW -- 29.15 in987.1 mb 0.00 in0.0 mm 0.00 in0.0 mm 0.33 in8.4 mm
10:21 AM 29.6°F-1.3°C 29.2°F-1.6°C 98% 32.0 mph WNW51.5 kmh WNW -- 29.15 in987.1 mb 0.00 in0.0 mm 0.00 in0.0 mm 0.33 in8.4 mm
10:22 AM 29.6°F-1.3°C 29.2°F-1.6°C 98% 22.0 mph WNW35.4 kmh WNW -- 29.14 in986.8 mb 0.00 in0.0 mm 0.00 in0.0 mm 0.33 in8.4 mm
10:23 AM 29.5°F-1.4°C 29.0°F-1.7°C 98% 29.0 mph NW46.7 kmh NW -- 29.14 in986.8 mb 0.00 in0.0 mm 0.00 in0.0 mm 0.33 in8.4 mm
10:24 AM 29.5°F-1.4°C 29.0°F-1.7°C 98% 29.0 mph WNW46.7 kmh WNW -- 29.14 in986.8 mb 0.00 in0.0 mm 0.00 in0.0 mm 0.33 in8.4 mm
10:25 AM 29.5°F-1.4°C 29.0°F-1.7°C 98% 36.0 mph W57.9 kmh W -- 29.14 in986.8 mb 0.00 in0.0 mm 0.00 in0.0 mm 0.33 in8.4 mm
10:26 AM 29.5°F-1.4°C 29.0°F-1.7°C 98% 28.0 mph WNW45.1 kmh WNW -- 29.14 in986.8 mb 0.00 in0.0 mm 0.00 in0.0 mm 0.33 in8.4 mm
10:27 AM 29.5°F-1.4°C 29.0°F-1.7°C 98% 30.0 mph NW48.3 kmh NW -- 29.14 in986.8 mb 0.00 in0.0 mm 0.00 in0.0 mm 0.33 in8.4 mm
10:28 AM 29.5°F-1.4°C 29.0°F-1.7°C 98% 35.0 mph NW56.3 kmh NW -- 29.14 in986.8 mb 0.00 in0.0 mm 0.00 in0.0 mm 0.33 in8.4 mm
10:29 AM 29.5°F-1.4°C 29.0°F-1.7°C 98% 33.0 mph NW53.1 kmh NW -- 29.14 in986.8 mb 0.00 in0.0 mm 0.00 in0.0 mm 0.33 in8.4 mm
10:30 AM 29.5°F-1.4°C 29.0°F-1.7°C 98% 24.0 mph WNW38.6 kmh WNW -- 29.15 in987.1 mb 0.00 in0.0 mm 0.00 in0.0 mm 0.33 in8.4 mm
10:31 AM 29.5°F-1.4°C 29.0°F-1.7°C 98% 38.0 mph NNW61.2 kmh NNW -- 29.15 in987.1 mb 0.00 in0.0 mm 0.00 in0.0 mm 0.33 in8.4 mm
10:32 AM 29.2°F-1.6°C 28.6°F-1.9°C 98% 29.0 mph WNW46.7 kmh WNW -- 29.14 in986.8 mb 0.00 in0.0 mm 0.00 in0.0 mm 0.33 in8.4 mm
10:33 AM 29.2°F-1.6°C 28.6°F-1.9°C 98% 28.0 mph NNW45.1 kmh NNW -- 29.15 in987.1 mb 0.00 in0.0 mm 0.00 in0.0 mm 0.33 in8.4 mm
10:34 AM 29.2°F-1.6°C 28.6°F-1.9°C 98% 26.0 mph NNW41.8 kmh NNW -- 29.14 in986.8 mb 0.00 in0.0 mm 0.00 in0.0 mm 0.33 in8.4 mm
10:35 AM 29.2°F-1.6°C 28.6°F-1.9°C 98% 23.0 mph WNW37.0 kmh WNW -- 29.15 in987.1 mb 0.00 in0.0 mm 0.00 in0.0 mm 0.33 in8.4 mm
10:36 AM 29.2°F-1.6°C 28.6°F-1.9°C 98% 37.0 mph W59.5 kmh W -- 29.15 in987.1 mb 0.00 in0.0 mm 0.00 in0.0 mm 0.33 in8.4 mm
10:37 AM 29.2°F-1.6°C 28.6°F-1.9°C 98% 26.0 mph WNW41.8 kmh WNW -- 29.15 in987.1 mb 0.00 in0.0 mm 0.00 in0.0 mm 0.33 in8.4 mm
10:38 AM 29.2°F-1.6°C 28.6°F-1.9°C 98% 24.0 mph WNW38.6 kmh WNW -- 29.15 in987.1 mb 0.00 in0.0 mm 0.00 in0.0 mm 0.33 in8.4 mm
10:39 AM 29.2°F-1.6°C 28.6°F-1.9°C 98% 22.0 mph NW35.4 kmh NW -- 29.16 in987.5 mb 0.00 in0.0 mm 0.00 in0.0 mm 0.33 in8.4 mm
10:40 AM 29.1°F-1.6°C 28.6°F-1.9°C 98% 30.0 mph NW48.3 kmh NW -- 29.15 in987.1 mb 0.00 in0.0 mm 0.00 in0.0 mm 0.33 in8.4 mm
10:41 AM 29.1°F-1.6°C 28.6°F-1.9°C 98% 30.0 mph W48.3 kmh W -- 29.15 in987.1 mb 0.00 in0.0 mm 0.00 in0.0 mm 0.33 in8.4 mm
10:42 AM 28.8°F-1.8°C 28.3°F-2.1°C 98% 36.0 mph WNW57.9 kmh WNW -- 29.15 in987.1 mb 0.00 in0.0 mm 0.00 in0.0 mm 0.33 in8.4 mm
10:43 AM 28.8°F-1.8°C 28.3°F-2.1°C 98% 37.0 mph WNW59.5 kmh WNW -- 29.15 in987.1 mb 0.00 in0.0 mm 0.00 in0.0 mm 0.33 in8.4 mm
10:44 AM 28.8°F-1.8°C 28.3°F-2.1°C 98% 24.0 mph W38.6 kmh W -- 29.15 in987.1 mb 0.00 in0.0 mm 0.00 in0.0 mm 0.33 in8.4 mm
10:45 AM 28.8°F-1.8°C 28.3°F-2.1°C 98% 21.0 mph WNW33.8 kmh WNW -- 29.15 in987.1 mb 0.00 in0.0 mm 0.00 in0.0 mm 0.33 in8.4 mm
10:46 AM 28.8°F-1.8°C 28.3°F-2.1°C 98% 30.0 mph W48.3 kmh W -- 29.15 in987.1 mb 0.00 in0.0 mm 0.00 in0.0 mm 0.33 in8.4 mm
10:47 AM 28.8°F-1.8°C 28.3°F-2.1°C 98% 26.0 mph WNW41.8 kmh WNW -- 29.15 in987.1 mb 0.00 in0.0 mm 0.00 in0.0 mm 0.33 in8.4 mm
10:48 AM 28.8°F-1.8°C 28.3°F-2.1°C 98% 25.0 mph WNW40.2 kmh WNW -- 29.15 in987.1 mb 0.00 in0.0 mm 0.00 in0.0 mm 0.33 in8.4 mm
10:49 AM 28.8°F-1.8°C 28.3°F-2.1°C 98% 23.0 mph NW37.0 kmh NW -- 29.15 in987.1 mb 0.00 in0.0 mm 0.00 in0.0 mm 0.33 in8.4 mm
10:50 AM 28.7°F-1.8°C 28.3°F-2.1°C 98% 24.0 mph NW38.6 kmh NW -- 29.15 in987.1 mb 0.00 in0.0 mm 0.00 in0.0 mm 0.33 in8.4 mm
10:51 AM 28.7°F-1.8°C 28.3°F-2.1°C 98% 28.0 mph WNW45.1 kmh WNW -- 29.15 in987.1 mb 0.00 in0.0 mm 0.00 in0.0 mm 0.33 in8.4 mm
10:52 AM 28.7°F-1.8°C 28.3°F-2.1°C 98% 24.0 mph WNW38.6 kmh WNW -- 29.15 in987.1 mb 0.00 in0.0 mm 0.00 in0.0 mm 0.33 in8.4 mm
10:53 AM 28.7°F-1.8°C 28.3°F-2.1°C 98% 23.0 mph W37.0 kmh W -- 29.15 in987.1 mb 0.00 in0.0 mm 0.00 in0.0 mm 0.33 in8.4 mm
10:54 AM 28.7°F-1.8°C 28.3°F-2.1°C 98% 23.0 mph NW37.0 kmh NW -- 29.15 in987.1 mb 0.00 in0.0 mm 0.00 in0.0 mm 0.33 in8.4 mm
10:55 AM 28.7°F-1.8°C 28.3°F-2.1°C 98% 21.0 mph NW33.8 kmh NW -- 29.16 in987.5 mb 0.00 in0.0 mm 0.00 in0.0 mm 0.33 in8.4 mm
10:56 AM 28.7°F-1.8°C 28.3°F-2.1°C 98% 30.0 mph WNW48.3 kmh WNW -- 29.16 in987.5 mb 0.00 in0.0 mm 0.00 in0.0 mm 0.33 in8.4 mm
10:57 AM 28.6°F-1.9°C 28.1°F-2.2°C 98% 28.0 mph WNW45.1 kmh WNW -- 29.16 in987.5 mb 0.00 in0.0 mm 0.00 in0.0 mm 0.33 in8.4 mm
10:58 AM 28.3°F-2.1°C 27.7°F-2.4°C 98% 37.0 mph WNW59.5 kmh WNW -- 29.15 in987.1 mb 0.00 in0.0 mm 0.00 in0.0 mm 0.33 in8.4 mm
10:59 AM 28.3°F-2.1°C 27.7°F-2.4°C 98% 28.0 mph NNW45.1 kmh NNW -- 29.15 in987.1 mb 0.00 in0.0 mm 0.00 in0.0 mm 0.33 in8.4 mm
11:00 AM 28.2°F-2.1°C 27.7°F-2.4°C 98% 36.0 mph WNW57.9 kmh WNW -- 29.15 in987.1 mb 0.00 in0.0 mm 0.00 in0.0 mm 0.33 in8.4 mm
11:01 AM 28.2°F-2.1°C 27.7°F-2.4°C 98% 40.0 mph NW64.4 kmh NW -- 29.16 in987.5 mb 0.00 in0.0 mm 0.00 in0.0 mm 0.33 in8.4 mm
11:02 AM 27.9°F-2.3°C 27.4°F-2.6°C 98% 34.0 mph WNW54.7 kmh WNW -- 29.14 in986.8 mb 0.00 in0.0 mm 0.00 in0.0 mm 0.33 in8.4 mm
11:03 AM 27.9°F-2.3°C 27.4°F-2.6°C 98% 39.0 mph NW62.8 kmh NW -- 29.15 in987.1 mb 0.00 in0.0 mm 0.00 in0.0 mm 0.33 in8.4 mm
11:04 AM 27.9°F-2.3°C 27.4°F-2.6°C 98% 36.0 mph WNW57.9 kmh WNW -- 29.15 in987.1 mb 0.00 in0.0 mm 0.00 in0.0 mm 0.33 in8.4 mm
11:06 AM 27.8°F-2.3°C 27.4°F-2.6°C 98% 26.0 mph WNW41.8 kmh WNW -- 29.15 in987.1 mb 0.00 in0.0 mm 0.00 in0.0 mm 0.33 in8.4 mm
11:07 AM 27.8°F-2.3°C 27.4°F-2.6°C 98% 26.0 mph NW41.8 kmh NW -- 29.15 in987.1 mb 0.00 in0.0 mm 0.00 in0.0 mm 0.33 in8.4 mm
11:08 AM 27.8°F-2.3°C 27.4°F-2.6°C 98% 31.0 mph NW49.9 kmh NW -- 29.15 in987.1 mb 0.00 in0.0 mm 0.00 in0.0 mm 0.33 in8.4 mm
11:09 AM 27.8°F-2.3°C 27.4°F-2.6°C 98% 31.0 mph WNW49.9 kmh WNW -- 29.15 in987.1 mb 0.00 in0.0 mm 0.00 in0.0 mm 0.33 in8.4 mm
11:10 AM 27.6°F-2.4°C 27.2°F-2.7°C 98% 34.0 mph WNW54.7 kmh WNW -- 29.14 in986.8 mb 0.00 in0.0 mm 0.00 in0.0 mm 0.33 in8.4 mm
11:11 AM 27.6°F-2.4°C 27.2°F-2.7°C 98% 36.0 mph WNW57.9 kmh WNW -- 29.15 in987.1 mb 0.00 in0.0 mm 0.00 in0.0 mm 0.33 in8.4 mm
11:14 AM 27.3°F-2.6°C 26.8°F-2.9°C 98% 44.0 mph NW70.8 kmh NW -- 29.15 in987.1 mb 0.00 in0.0 mm 0.00 in0.0 mm 0.33 in8.4 mm
11:15 AM 27.3°F-2.6°C 26.8°F-2.9°C 98% 47.0 mph WNW75.6 kmh WNW -- 29.15 in987.1 mb 0.00 in0.0 mm 0.00 in0.0 mm 0.33 in8.4 mm
11:16 AM 27.3°F-2.6°C 26.8°F-2.9°C 98% 29.0 mph W46.7 kmh W -- 29.15 in987.1 mb 0.00 in0.0 mm 0.00 in0.0 mm 0.33 in8.4 mm
11:17 AM 27.3°F-2.6°C 26.8°F-2.9°C 98% 34.0 mph W54.7 kmh W -- 29.15 in987.1 mb 0.00 in0.0 mm 0.00 in0.0 mm 0.33 in8.4 mm
11:18 AM 27.3°F-2.6°C 26.8°F-2.9°C 98% 29.0 mph NW46.7 kmh NW -- 29.15 in987.1 mb 0.00 in0.0 mm 0.00 in0.0 mm 0.33 in8.4 mm
11:19 AM 27.3°F-2.6°C 26.8°F-2.9°C 98% 36.0 mph NNW57.9 kmh NNW -- 29.16 in987.5 mb 0.00 in0.0 mm 0.00 in0.0 mm 0.33 in8.4 mm
11:20 AM 27.1°F-2.7°C 26.6°F-3.0°C 98% 38.0 mph NNW61.2 kmh NNW -- 29.16 in987.5 mb 0.00 in0.0 mm 0.00 in0.0 mm 0.33 in8.4 mm
11:21 AM 27.1°F-2.7°C 26.6°F-3.0°C 98% 22.0 mph NW35.4 kmh NW -- 29.16 in987.5 mb 0.00 in0.0 mm 0.00 in0.0 mm 0.33 in8.4 mm
11:22 AM 27.1°F-2.7°C 26.6°F-3.0°C 98% 37.0 mph WNW59.5 kmh WNW -- 29.16 in987.5 mb 0.00 in0.0 mm 0.00 in0.0 mm 0.33 in8.4 mm
11:23 AM 27.1°F-2.7°C 26.6°F-3.0°C 98% 29.0 mph WNW46.7 kmh WNW -- 29.17 in987.8 mb 0.00 in0.0 mm 0.00 in0.0 mm 0.33 in8.4 mm
11:24 AM 27.1°F-2.7°C 26.6°F-3.0°C 98% 23.0 mph WNW37.0 kmh WNW -- 29.17 in987.8 mb 0.00 in0.0 mm 0.00 in0.0 mm 0.33 in8.4 mm
11:25 AM 27.1°F-2.7°C 26.6°F-3.0°C 98% 21.0 mph WNW33.8 kmh WNW -- 29.17 in987.8 mb 0.00 in0.0 mm 0.00 in0.0 mm 0.33 in8.4 mm
11:26 AM 27.1°F-2.7°C 26.6°F-3.0°C 98% 32.0 mph WNW51.5 kmh WNW -- 29.17 in987.8 mb 0.00 in0.0 mm 0.00 in0.0 mm 0.33 in8.4 mm
11:27 AM 27.0°F-2.8°C 26.5°F-3.1°C 98% 33.0 mph WNW53.1 kmh WNW -- 29.17 in987.8 mb 0.00 in0.0 mm 0.00 in0.0 mm 0.33 in8.4 mm
11:28 AM 27.0°F-2.8°C 26.5°F-3.1°C 98% 28.0 mph WNW45.1 kmh WNW -- 29.17 in987.8 mb 0.00 in0.0 mm 0.00 in0.0 mm 0.33 in8.4 mm
11:30 AM 26.7°F-2.9°C 26.3°F-3.2°C 98% 32.0 mph NW51.5 kmh NW -- 29.17 in987.8 mb 0.00 in0.0 mm 0.00 in0.0 mm 0.33 in8.4 mm
11:31 AM 26.7°F-2.9°C 26.3°F-3.2°C 98% 45.0 mph WNW72.4 kmh WNW -- 29.17 in987.8 mb 0.00 in0.0 mm 0.00 in0.0 mm 0.33 in8.4 mm
11:32 AM 26.6°F-3.0°C 26.1°F-3.3°C 98% 36.0 mph NW57.9 kmh NW -- 29.17 in987.8 mb 0.00 in0.0 mm 0.00 in0.0 mm 0.33 in8.4 mm
11:33 AM 26.6°F-3.0°C 26.1°F-3.3°C 98% 40.0 mph NW64.4 kmh NW -- 29.17 in987.8 mb 0.00 in0.0 mm 0.00 in0.0 mm 0.33 in8.4 mm
11:34 AM 26.6°F-3.0°C 26.1°F-3.3°C 98% 31.0 mph WNW49.9 kmh WNW -- 29.17 in987.8 mb 0.00 in0.0 mm 0.00 in0.0 mm 0.33 in8.4 mm
11:35 AM 26.6°F-3.0°C 26.1°F-3.3°C 98% 30.0 mph WNW48.3 kmh WNW -- 29.17 in987.8 mb 0.00 in0.0 mm 0.00 in0.0 mm 0.33 in8.4 mm
11:39 AM 26.2°F-3.2°C 25.7°F-3.5°C 98% 43.0 mph NW69.2 kmh NW -- 29.18 in988.1 mb 0.00 in0.0 mm 0.00 in0.0 mm 0.33 in8.4 mm
11:40 AM 26.1°F-3.3°C 25.6°F-3.6°C 98% 45.0 mph WNW72.4 kmh WNW -- 29.18 in988.1 mb 0.00 in0.0 mm 0.00 in0.0 mm 0.33 in8.4 mm
11:41 AM 26.1°F-3.3°C 25.6°F-3.6°C 98% 34.0 mph WNW54.7 kmh WNW -- 29.18 in988.1 mb 0.00 in0.0 mm 0.00 in0.0 mm 0.33 in8.4 mm
11:42 AM 26.1°F-3.3°C 25.6°F-3.6°C 98% 46.0 mph WNW74.0 kmh WNW -- 29.16 in987.5 mb 0.00 in0.0 mm 0.00 in0.0 mm 0.33 in8.4 mm
11:43 AM 26.1°F-3.3°C 25.6°F-3.6°C 98% 39.0 mph WNW62.8 kmh WNW -- 29.16 in987.5 mb 0.00 in0.0 mm 0.00 in0.0 mm 0.33 in8.4 mm
11:44 AM 26.1°F-3.3°C 25.6°F-3.6°C 98% 35.0 mph NW56.3 kmh NW -- 29.18 in988.1 mb 0.00 in0.0 mm 0.00 in0.0 mm 0.33 in8.4 mm
11:45 AM 26.1°F-3.3°C 25.6°F-3.6°C 98% 34.0 mph NNW54.7 kmh NNW -- 29.18 in988.1 mb 0.00 in0.0 mm 0.00 in0.0 mm 0.33 in8.4 mm
11:46 AM 26.1°F-3.3°C 25.6°F-3.6°C 98% 54.0 mph NW86.9 kmh NW -- 29.18 in988.1 mb 0.00 in0.0 mm 0.00 in0.0 mm 0.33 in8.4 mm
11:47 AM 26.1°F-3.3°C 25.6°F-3.6°C 98% 33.0 mph WNW53.1 kmh WNW -- 29.18 in988.1 mb 0.00 in0.0 mm 0.00 in0.0 mm 0.33 in8.4 mm
11:48 AM 25.7°F-3.5°C 25.2°F-3.8°C 98% 40.0 mph W64.4 kmh W -- 29.18 in988.1 mb 0.00 in0.0 mm 0.00 in0.0 mm 0.33 in8.4 mm
11:49 AM 25.7°F-3.5°C 25.2°F-3.8°C 98% 36.0 mph NW57.9 kmh NW -- 29.18 in988.1 mb 0.00 in0.0 mm 0.00 in0.0 mm 0.33 in8.4 mm
11:50 AM 25.7°F-3.5°C 25.2°F-3.8°C 98% 36.0 mph WNW57.9 kmh WNW -- 29.19 in988.5 mb 0.00 in0.0 mm 0.00 in0.0 mm 0.33 in8.4 mm
11:51 AM 25.7°F-3.5°C 25.2°F-3.8°C 98% 34.0 mph WNW54.7 kmh WNW -- 29.18 in988.1 mb 0.00 in0.0 mm 0.00 in0.0 mm 0.33 in8.4 mm
11:52 AM 25.7°F-3.5°C 25.2°F-3.8°C 98% 35.0 mph WNW56.3 kmh WNW -- 29.19 in988.5 mb 0.00 in0.0 mm 0.00 in0.0 mm 0.33 in8.4 mm
11:53 AM 25.7°F-3.5°C 25.2°F-3.8°C 98% 29.0 mph WNW46.7 kmh WNW -- 29.19 in988.5 mb 0.00 in0.0 mm 0.00 in0.0 mm 0.33 in8.4 mm
11:54 AM 25.7°F-3.5°C 25.2°F-3.8°C 98% 37.0 mph NW59.5 kmh NW -- 29.19 in988.5 mb 0.00 in0.0 mm 0.00 in0.0 mm 0.33 in8.4 mm
11:56 AM 25.7°F-3.5°C 25.2°F-3.8°C 98% 35.0 mph NW56.3 kmh NW -- 29.19 in988.5 mb 0.00 in0.0 mm 0.00 in0.0 mm 0.33 in8.4 mm
11:57 AM 25.7°F-3.5°C 25.2°F-3.8°C 98% 27.0 mph WNW43.5 kmh WNW -- 29.19 in988.5 mb 0.00 in0.0 mm 0.00 in0.0 mm 0.33 in8.4 mm
11:58 AM 25.9°F-3.4°C 25.4°F-3.7°C 98% 48.0 mph WNW77.2 kmh WNW -- 29.19 in988.5 mb 0.00 in0.0 mm 0.00 in0.0 mm 0.33 in8.4 mm
11:59 AM 25.9°F-3.4°C 25.4°F-3.7°C 98% 37.0 mph W59.5 kmh W -- 29.18 in988.1 mb 0.00 in0.0 mm 0.00 in0.0 mm 0.33 in8.4 mm
12:00 PM 25.9°F-3.4°C 25.4°F-3.7°C 98% 48.0 mph NW77.2 kmh NW -- 29.20 in988.8 mb 0.00 in0.0 mm 0.00 in0.0 mm 0.33 in8.4 mm
12:01 PM 25.7°F-3.5°C 25.2°F-3.8°C 98% 46.0 mph NW74.0 kmh NW -- 29.20 in988.8 mb 0.00 in0.0 mm 0.00 in0.0 mm 0.33 in8.4 mm
12:02 PM 25.4°F-3.7°C 24.8°F-4.0°C 98% 41.0 mph W66.0 kmh W -- 29.19 in988.5 mb 0.00 in0.0 mm 0.00 in0.0 mm 0.33 in8.4 mm
12:03 PM 25.4°F-3.7°C 24.8°F-4.0°C 98% 31.0 mph W49.9 kmh W -- 29.19 in988.5 mb 0.00 in0.0 mm 0.00 in0.0 mm 0.33 in8.4 mm
12:04 PM 25.1°F-3.8°C 24.7°F-4.1°C 98% 41.0 mph NW66.0 kmh NW -- 29.19 in988.5 mb 0.00 in0.0 mm 0.00 in0.0 mm 0.33 in8.4 mm
12:05 PM 25.0°F-3.9°C 24.5°F-4.2°C 98% 45.0 mph NNW72.4 kmh NNW -- 29.20 in988.8 mb 0.00 in0.0 mm 0.00 in0.0 mm 0.33 in8.4 mm
12:06 PM 24.6°F-4.1°C 24.1°F-4.4°C 98% 44.0 mph NNW70.8 kmh NNW -- 29.19 in988.5 mb 0.00 in0.0 mm 0.00 in0.0 mm 0.33 in8.4 mm
12:07 PM 24.6°F-4.1°C 24.1°F-4.4°C 98% 36.0 mph W57.9 kmh W -- 29.19 in988.5 mb 0.00 in0.0 mm 0.00 in0.0 mm 0.33 in8.4 mm
12:08 PM 24.4°F-4.2°C 23.9°F-4.5°C 98% 40.0 mph NW64.4 kmh NW -- 29.20 in988.8 mb 0.00 in0.0 mm 0.00 in0.0 mm 0.33 in8.4 mm
12:09 PM 24.2°F-4.3°C 23.8°F-4.6°C 98% 51.0 mph WNW82.1 kmh WNW -- 29.20 in988.8 mb 0.00 in0.0 mm 0.00 in0.0 mm 0.33 in8.4 mm
12:10 PM 24.2°F-4.3°C 23.8°F-4.6°C 98% 48.0 mph WNW77.2 kmh WNW -- 29.19 in988.5 mb 0.00 in0.0 mm 0.00 in0.0 mm 0.33 in8.4 mm
12:11 PM 24.2°F-4.3°C 23.8°F-4.6°C 98% 32.0 mph WNW51.5 kmh WNW -- 29.19 in988.5 mb 0.00 in0.0 mm 0.00 in0.0 mm 0.33 in8.4 mm
12:12 PM 24.2°F-4.3°C 23.8°F-4.6°C 98% 28.0 mph WNW45.1 kmh WNW -- 29.20 in988.8 mb 0.00 in0.0 mm 0.00 in0.0 mm 0.33 in8.4 mm
12:13 PM 24.2°F-4.3°C 23.8°F-4.6°C 98% 39.0 mph WNW62.8 kmh WNW -- 29.20 in988.8 mb 0.00 in0.0 mm 0.00 in0.0 mm 0.33 in8.4 mm
12:14 PM 24.2°F-4.3°C 23.8°F-4.6°C 98% 35.0 mph W56.3 kmh W -- 29.20 in988.8 mb 0.00 in0.0 mm 0.00 in0.0 mm 0.33 in8.4 mm
12:15 PM 24.2°F-4.3°C 23.8°F-4.6°C 98% 41.0 mph WNW66.0 kmh WNW -- 29.20 in988.8 mb 0.00 in0.0 mm 0.00 in0.0 mm 0.33 in8.4 mm
12:16 PM 24.2°F-4.3°C 23.8°F-4.6°C 98% 33.0 mph WNW53.1 kmh WNW -- 29.21 in989.2 mb 0.00 in0.0 mm 0.00 in0.0 mm 0.33 in8.4 mm
12:17 PM 24.2°F-4.3°C 23.8°F-4.6°C 98% 39.0 mph WNW62.8 kmh WNW -- 29.21 in989.2 mb 0.00 in0.0 mm 0.00 in0.0 mm 0.33 in8.4 mm
12:21 PM 24.4°F-4.2°C 23.9°F-4.5°C 98% 37.0 mph NW59.5 kmh NW -- 29.21 in989.2 mb 0.00 in0.0 mm 0.00 in0.0 mm 0.33 in8.4 mm
12:22 PM 24.4°F-4.2°C 23.9°F-4.5°C 98% 40.0 mph WNW64.4 kmh WNW -- 29.21 in989.2 mb 0.00 in0.0 mm 0.00 in0.0 mm 0.33 in8.4 mm
12:23 PM 24.4°F-4.2°C 23.9°F-4.5°C 98% 37.0 mph 59.5 kmh -- 29.21 in989.2 mb 0.00 in0.0 mm 0.00 in0.0 mm 0.33 in8.4 mm
12:24 PM 24.4°F-4.2°C 23.9°F-4.5°C 98% 36.0 mph WNW57.9 kmh WNW -- 29.21 in989.2 mb 0.00 in0.0 mm 0.00 in0.0 mm 0.33 in8.4 mm
12:25 PM 24.4°F-4.2°C 23.9°F-4.5°C 98% 29.0 mph WNW46.7 kmh WNW -- 29.21 in989.2 mb 0.00 in0.0 mm 0.00 in0.0 mm 0.33 in8.4 mm
12:26 PM 24.6°F-4.1°C 24.1°F-4.4°C 98% 40.0 mph WNW64.4 kmh WNW -- 29.22 in989.5 mb 0.00 in0.0 mm 0.00 in0.0 mm 0.33 in8.4 mm
12:27 PM 24.6°F-4.1°C 24.1°F-4.4°C 98% 34.0 mph WNW54.7 kmh WNW -- 29.22 in989.5 mb 0.00 in0.0 mm 0.00 in0.0 mm 0.33 in8.4 mm
12:28 PM 24.6°F-4.1°C 24.1°F-4.4°C 98% 39.0 mph NW62.8 kmh NW -- 29.22 in989.5 mb 0.00 in0.0 mm 0.00 in0.0 mm 0.33 in8.4 mm
12:29 PM 24.6°F-4.1°C 24.1°F-4.4°C 98% 36.0 mph W57.9 kmh W -- 29.22 in989.5 mb 0.00 in0.0 mm 0.00 in0.0 mm 0.33 in8.4 mm
12:30 PM 24.6°F-4.1°C 24.1°F-4.4°C 98% 38.0 mph WNW61.2 kmh WNW -- 29.22 in989.5 mb 0.00 in0.0 mm 0.00 in0.0 mm 0.33 in8.4 mm
12:31 PM 24.6°F-4.1°C 24.1°F-4.4°C 98% 35.0 mph NW56.3 kmh NW -- 29.22 in989.5 mb 0.00 in0.0 mm 0.00 in0.0 mm 0.33 in8.4 mm
12:32 PM 24.6°F-4.1°C 24.1°F-4.4°C 98% 39.0 mph NW62.8 kmh NW -- 29.23 in989.8 mb 0.00 in0.0 mm 0.00 in0.0 mm 0.33 in8.4 mm
12:33 PM 24.4°F-4.2°C 23.9°F-4.5°C 98% 40.0 mph NNW64.4 kmh NNW -- 29.23 in989.8 mb 0.00 in0.0 mm 0.00 in0.0 mm 0.33 in8.4 mm
12:34 PM 24.2°F-4.3°C 23.8°F-4.6°C 98% 46.0 mph W74.0 kmh W -- 29.23 in989.8 mb 0.00 in0.0 mm 0.00 in0.0 mm 0.33 in8.4 mm
12:35 PM 24.1°F-4.4°C 23.6°F-4.7°C 98% 39.0 mph WNW62.8 kmh WNW -- 29.23 in989.8 mb 0.00 in0.0 mm 0.00 in0.0 mm 0.33 in8.4 mm
12:37 PM 24.1°F-4.4°C 23.6°F-4.7°C 98% 48.0 mph WNW77.2 kmh WNW -- 29.23 in989.8 mb 0.00 in0.0 mm 0.00 in0.0 mm 0.33 in8.4 mm
12:38 PM 23.8°F-4.6°C 23.2°F-4.9°C 98% 45.0 mph NW72.4 kmh NW -- 29.23 in989.8 mb 0.00 in0.0 mm 0.00 in0.0 mm 0.33 in8.4 mm
12:39 PM 23.8°F-4.6°C 23.2°F-4.9°C 98% 43.0 mph WNW69.2 kmh WNW -- 29.23 in989.8 mb 0.00 in0.0 mm 0.00 in0.0 mm 0.33 in8.4 mm
12:40 PM 23.7°F-4.6°C 23.2°F-4.9°C 98% 39.0 mph W62.8 kmh W -- 29.24 in990.2 mb 0.00 in0.0 mm 0.00 in0.0 mm 0.33 in8.4 mm
12:42 PM 23.4°F-4.8°C 22.9°F-5.1°C 98% 42.0 mph WNW67.6 kmh WNW -- 29.24 in990.2 mb 0.00 in0.0 mm 0.00 in0.0 mm 0.33 in8.4 mm
12:43 PM 23.4°F-4.8°C 22.9°F-5.1°C 98% 34.0 mph W54.7 kmh W -- 29.23 in989.8 mb 0.00 in0.0 mm 0.00 in0.0 mm 0.33 in8.4 mm
12:44 PM 23.4°F-4.8°C 22.9°F-5.1°C 98% 48.0 mph W77.2 kmh W -- 29.24 in990.2 mb 0.00 in0.0 mm 0.00 in0.0 mm 0.33 in8.4 mm
12:45 PM 23.2°F-4.9°C 22.7°F-5.2°C 98% 46.0 mph W74.0 kmh W -- 29.24 in990.2 mb 0.00 in0.0 mm 0.00 in0.0 mm 0.33 in8.4 mm
12:46 PM 23.2°F-4.9°C 22.7°F-5.2°C 98% 54.0 mph WNW86.9 kmh WNW -- 29.24 in990.2 mb 0.00 in0.0 mm 0.00 in0.0 mm 0.33 in8.4 mm
12:47 PM 22.9°F-5.1°C 22.3°F-5.4°C 98% 39.0 mph WNW62.8 kmh WNW -- 29.24 in990.2 mb 0.00 in0.0 mm 0.00 in0.0 mm 0.33 in8.4 mm
12:48 PM 22.9°F-5.1°C 22.3°F-5.4°C 98% 55.0 mph WNW88.5 kmh WNW -- 29.24 in990.2 mb 0.00 in0.0 mm 0.00 in0.0 mm 0.33 in8.4 mm
12:49 PM 22.9°F-5.1°C 22.3°F-5.4°C 98% 43.0 mph WNW69.2 kmh WNW -- 29.24 in990.2 mb 0.00 in0.0 mm 0.00 in0.0 mm 0.33 in8.4 mm
12:50 PM 22.9°F-5.1°C 22.3°F-5.4°C 98% 36.0 mph NNW57.9 kmh NNW -- 29.24 in990.2 mb 0.00 in0.0 mm 0.00 in0.0 mm 0.33 in8.4 mm
12:52 PM 22.9°F-5.1°C 22.3°F-5.4°C 98% 39.0 mph NNW62.8 kmh NNW -- 29.24 in990.2 mb 0.00 in0.0 mm 0.00 in0.0 mm 0.33 in8.4 mm
12:55 PM 22.5°F-5.3°C 22.0°F-5.6°C 98% 48.0 mph WNW77.2 kmh WNW -- 29.26 in990.9 mb 0.00 in0.0 mm 0.00 in0.0 mm 0.33 in8.4 mm
12:56 PM 22.3°F-5.4°C 21.8°F-5.7°C 98% 41.0 mph WNW66.0 kmh WNW -- 29.25 in990.5 mb 0.00 in0.0 mm 0.00 in0.0 mm 0.33 in8.4 mm
12:57 PM 22.3°F-5.4°C 21.8°F-5.7°C 98% 39.0 mph WNW62.8 kmh WNW -- 29.25 in990.5 mb 0.00 in0.0 mm 0.00 in0.0 mm 0.33 in8.4 mm
12:59 PM 22.3°F-5.4°C 21.8°F-5.7°C 98% 46.0 mph NW74.0 kmh NW -- 29.26 in990.9 mb 0.00 in0.0 mm 0.00 in0.0 mm 0.33 in8.4 mm
01:00 PM 22.3°F-5.4°C 21.8°F-5.7°C 98% 55.0 mph NW88.5 kmh NW -- 29.25 in990.5 mb 0.00 in0.0 mm 0.00 in0.0 mm 0.33 in8.4 mm
01:02 PM 22.3°F-5.4°C 21.8°F-5.7°C 98% 40.0 mph NW64.4 kmh NW -- 29.25 in990.5 mb 0.00 in0.0 mm 0.00 in0.0 mm 0.33 in8.4 mm
01:04 PM 22.3°F-5.4°C 21.8°F-5.7°C 98% 42.0 mph WNW67.6 kmh WNW -- 29.26 in990.9 mb 0.00 in0.0 mm 0.00 in0.0 mm 0.33 in8.4 mm
01:05 PM 22.5°F-5.3°C 22.0°F-5.6°C 98% 43.0 mph WNW69.2 kmh WNW -- 29.26 in990.9 mb 0.00 in0.0 mm 0.00 in0.0 mm 0.33 in8.4 mm
01:06 PM 22.5°F-5.3°C 22.0°F-5.6°C 98% 39.0 mph WNW62.8 kmh WNW -- 29.26 in990.9 mb 0.00 in0.0 mm 0.00 in0.0 mm 0.33 in8.4 mm
01:07 PM 22.5°F-5.3°C 22.0°F-5.6°C 98% 29.0 mph WNW46.7 kmh WNW -- 29.26 in990.9 mb 0.00 in0.0 mm 0.00 in0.0 mm 0.33 in8.4 mm
01:08 PM 22.5°F-5.3°C 22.0°F-5.6°C 98% 37.0 mph W59.5 kmh W -- 29.27 in991.2 mb 0.00 in0.0 mm 0.00 in0.0 mm 0.33 in8.4 mm
01:17 PM 22.5°F-5.3°C 22.0°F-5.6°C 98% 29.0 mph WNW46.7 kmh WNW -- 29.28 in991.5 mb 0.00 in0.0 mm 0.00 in0.0 mm 0.33 in8.4 mm
01:18 PM 22.5°F-5.3°C 22.0°F-5.6°C 98% 27.0 mph WNW43.5 kmh WNW -- 29.28 in991.5 mb 0.00 in0.0 mm 0.00 in0.0 mm 0.33 in8.4 mm
01:20 PM 22.5°F-5.3°C 22.0°F-5.6°C 98% 42.0 mph NW67.6 kmh NW -- 29.28 in991.5 mb 0.00 in0.0 mm 0.00 in0.0 mm 0.33 in8.4 mm
01:22 PM 22.5°F-5.3°C 22.0°F-5.6°C 98% 35.0 mph NW56.3 kmh NW -- 29.29 in991.9 mb 0.00 in0.0 mm 0.00 in0.0 mm 0.33 in8.4 mm
01:28 PM 22.5°F-5.3°C 22.0°F-5.6°C 98% 27.0 mph NNW43.5 kmh NNW -- 29.28 in991.5 mb 0.00 in0.0 mm 0.00 in0.0 mm 0.33 in8.4 mm
01:29 PM 22.5°F-5.3°C 22.0°F-5.6°C 98% 44.0 mph NNW70.8 kmh NNW -- 29.28 in991.5 mb 0.00 in0.0 mm 0.00 in0.0 mm 0.33 in8.4 mm
01:30 PM 22.5°F-5.3°C 22.0°F-5.6°C 98% 38.0 mph NNW61.2 kmh NNW -- 29.29 in991.9 mb 0.00 in0.0 mm 0.00 in0.0 mm 0.33 in8.4 mm
01:31 PM 22.5°F-5.3°C 22.0°F-5.6°C 98% 31.0 mph W49.9 kmh W -- 29.29 in991.9 mb 0.00 in0.0 mm 0.00 in0.0 mm 0.33 in8.4 mm
01:32 PM 22.5°F-5.3°C 22.0°F-5.6°C 98% 39.0 mph W62.8 kmh W -- 29.29 in991.9 mb 0.00 in0.0 mm 0.00 in0.0 mm 0.33 in8.4 mm
01:33 PM 22.5°F-5.3°C 22.0°F-5.6°C 98% 37.0 mph W59.5 kmh W -- 29.29 in991.9 mb 0.00 in0.0 mm 0.00 in0.0 mm 0.33 in8.4 mm
01:34 PM 22.3°F-5.4°C 21.8°F-5.7°C 98% 44.0 mph WNW70.8 kmh WNW -- 29.28 in991.5 mb 0.00 in0.0 mm 0.00 in0.0 mm 0.33 in8.4 mm
01:35 PM 22.3°F-5.4°C 21.8°F-5.7°C 98% 40.0 mph W64.4 kmh W -- 29.28 in991.5 mb 0.00 in0.0 mm 0.00 in0.0 mm 0.33 in8.4 mm
01:37 PM 22.3°F-5.4°C 21.8°F-5.7°C 98% 26.0 mph W41.8 kmh W -- 29.29 in991.9 mb 0.00 in0.0 mm 0.00 in0.0 mm 0.33 in8.4 mm
01:38 PM 22.3°F-5.4°C 21.8°F-5.7°C 98% 44.0 mph NW70.8 kmh NW -- 29.29 in991.9 mb 0.00 in0.0 mm 0.00 in0.0 mm 0.33 in8.4 mm
01:40 PM 22.3°F-5.4°C 21.8°F-5.7°C 98% 58.0 mph NW93.3 kmh NW -- 29.29 in991.9 mb 0.00 in0.0 mm 0.00 in0.0 mm 0.33 in8.4 mm
01:41 PM 22.1°F-5.5°C 21.6°F-5.8°C 98% 47.0 mph NW75.6 kmh NW -- 29.29 in991.9 mb 0.00 in0.0 mm 0.00 in0.0 mm 0.33 in8.4 mm
01:42 PM 22.1°F-5.5°C 21.6°F-5.8°C 98% 38.0 mph NW61.2 kmh NW -- 29.29 in991.9 mb 0.00 in0.0 mm 0.00 in0.0 mm 0.33 in8.4 mm
01:43 PM 22.1°F-5.5°C 21.6°F-5.8°C 98% 43.0 mph W69.2 kmh W -- 29.29 in991.9 mb 0.00 in0.0 mm 0.00 in0.0 mm 0.33 in8.4 mm
01:44 PM 22.1°F-5.5°C 21.6°F-5.8°C 98% 46.0 mph W74.0 kmh W -- 29.29 in991.9 mb 0.00 in0.0 mm 0.00 in0.0 mm 0.33 in8.4 mm
01:46 PM 22.1°F-5.5°C 21.6°F-5.8°C 98% 49.0 mph WNW78.9 kmh WNW -- 29.29 in991.9 mb 0.00 in0.0 mm 0.00 in0.0 mm 0.33 in8.4 mm
01:49 PM 21.7°F-5.7°C 21.3°F-5.9°C 98% 32.0 mph WNW51.5 kmh WNW -- 29.29 in991.9 mb 0.00 in0.0 mm 0.00 in0.0 mm 0.33 in8.4 mm
01:50 PM 21.7°F-5.7°C 21.3°F-5.9°C 98% 40.0 mph NW64.4 kmh NW -- 29.30 in992.2 mb 0.00 in0.0 mm 0.00 in0.0 mm 0.33 in8.4 mm
01:51 PM 21.7°F-5.7°C 21.3°F-5.9°C 98% 41.0 mph WNW66.0 kmh WNW -- 29.30 in992.2 mb 0.00 in0.0 mm 0.00 in0.0 mm 0.33 in8.4 mm
01:52 PM 21.9°F-5.6°C 21.4°F-5.9°C 98% 35.0 mph NW56.3 kmh NW -- 29.30 in992.2 mb 0.00 in0.0 mm 0.00 in0.0 mm 0.33 in8.4 mm
01:53 PM 21.9°F-5.6°C 21.4°F-5.9°C 98% 40.0 mph NW64.4 kmh NW -- 29.30 in992.2 mb 0.00 in0.0 mm 0.00 in0.0 mm 0.33 in8.4 mm
01:54 PM 21.9°F-5.6°C 21.4°F-5.9°C 98% 37.0 mph WNW59.5 kmh WNW -- 29.30 in992.2 mb 0.00 in0.0 mm 0.00 in0.0 mm 0.33 in8.4 mm
01:55 PM 21.9°F-5.6°C 21.4°F-5.9°C 98% 44.0 mph WNW70.8 kmh WNW -- 29.30 in992.2 mb 0.00 in0.0 mm 0.00 in0.0 mm 0.33 in8.4 mm
01:56 PM 21.9°F-5.6°C 21.4°F-5.9°C 98% 47.0 mph WNW75.6 kmh WNW -- 29.30 in992.2 mb 0.00 in0.0 mm 0.00 in0.0 mm 0.33 in8.4 mm
01:57 PM 21.9°F-5.6°C 21.4°F-5.9°C 98% 43.0 mph WNW69.2 kmh WNW -- 29.30 in992.2 mb 0.00 in0.0 mm 0.00 in0.0 mm 0.33 in8.4 mm
01:58 PM 21.9°F-5.6°C 21.4°F-5.9°C 98% 38.0 mph WNW61.2 kmh WNW -- 29.29 in991.9 mb 0.00 in0.0 mm 0.00 in0.0 mm 0.33 in8.4 mm
01:59 PM 21.9°F-5.6°C 21.4°F-5.9°C 98% 42.0 mph WNW67.6 kmh WNW -- 29.29 in991.9 mb 0.00 in0.0 mm 0.00 in0.0 mm 0.33 in8.4 mm
02:00 PM 21.7°F-5.7°C 21.3°F-5.9°C 98% 45.0 mph W72.4 kmh W -- 29.30 in992.2 mb 0.00 in0.0 mm 0.00 in0.0 mm 0.33 in8.4 mm
02:02 PM 21.7°F-5.7°C 21.3°F-5.9°C 98% 36.0 mph NW57.9 kmh NW -- 29.31 in992.6 mb 0.00 in0.0 mm 0.00 in0.0 mm 0.33 in8.4 mm
02:03 PM 21.7°F-5.7°C 21.3°F-5.9°C 98% 36.0 mph WNW57.9 kmh WNW -- 29.31 in992.6 mb 0.00 in0.0 mm 0.00 in0.0 mm 0.33 in8.4 mm
02:04 PM 21.7°F-5.7°C 21.3°F-5.9°C 98% 35.0 mph NW56.3 kmh NW -- 29.31 in992.6 mb 0.00 in0.0 mm 0.00 in0.0 mm 0.33 in8.4 mm
02:05 PM 21.7°F-5.7°C 21.3°F-5.9°C 98% 35.0 mph W56.3 kmh W -- 29.31 in992.6 mb 0.00 in0.0 mm 0.00 in0.0 mm 0.33 in8.4 mm
02:06 PM 21.7°F-5.7°C 21.3°F-5.9°C 98% 32.0 mph WNW51.5 kmh WNW -- 29.31 in992.6 mb 0.00 in0.0 mm 0.00 in0.0 mm 0.33 in8.4 mm
02:08 PM 21.7°F-5.7°C 21.3°F-5.9°C 98% 43.0 mph WNW69.2 kmh WNW -- 29.31 in992.6 mb 0.00 in0.0 mm 0.00 in0.0 mm 0.33 in8.4 mm
02:09 PM 21.7°F-5.7°C 21.3°F-5.9°C 98% 34.0 mph NW54.7 kmh NW -- 29.31 in992.6 mb 0.00 in0.0 mm 0.00 in0.0 mm 0.33 in8.4 mm
02:10 PM 21.7°F-5.7°C 21.3°F-5.9°C 98% 35.0 mph W56.3 kmh W -- 29.31 in992.6 mb 0.00 in0.0 mm 0.00 in0.0 mm 0.33 in8.4 mm
02:12 PM 21.7°F-5.7°C 21.3°F-5.9°C 98% 47.0 mph WNW75.6 kmh WNW -- 29.32 in992.9 mb 0.00 in0.0 mm 0.00 in0.0 mm 0.33 in8.4 mm
02:13 PM 21.7°F-5.7°C 21.3°F-5.9°C 98% 37.0 mph W59.5 kmh W -- 29.32 in992.9 mb 0.00 in0.0 mm 0.00 in0.0 mm 0.33 in8.4 mm
02:19 PM 21.7°F-5.7°C 21.3°F-5.9°C 98% 33.0 mph NW53.1 kmh NW -- 29.33 in993.2 mb 0.00 in0.0 mm 0.00 in0.0 mm 0.33 in8.4 mm
02:20 PM 21.7°F-5.7°C 21.3°F-5.9°C 98% 38.0 mph WNW61.2 kmh WNW -- 29.33 in993.2 mb 0.00 in0.0 mm 0.00 in0.0 mm 0.33 in8.4 mm
02:22 PM 21.3°F-5.9°C 20.9°F-6.2°C 98% 34.0 mph WNW54.7 kmh WNW -- 29.33 in993.2 mb 0.00 in0.0 mm 0.00 in0.0 mm 0.33 in8.4 mm
02:30 PM 21.3°F-5.9°C 20.9°F-6.2°C 98% 37.0 mph WNW59.5 kmh WNW -- 29.33 in993.2 mb 0.00 in0.0 mm 0.00 in0.0 mm 0.33 in8.4 mm
02:33 PM 21.3°F-5.9°C 20.9°F-6.2°C 98% 39.0 mph WNW62.8 kmh WNW -- 29.33 in993.2 mb 0.00 in0.0 mm 0.00 in0.0 mm 0.33 in8.4 mm
02:34 PM 21.3°F-5.9°C 20.9°F-6.2°C 98% 45.0 mph NNW72.4 kmh NNW -- 29.33 in993.2 mb 0.00 in0.0 mm 0.00 in0.0 mm 0.33 in8.4 mm
02:35 PM 21.3°F-5.9°C 20.9°F-6.2°C 98% 40.0 mph NW64.4 kmh NW -- 29.33 in993.2 mb 0.00 in0.0 mm 0.00 in0.0 mm 0.33 in8.4 mm
02:36 PM 21.3°F-5.9°C 20.9°F-6.2°C 98% 38.0 mph NW61.2 kmh NW -- 29.33 in993.2 mb 0.00 in0.0 mm 0.00 in0.0 mm 0.33 in8.4 mm
02:38 PM 21.3°F-5.9°C 20.9°F-6.2°C 98% 33.0 mph NNW53.1 kmh NNW -- 29.34 in993.6 mb 0.00 in0.0 mm 0.00 in0.0 mm 0.33 in8.4 mm
02:39 PM 21.3°F-5.9°C 20.9°F-6.2°C 98% 35.0 mph NW56.3 kmh NW -- 29.33 in993.2 mb 0.00 in0.0 mm 0.00 in0.0 mm 0.33 in8.4 mm
02:40 PM 21.3°F-5.9°C 20.9°F-6.2°C 98% 36.0 mph W57.9 kmh W -- 29.34 in993.6 mb 0.00 in0.0 mm 0.00 in0.0 mm 0.33 in8.4 mm
02:41 PM 21.6°F-5.8°C 21.1°F-6.1°C 98% 43.0 mph NW69.2 kmh NW -- 29.34 in993.6 mb 0.00 in0.0 mm 0.00 in0.0 mm 0.33 in8.4 mm
02:42 PM 21.6°F-5.8°C 21.1°F-6.1°C 98% 31.0 mph W49.9 kmh W -- 29.33 in993.2 mb 0.00 in0.0 mm 0.00 in0.0 mm 0.33 in8.4 mm
02:43 PM 21.6°F-5.8°C 21.1°F-6.1°C 98% 34.0 mph WNW54.7 kmh WNW -- 29.33 in993.2 mb 0.00 in0.0 mm 0.00 in0.0 mm 0.33 in8.4 mm
02:44 PM 21.6°F-5.8°C 21.1°F-6.1°C 98% 44.0 mph WNW70.8 kmh WNW -- 29.34 in993.6 mb 0.00 in0.0 mm 0.00 in0.0 mm 0.33 in8.4 mm
02:45 PM 21.6°F-5.8°C 21.1°F-6.1°C 98% 37.0 mph WNW59.5 kmh WNW -- 29.34 in993.6 mb 0.00 in0.0 mm 0.00 in0.0 mm 0.33 in8.4 mm
02:46 PM 21.6°F-5.8°C 21.1°F-6.1°C 98% 45.0 mph WNW72.4 kmh WNW -- 29.33 in993.2 mb 0.00 in0.0 mm 0.00 in0.0 mm 0.33 in8.4 mm
02:47 PM 21.6°F-5.8°C 21.1°F-6.1°C 98% 35.0 mph NNW56.3 kmh NNW -- 29.33 in993.2 mb 0.00 in0.0 mm 0.00 in0.0 mm 0.33 in8.4 mm
02:48 PM 21.6°F-5.8°C 21.1°F-6.1°C 98% 40.0 mph W64.4 kmh W -- 29.34 in993.6 mb 0.00 in0.0 mm 0.00 in0.0 mm 0.33 in8.4 mm
02:49 PM 21.6°F-5.8°C 21.1°F-6.1°C 98% 44.0 mph NW70.8 kmh NW -- 29.34 in993.6 mb 0.00 in0.0 mm 0.00 in0.0 mm 0.33 in8.4 mm
02:50 PM 21.6°F-5.8°C 21.1°F-6.1°C 98% 41.0 mph NW66.0 kmh NW -- 29.33 in993.2 mb 0.00 in0.0 mm 0.00 in0.0 mm 0.33 in8.4 mm
02:51 PM 21.6°F-5.8°C 21.1°F-6.1°C 98% 41.0 mph WNW66.0 kmh WNW -- 29.34 in993.6 mb 0.00 in0.0 mm 0.00 in0.0 mm 0.33 in8.4 mm
02:52 PM 21.6°F-5.8°C 21.1°F-6.1°C 98% 41.0 mph WNW66.0 kmh WNW -- 29.33 in993.2 mb 0.00 in0.0 mm 0.00 in0.0 mm 0.33 in8.4 mm
02:53 PM 21.6°F-5.8°C 21.1°F-6.1°C 98% 30.0 mph WNW48.3 kmh WNW -- 29.34 in993.6 mb 0.00 in0.0 mm 0.00 in0.0 mm 0.33 in8.4 mm
02:54 PM 21.6°F-5.8°C 21.1°F-6.1°C 98% 37.0 mph NW59.5 kmh NW -- 29.33 in993.2 mb 0.00 in0.0 mm 0.00 in0.0 mm 0.33 in8.4 mm
02:55 PM 21.6°F-5.8°C 21.1°F-6.1°C 98% 42.0 mph NW67.6 kmh NW -- 29.33 in993.2 mb 0.00 in0.0 mm 0.00 in0.0 mm 0.33 in8.4 mm
02:56 PM 21.6°F-5.8°C 21.1°F-6.1°C 98% 33.0 mph W53.1 kmh W -- 29.33 in993.2 mb 0.00 in0.0 mm 0.00 in0.0 mm 0.33 in8.4 mm
02:57 PM 21.7°F-5.7°C 21.3°F-5.9°C 98% 42.0 mph NW67.6 kmh NW -- 29.33 in993.2 mb 0.00 in0.0 mm 0.00 in0.0 mm 0.33 in8.4 mm
02:58 PM 21.7°F-5.7°C 21.3°F-5.9°C 98% 33.0 mph W53.1 kmh W -- 29.34 in993.6 mb 0.00 in0.0 mm 0.00 in0.0 mm 0.33 in8.4 mm
02:59 PM 21.7°F-5.7°C 21.3°F-5.9°C 98% 38.0 mph NW61.2 kmh NW -- 29.34 in993.6 mb 0.00 in0.0 mm 0.00 in0.0 mm 0.33 in8.4 mm
03:00 PM 21.7°F-5.7°C 21.3°F-5.9°C 98% 37.0 mph NW59.5 kmh NW -- 29.34 in993.6 mb 0.00 in0.0 mm 0.00 in0.0 mm 0.33 in8.4 mm
03:01 PM 21.7°F-5.7°C 21.3°F-5.9°C 98% 43.0 mph W69.2 kmh W -- 29.34 in993.6 mb 0.00 in0.0 mm 0.00 in0.0 mm 0.33 in8.4 mm
03:02 PM 21.7°F-5.7°C 21.3°F-5.9°C 98% 27.0 mph W43.5 kmh W -- 29.34 in993.6 mb 0.00 in0.0 mm 0.00 in0.0 mm 0.33 in8.4 mm
03:03 PM 21.9°F-5.6°C 21.4°F-5.9°C 98% 36.0 mph WNW57.9 kmh WNW -- 29.34 in993.6 mb 0.00 in0.0 mm 0.00 in0.0 mm 0.33 in8.4 mm
03:04 PM 21.9°F-5.6°C 21.4°F-5.9°C 98% 36.0 mph NNW57.9 kmh NNW -- 29.34 in993.6 mb 0.00 in0.0 mm 0.00 in0.0 mm 0.33 in8.4 mm
03:05 PM 21.7°F-5.7°C 21.3°F-5.9°C 98% 42.0 mph NW67.6 kmh NW -- 29.34 in993.6 mb 0.00 in0.0 mm 0.00 in0.0 mm 0.33 in8.4 mm
03:06 PM 21.7°F-5.7°C 21.3°F-5.9°C 98% 40.0 mph NW64.4 kmh NW -- 29.34 in993.6 mb 0.00 in0.0 mm 0.00 in0.0 mm 0.33 in8.4 mm
03:07 PM 21.7°F-5.7°C 21.3°F-5.9°C 98% 35.0 mph W56.3 kmh W -- 29.33 in993.2 mb 0.00 in0.0 mm 0.00 in0.0 mm 0.33 in8.4 mm
03:08 PM 21.7°F-5.7°C 21.3°F-5.9°C 98% 41.0 mph W66.0 kmh W -- 29.34 in993.6 mb 0.00 in0.0 mm 0.00 in0.0 mm 0.33 in8.4 mm
03:09 PM 21.7°F-5.7°C 21.3°F-5.9°C 98% 27.0 mph NW43.5 kmh NW -- 29.34 in993.6 mb 0.00 in0.0 mm 0.00 in0.0 mm 0.33 in8.4 mm
03:10 PM 21.7°F-5.7°C 21.3°F-5.9°C 98% 43.0 mph NNW69.2 kmh NNW -- 29.33 in993.2 mb 0.00 in0.0 mm 0.00 in0.0 mm 0.33 in8.4 mm
03:11 PM 21.6°F-5.8°C 21.1°F-6.1°C 98% 31.0 mph WNW49.9 kmh WNW -- 29.33 in993.2 mb 0.00 in0.0 mm 0.00 in0.0 mm 0.33 in8.4 mm
03:12 PM 21.6°F-5.8°C 21.1°F-6.1°C 98% 37.0 mph NW59.5 kmh NW -- 29.33 in993.2 mb 0.00 in0.0 mm 0.00 in0.0 mm 0.33 in8.4 mm
03:13 PM 21.6°F-5.8°C 21.1°F-6.1°C 98% 43.0 mph NW69.2 kmh NW -- 29.34 in993.6 mb 0.00 in0.0 mm 0.00 in0.0 mm 0.33 in8.4 mm
03:14 PM 21.6°F-5.8°C 21.1°F-6.1°C 98% 39.0 mph WNW62.8 kmh WNW -- 29.34 in993.6 mb 0.00 in0.0 mm 0.00 in0.0 mm 0.33 in8.4 mm
03:15 PM 21.6°F-5.8°C 21.1°F-6.1°C 98% 44.0 mph NW70.8 kmh NW -- 29.34 in993.6 mb 0.00 in0.0 mm 0.00 in0.0 mm 0.33 in8.4 mm
03:16 PM 21.6°F-5.8°C 21.1°F-6.1°C 98% 33.0 mph W53.1 kmh W -- 29.34 in993.6 mb 0.00 in0.0 mm 0.00 in0.0 mm 0.33 in8.4 mm
03:17 PM 21.6°F-5.8°C 21.1°F-6.1°C 98% 35.0 mph WNW56.3 kmh WNW -- 29.34 in993.6 mb 0.00 in0.0 mm 0.00 in0.0 mm 0.33 in8.4 mm
03:18 PM 21.6°F-5.8°C 21.1°F-6.1°C 98% 32.0 mph NW51.5 kmh NW -- 29.34 in993.6 mb 0.00 in0.0 mm 0.00 in0.0 mm 0.33 in8.4 mm
03:19 PM 21.6°F-5.8°C 21.1°F-6.1°C 98% 44.0 mph W70.8 kmh W -- 29.34 in993.6 mb 0.00 in0.0 mm 0.00 in0.0 mm 0.33 in8.4 mm
03:20 PM 21.6°F-5.8°C 21.1°F-6.1°C 98% 43.0 mph NW69.2 kmh NW -- 29.34 in993.6 mb 0.00 in0.0 mm 0.00 in0.0 mm 0.33 in8.4 mm
03:21 PM 21.6°F-5.8°C 21.1°F-6.1°C 98% 36.0 mph NW57.9 kmh NW -- 29.34 in993.6 mb 0.00 in0.0 mm 0.00 in0.0 mm 0.33 in8.4 mm
03:22 PM 21.6°F-5.8°C 21.1°F-6.1°C 98% 39.0 mph NNW62.8 kmh NNW -- 29.34 in993.6 mb 0.00 in0.0 mm 0.00 in0.0 mm 0.33 in8.4 mm
03:23 PM 21.6°F-5.8°C 21.1°F-6.1°C 98% 37.0 mph NNW59.5 kmh NNW -- 29.34 in993.6 mb 0.00 in0.0 mm 0.00 in0.0 mm 0.33 in8.4 mm
03:24 PM 21.6°F-5.8°C 21.1°F-6.1°C 98% 45.0 mph W72.4 kmh W -- 29.34 in993.6 mb 0.00 in0.0 mm 0.00 in0.0 mm 0.33 in8.4 mm
03:25 PM 21.6°F-5.8°C 21.1°F-6.1°C 98% 34.0 mph WNW54.7 kmh WNW -- 29.34 in993.6 mb 0.00 in0.0 mm 0.00 in0.0 mm 0.33 in8.4 mm
03:26 PM 21.6°F-5.8°C 21.1°F-6.1°C 98% 35.0 mph NW56.3 kmh NW -- 29.34 in993.6 mb 0.00 in0.0 mm 0.00 in0.0 mm 0.33 in8.4 mm
03:27 PM 21.6°F-5.8°C 21.1°F-6.1°C 98% 33.0 mph W53.1 kmh W -- 29.34 in993.6 mb 0.00 in0.0 mm 0.00 in0.0 mm 0.33 in8.4 mm
03:28 PM 21.6°F-5.8°C 21.1°F-6.1°C 98% 27.0 mph WNW43.5 kmh WNW -- 29.34 in993.6 mb 0.00 in0.0 mm 0.00 in0.0 mm 0.33 in8.4 mm
03:29 PM 21.6°F-5.8°C 21.1°F-6.1°C 98% 36.0 mph W57.9 kmh W -- 29.34 in993.6 mb 0.00 in0.0 mm 0.00 in0.0 mm 0.33 in8.4 mm
03:30 PM 21.6°F-5.8°C 21.1°F-6.1°C 98% 28.0 mph W45.1 kmh W -- 29.35 in993.9 mb 0.00 in0.0 mm 0.00 in0.0 mm 0.33 in8.4 mm
03:31 PM 21.7°F-5.7°C 21.3°F-5.9°C 98% 29.0 mph W46.7 kmh W -- 29.35 in993.9 mb 0.00 in0.0 mm 0.00 in0.0 mm 0.33 in8.4 mm
03:32 PM 21.7°F-5.7°C 21.3°F-5.9°C 98% 40.0 mph NW64.4 kmh NW -- 29.35 in993.9 mb 0.00 in0.0 mm 0.00 in0.0 mm 0.33 in8.4 mm
03:33 PM 21.7°F-5.7°C 21.3°F-5.9°C 98% 36.0 mph NNW57.9 kmh NNW -- 29.36 in994.2 mb 0.00 in0.0 mm 0.00 in0.0 mm 0.33 in8.4 mm
03:34 PM 21.7°F-5.7°C 21.3°F-5.9°C 98% 39.0 mph WNW62.8 kmh WNW -- 29.36 in994.2 mb 0.00 in0.0 mm 0.00 in0.0 mm 0.33 in8.4 mm
03:36 PM 21.6°F-5.8°C 21.1°F-6.1°C 98% 42.0 mph NW67.6 kmh NW -- 29.36 in994.2 mb 0.00 in0.0 mm 0.00 in0.0 mm 0.33 in8.4 mm
03:37 PM 21.3°F-5.9°C 20.9°F-6.2°C 98% 44.0 mph NW70.8 kmh NW -- 29.36 in994.2 mb 0.00 in0.0 mm 0.00 in0.0 mm 0.33 in8.4 mm
03:41 PM 21.7°F-5.7°C 21.3°F-5.9°C 98% 37.0 mph W59.5 kmh W -- 29.35 in993.9 mb 0.00 in0.0 mm 0.00 in0.0 mm 0.33 in8.4 mm
03:43 PM 21.7°F-5.7°C 21.3°F-5.9°C 98% 40.0 mph W64.4 kmh W -- 29.36 in994.2 mb 0.00 in0.0 mm 0.00 in0.0 mm 0.33 in8.4 mm
03:45 PM 21.7°F-5.7°C 21.3°F-5.9°C 98% 39.0 mph WNW62.8 kmh WNW -- 29.36 in994.2 mb 0.00 in0.0 mm 0.00 in0.0 mm 0.33 in8.4 mm
03:46 PM 21.7°F-5.7°C 21.3°F-5.9°C 98% 40.0 mph W64.4 kmh W -- 29.35 in993.9 mb 0.00 in0.0 mm 0.00 in0.0 mm 0.33 in8.4 mm
03:53 PM 21.7°F-5.7°C 21.3°F-5.9°C 98% 39.0 mph NNW62.8 kmh NNW -- 29.35 in993.9 mb 0.00 in0.0 mm 0.00 in0.0 mm 0.33 in8.4 mm
03:56 PM 21.7°F-5.7°C 21.3°F-5.9°C 98% 39.0 mph W62.8 kmh W -- 29.35 in993.9 mb 0.00 in0.0 mm 0.00 in0.0 mm 0.33 in8.4 mm
03:57 PM 21.6°F-5.8°C 21.1°F-6.1°C 98% 44.0 mph W70.8 kmh W -- 29.35 in993.9 mb 0.00 in0.0 mm 0.00 in0.0 mm 0.33 in8.4 mm
03:58 PM 21.6°F-5.8°C 21.1°F-6.1°C 98% 34.0 mph WNW54.7 kmh WNW -- 29.36 in994.2 mb 0.00 in0.0 mm 0.00 in0.0 mm 0.33 in8.4 mm
03:59 PM 21.6°F-5.8°C 21.1°F-6.1°C 98% 41.0 mph WNW66.0 kmh WNW -- 29.36 in994.2 mb 0.00 in0.0 mm 0.00 in0.0 mm 0.33 in8.4 mm
04:00 PM 21.6°F-5.8°C 21.1°F-6.1°C 98% 41.0 mph W66.0 kmh W -- 29.36 in994.2 mb 0.00 in0.0 mm 0.00 in0.0 mm 0.33 in8.4 mm
04:01 PM 21.6°F-5.8°C 21.1°F-6.1°C 98% 40.0 mph WNW64.4 kmh WNW -- 29.36 in994.2 mb 0.00 in0.0 mm 0.00 in0.0 mm 0.33 in8.4 mm
04:02 PM 21.7°F-5.7°C 21.3°F-5.9°C 98% 42.0 mph WNW67.6 kmh WNW -- 29.36 in994.2 mb 0.00 in0.0 mm 0.00 in0.0 mm 0.33 in8.4 mm
04:03 PM 21.7°F-5.7°C 21.3°F-5.9°C 98% 55.0 mph WNW88.5 kmh WNW -- 29.36 in994.2 mb 0.00 in0.0 mm 0.00 in0.0 mm 0.33 in8.4 mm
04:05 PM 21.7°F-5.7°C 21.3°F-5.9°C 98% 44.0 mph WNW70.8 kmh WNW -- 29.36 in994.2 mb 0.00 in0.0 mm 0.00 in0.0 mm 0.33 in8.4 mm
04:08 PM 21.7°F-5.7°C 21.3°F-5.9°C 98% 48.0 mph WNW77.2 kmh WNW -- 29.36 in994.2 mb 0.00 in0.0 mm 0.00 in0.0 mm 0.33 in8.4 mm
04:09 PM 21.7°F-5.7°C 21.3°F-5.9°C 98% 45.0 mph NW72.4 kmh NW -- 29.36 in994.2 mb 0.00 in0.0 mm 0.00 in0.0 mm 0.33 in8.4 mm
04:11 PM 21.7°F-5.7°C 21.3°F-5.9°C 98% 28.0 mph NW45.1 kmh NW -- 29.37 in994.6 mb 0.00 in0.0 mm 0.00 in0.0 mm 0.33 in8.4 mm
04:12 PM 21.9°F-5.6°C 21.4°F-5.9°C 98% 37.0 mph WNW59.5 kmh WNW -- 29.37 in994.6 mb 0.00 in0.0 mm 0.00 in0.0 mm 0.33 in8.4 mm
04:13 PM 21.9°F-5.6°C 21.4°F-5.9°C 98% 52.0 mph WNW83.7 kmh WNW -- 29.37 in994.6 mb 0.00 in0.0 mm 0.00 in0.0 mm 0.33 in8.4 mm
04:14 PM 21.9°F-5.6°C 21.4°F-5.9°C 98% 39.0 mph W62.8 kmh W -- 29.37 in994.6 mb 0.00 in0.0 mm 0.00 in0.0 mm 0.33 in8.4 mm
04:21 PM 21.7°F-5.7°C 21.3°F-5.9°C 98% 32.0 mph W51.5 kmh W -- 29.37 in994.6 mb 0.00 in0.0 mm 0.00 in0.0 mm 0.33 in8.4 mm
04:22 PM 21.7°F-5.7°C 21.3°F-5.9°C 98% 35.0 mph W56.3 kmh W -- 29.37 in994.6 mb 0.00 in0.0 mm 0.00 in0.0 mm 0.33 in8.4 mm
04:24 PM 21.7°F-5.7°C 21.3°F-5.9°C 98% 41.0 mph W66.0 kmh W -- 29.38 in994.9 mb 0.00 in0.0 mm 0.00 in0.0 mm 0.33 in8.4 mm
04:27 PM 21.7°F-5.7°C 21.3°F-5.9°C 98% 42.0 mph W67.6 kmh W -- 29.38 in994.9 mb 0.00 in0.0 mm 0.00 in0.0 mm 0.33 in8.4 mm
04:28 PM 21.7°F-5.7°C 21.3°F-5.9°C 98% 42.0 mph WNW67.6 kmh WNW -- 29.38 in994.9 mb 0.00 in0.0 mm 0.00 in0.0 mm 0.33 in8.4 mm
04:29 PM 21.7°F-5.7°C 21.3°F-5.9°C 98% 34.0 mph W54.7 kmh W -- 29.39 in995.3 mb 0.00 in0.0 mm 0.00 in0.0 mm 0.33 in8.4 mm
04:30 PM 21.7°F-5.7°C 21.3°F-5.9°C 98% 30.0 mph NW48.3 kmh NW -- 29.39 in995.3 mb 0.00 in0.0 mm 0.00 in0.0 mm 0.33 in8.4 mm
04:31 PM 21.7°F-5.7°C 21.3°F-5.9°C 98% 31.0 mph NNW49.9 kmh NNW -- 29.38 in994.9 mb 0.00 in0.0 mm 0.00 in0.0 mm 0.33 in8.4 mm
04:32 PM 21.7°F-5.7°C 21.3°F-5.9°C 98% 37.0 mph NW59.5 kmh NW -- 29.38 in994.9 mb 0.00 in0.0 mm 0.00 in0.0 mm 0.33 in8.4 mm
04:33 PM 21.7°F-5.7°C 21.3°F-5.9°C 98% 38.0 mph NNW61.2 kmh NNW -- 29.38 in994.9 mb 0.00 in0.0 mm 0.00 in0.0 mm 0.33 in8.4 mm
04:35 PM 21.7°F-5.7°C 21.3°F-5.9°C 98% 31.0 mph NNW49.9 kmh NNW -- 29.39 in995.3 mb 0.00 in0.0 mm 0.00 in0.0 mm 0.33 in8.4 mm
04:36 PM 21.7°F-5.7°C 21.3°F-5.9°C 98% 44.0 mph NW70.8 kmh NW -- 29.39 in995.3 mb 0.00 in0.0 mm 0.00 in0.0 mm 0.33 in8.4 mm
04:38 PM 21.7°F-5.7°C 21.3°F-5.9°C 98% 38.0 mph NW61.2 kmh NW -- 29.39 in995.3 mb 0.00 in0.0 mm 0.00 in0.0 mm 0.33 in8.4 mm
04:39 PM 21.7°F-5.7°C 21.3°F-5.9°C 98% 30.0 mph NW48.3 kmh NW -- 29.39 in995.3 mb 0.00 in0.0 mm 0.00 in0.0 mm 0.33 in8.4 mm
04:40 PM 21.7°F-5.7°C 21.3°F-5.9°C 98% 38.0 mph NW61.2 kmh NW -- 29.39 in995.3 mb 0.00 in0.0 mm 0.00 in0.0 mm 0.33 in8.4 mm
04:42 PM 21.7°F-5.7°C 21.3°F-5.9°C 98% 27.0 mph NW43.5 kmh NW -- 29.39 in995.3 mb 0.00 in0.0 mm 0.00 in0.0 mm 0.33 in8.4 mm
04:43 PM 21.7°F-5.7°C 21.3°F-5.9°C 98% 30.0 mph W48.3 kmh W -- 29.39 in995.3 mb 0.00 in0.0 mm 0.00 in0.0 mm 0.33 in8.4 mm
04:44 PM 21.7°F-5.7°C 21.3°F-5.9°C 98% 40.0 mph WNW64.4 kmh WNW -- 29.39 in995.3 mb 0.00 in0.0 mm 0.00 in0.0 mm 0.33 in8.4 mm
04:45 PM 21.7°F-5.7°C 21.3°F-5.9°C 98% 39.0 mph WNW62.8 kmh WNW -- 29.39 in995.3 mb 0.00 in0.0 mm 0.00 in0.0 mm 0.33 in8.4 mm
04:48 PM 21.7°F-5.7°C 21.3°F-5.9°C 98% 33.0 mph WNW53.1 kmh WNW -- 29.39 in995.3 mb 0.00 in0.0 mm 0.00 in0.0 mm 0.33 in8.4 mm
04:49 PM 21.9°F-5.6°C 21.4°F-5.9°C 98% 38.0 mph WNW61.2 kmh WNW -- 29.40 in995.6 mb 0.00 in0.0 mm 0.00 in0.0 mm 0.33 in8.4 mm
04:50 PM 21.9°F-5.6°C 21.4°F-5.9°C 98% 34.0 mph WNW54.7 kmh WNW -- 29.40 in995.6 mb 0.00 in0.0 mm 0.00 in0.0 mm 0.33 in8.4 mm
04:53 PM 21.9°F-5.6°C 21.4°F-5.9°C 98% 33.0 mph W53.1 kmh W -- 29.40 in995.6 mb 0.00 in0.0 mm 0.00 in0.0 mm 0.33 in8.4 mm
04:54 PM 21.9°F-5.6°C 21.4°F-5.9°C 98% 29.0 mph WNW46.7 kmh WNW -- 29.41 in995.9 mb 0.00 in0.0 mm 0.00 in0.0 mm 0.33 in8.4 mm
04:57 PM 21.9°F-5.6°C 21.4°F-5.9°C 98% 31.0 mph NW49.9 kmh NW -- 29.41 in995.9 mb 0.00 in0.0 mm 0.00 in0.0 mm 0.33 in8.4 mm
04:58 PM 21.9°F-5.6°C 21.4°F-5.9°C 98% 34.0 mph WNW54.7 kmh WNW -- 29.41 in995.9 mb 0.00 in0.0 mm 0.00 in0.0 mm 0.33 in8.4 mm
04:59 PM 21.9°F-5.6°C 21.4°F-5.9°C 98% 36.0 mph W57.9 kmh W -- 29.41 in995.9 mb 0.00 in0.0 mm 0.00 in0.0 mm 0.33 in8.4 mm
05:00 PM 21.9°F-5.6°C 21.4°F-5.9°C 98% 37.0 mph WNW59.5 kmh WNW -- 29.42 in996.3 mb 0.00 in0.0 mm 0.00 in0.0 mm 0.33 in8.4 mm
05:01 PM 21.9°F-5.6°C 21.4°F-5.9°C 98% 32.0 mph WNW51.5 kmh WNW -- 29.42 in996.3 mb 0.00 in0.0 mm 0.00 in0.0 mm 0.33 in8.4 mm
05:02 PM 21.9°F-5.6°C 21.4°F-5.9°C 98% 35.0 mph NW56.3 kmh NW -- 29.42 in996.3 mb 0.00 in0.0 mm 0.00 in0.0 mm 0.33 in8.4 mm
05:03 PM 21.9°F-5.6°C 21.4°F-5.9°C 98% 28.0 mph W45.1 kmh W -- 29.42 in996.3 mb 0.00 in0.0 mm 0.00 in0.0 mm 0.33 in8.4 mm
05:04 PM 21.9°F-5.6°C 21.4°F-5.9°C 98% 36.0 mph NW57.9 kmh NW -- 29.42 in996.3 mb 0.00 in0.0 mm 0.00 in0.0 mm 0.33 in8.4 mm
05:05 PM 21.9°F-5.6°C 21.4°F-5.9°C 98% 43.0 mph WNW69.2 kmh WNW -- 29.42 in996.3 mb 0.00 in0.0 mm 0.00 in0.0 mm 0.33 in8.4 mm
05:06 PM 21.9°F-5.6°C 21.4°F-5.9°C 98% 30.0 mph WNW48.3 kmh WNW -- 29.42 in996.3 mb 0.00 in0.0 mm 0.00 in0.0 mm 0.33 in8.4 mm
05:07 PM 21.9°F-5.6°C 21.4°F-5.9°C 98% 35.0 mph NW56.3 kmh NW -- 29.42 in996.3 mb 0.00 in0.0 mm 0.00 in0.0 mm 0.33 in8.4 mm
05:08 PM 21.9°F-5.6°C 21.4°F-5.9°C 98% 31.0 mph NW49.9 kmh NW -- 29.42 in996.3 mb 0.00 in0.0 mm 0.00 in0.0 mm 0.33 in8.4 mm
05:09 PM 21.9°F-5.6°C 21.4°F-5.9°C 98% 25.0 mph NW40.2 kmh NW -- 29.42 in996.3 mb 0.00 in0.0 mm 0.00 in0.0 mm 0.33 in8.4 mm
05:10 PM 21.9°F-5.6°C 21.4°F-5.9°C 98% 55.0 mph W88.5 kmh W -- 29.42 in996.3 mb 0.00 in0.0 mm 0.00 in0.0 mm 0.33 in8.4 mm
05:11 PM 21.9°F-5.6°C 21.4°F-5.9°C 98% 42.0 mph WNW67.6 kmh WNW -- 29.42 in996.3 mb 0.00 in0.0 mm 0.00 in0.0 mm 0.33 in8.4 mm
05:13 PM 21.9°F-5.6°C 21.4°F-5.9°C 98% 37.0 mph W59.5 kmh W -- 29.42 in996.3 mb 0.00 in0.0 mm 0.00 in0.0 mm 0.33 in8.4 mm
05:14 PM 21.9°F-5.6°C 21.4°F-5.9°C 98% 29.0 mph W46.7 kmh W -- 29.42 in996.3 mb 0.00 in0.0 mm 0.00 in0.0 mm 0.33 in8.4 mm
05:15 PM 21.9°F-5.6°C 21.4°F-5.9°C 98% 43.0 mph NNW69.2 kmh NNW -- 29.43 in996.6 mb 0.00 in0.0 mm 0.00 in0.0 mm 0.33 in8.4 mm
05:16 PM 21.9°F-5.6°C 21.4°F-5.9°C 98% 42.0 mph NW67.6 kmh NW -- 29.43 in996.6 mb 0.00 in0.0 mm 0.00 in0.0 mm 0.33 in8.4 mm
05:18 PM 21.9°F-5.6°C 21.4°F-5.9°C 98% 27.0 mph NW43.5 kmh NW -- 29.42 in996.3 mb 0.00 in0.0 mm 0.00 in0.0 mm 0.33 in8.4 mm
05:20 PM 21.9°F-5.6°C 21.4°F-5.9°C 98% 23.0 mph NW37.0 kmh NW -- 29.41 in995.9 mb 0.00 in0.0 mm 0.00 in0.0 mm 0.33 in8.4 mm
05:21 PM 21.9°F-5.6°C 21.4°F-5.9°C 98% 45.0 mph NNW72.4 kmh NNW -- 29.41 in995.9 mb 0.00 in0.0 mm 0.00 in0.0 mm 0.33 in8.4 mm
05:22 PM 21.9°F-5.6°C 21.4°F-5.9°C 98% 36.0 mph NNW57.9 kmh NNW -- 29.41 in995.9 mb 0.00 in0.0 mm 0.00 in0.0 mm 0.33 in8.4 mm
05:23 PM 21.9°F-5.6°C 21.4°F-5.9°C 98% 30.0 mph W48.3 kmh W -- 29.41 in995.9 mb 0.00 in0.0 mm 0.00 in0.0 mm 0.33 in8.4 mm
05:24 PM 21.9°F-5.6°C 21.4°F-5.9°C 98% 33.0 mph W53.1 kmh W -- 29.41 in995.9 mb 0.00 in0.0 mm 0.00 in0.0 mm 0.33 in8.4 mm
05:25 PM 21.9°F-5.6°C 21.4°F-5.9°C 98% 34.0 mph NW54.7 kmh NW -- 29.42 in996.3 mb 0.00 in0.0 mm 0.00 in0.0 mm 0.33 in8.4 mm
05:26 PM 21.9°F-5.6°C 21.4°F-5.9°C 98% 37.0 mph NW59.5 kmh NW -- 29.42 in996.3 mb 0.00 in0.0 mm 0.00 in0.0 mm 0.33 in8.4 mm
05:27 PM 21.9°F-5.6°C 21.4°F-5.9°C 98% 27.0 mph NW43.5 kmh NW -- 29.42 in996.3 mb 0.00 in0.0 mm 0.00 in0.0 mm 0.33 in8.4 mm
05:28 PM 21.9°F-5.6°C 21.4°F-5.9°C 98% 37.0 mph WNW59.5 kmh WNW -- 29.42 in996.3 mb 0.00 in0.0 mm 0.00 in0.0 mm 0.33 in8.4 mm
05:31 PM 21.9°F-5.6°C 21.4°F-5.9°C 98% 31.0 mph WNW49.9 kmh WNW -- 29.42 in996.3 mb 0.00 in0.0 mm 0.00 in0.0 mm 0.33 in8.4 mm
05:32 PM 21.9°F-5.6°C 21.4°F-5.9°C 98% 43.0 mph W69.2 kmh W -- 29.42 in996.3 mb 0.00 in0.0 mm 0.00 in0.0 mm 0.33 in8.4 mm
05:33 PM 21.9°F-5.6°C 21.4°F-5.9°C 98% 34.0 mph W54.7 kmh W -- 29.42 in996.3 mb 0.00 in0.0 mm 0.00 in0.0 mm 0.33 in8.4 mm
05:34 PM 21.9°F-5.6°C 21.4°F-5.9°C 98% 49.0 mph W78.9 kmh W -- 29.42 in996.3 mb 0.00 in0.0 mm 0.00 in0.0 mm 0.33 in8.4 mm
05:35 PM 21.9°F-5.6°C 21.4°F-5.9°C 98% 33.0 mph NW53.1 kmh NW -- 29.41 in995.9 mb 0.00 in0.0 mm 0.00 in0.0 mm 0.33 in8.4 mm
05:36 PM 21.9°F-5.6°C 21.4°F-5.9°C 98% 41.0 mph NW66.0 kmh NW -- 29.42 in996.3 mb 0.00 in0.0 mm 0.00 in0.0 mm 0.33 in8.4 mm
05:42 PM 21.9°F-5.6°C 21.4°F-5.9°C 98% 50.0 mph W80.5 kmh W -- 29.42 in996.3 mb 0.00 in0.0 mm 0.00 in0.0 mm 0.33 in8.4 mm
05:43 PM 21.9°F-5.6°C 21.4°F-5.9°C 98% 40.0 mph W64.4 kmh W -- 29.42 in996.3 mb 0.00 in0.0 mm 0.00 in0.0 mm 0.33 in8.4 mm
05:56 PM 21.9°F-5.6°C 21.4°F-5.9°C 98% 31.0 mph W49.9 kmh W -- 29.42 in996.3 mb 0.00 in0.0 mm 0.00 in0.0 mm 0.33 in8.4 mm
05:57 PM 21.9°F-5.6°C 21.4°F-5.9°C 98% 46.0 mph W74.0 kmh W -- 29.42 in996.3 mb 0.00 in0.0 mm 0.00 in0.0 mm 0.33 in8.4 mm
06:06 PM 21.7°F-5.7°C 21.3°F-5.9°C 98% 32.0 mph W51.5 kmh W -- 29.43 in996.6 mb 0.00 in0.0 mm 0.00 in0.0 mm 0.33 in8.4 mm
06:08 PM 21.7°F-5.7°C 21.3°F-5.9°C 98% 33.0 mph WNW53.1 kmh WNW -- 29.43 in996.6 mb 0.00 in0.0 mm 0.00 in0.0 mm 0.33 in8.4 mm
06:10 PM 21.7°F-5.7°C 21.3°F-5.9°C 98% 36.0 mph NW57.9 kmh NW -- 29.44 in997.0 mb 0.00 in0.0 mm 0.00 in0.0 mm 0.33 in8.4 mm
06:27 PM 21.7°F-5.7°C 21.3°F-5.9°C 98% 35.0 mph W56.3 kmh W -- 29.44 in997.0 mb 0.00 in0.0 mm 0.00 in0.0 mm 0.33 in8.4 mm
06:31 PM 21.7°F-5.7°C 21.3°F-5.9°C 98% 33.0 mph NNW53.1 kmh NNW -- 29.44 in997.0 mb 0.00 in0.0 mm 0.00 in0.0 mm 0.33 in8.4 mm
06:38 PM 21.3°F-5.9°C 20.9°F-6.2°C 98% 39.0 mph NNW62.8 kmh NNW -- 29.45 in997.3 mb 0.00 in0.0 mm 0.00 in0.0 mm 0.33 in8.4 mm
06:41 PM 21.3°F-5.9°C 20.9°F-6.2°C 98% 50.0 mph NNW80.5 kmh NNW -- 29.45 in997.3 mb 0.00 in0.0 mm 0.00 in0.0 mm 0.33 in8.4 mm
06:44 PM 21.3°F-5.9°C 20.9°F-6.2°C 98% 25.0 mph NNW40.2 kmh NNW -- 29.45 in997.3 mb 0.00 in0.0 mm 0.00 in0.0 mm 0.33 in8.4 mm
06:45 PM 21.3°F-5.9°C 20.9°F-6.2°C 98% 29.0 mph NNW46.7 kmh NNW -- 29.45 in997.3 mb 0.00 in0.0 mm 0.00 in0.0 mm 0.33 in8.4 mm
06:51 PM 21.3°F-5.9°C 20.9°F-6.2°C 98% 29.0 mph W46.7 kmh W -- 29.46 in997.6 mb 0.00 in0.0 mm 0.00 in0.0 mm 0.33 in8.4 mm
06:53 PM 21.3°F-5.9°C 20.9°F-6.2°C 98% 27.0 mph W43.5 kmh W -- 29.47 in998.0 mb 0.00 in0.0 mm 0.00 in0.0 mm 0.33 in8.4 mm
07:10 PM 21.2°F-6.0°C 20.7°F-6.3°C 98% 42.0 mph W67.6 kmh W -- 29.47 in998.0 mb 0.00 in0.0 mm 0.00 in0.0 mm 0.33 in8.4 mm
07:11 PM 21.2°F-6.0°C 20.7°F-6.3°C 98% 37.0 mph NW59.5 kmh NW -- 29.48 in998.3 mb 0.00 in0.0 mm 0.00 in0.0 mm 0.33 in8.4 mm
07:12 PM 21.2°F-6.0°C 20.7°F-6.3°C 98% 36.0 mph NNW57.9 kmh NNW -- 29.48 in998.3 mb 0.00 in0.0 mm 0.00 in0.0 mm 0.33 in8.4 mm
07:13 PM 21.2°F-6.0°C 20.7°F-6.3°C 98% 31.0 mph W49.9 kmh W -- 29.48 in998.3 mb 0.00 in0.0 mm 0.00 in0.0 mm 0.33 in8.4 mm
07:14 PM 21.2°F-6.0°C 20.7°F-6.3°C 98% 33.0 mph NW53.1 kmh NW -- 29.48 in998.3 mb 0.00 in0.0 mm 0.00 in0.0 mm 0.33 in8.4 mm
07:16 PM 21.2°F-6.0°C 20.7°F-6.3°C 98% 35.0 mph WNW56.3 kmh WNW -- 29.48 in998.3 mb 0.00 in0.0 mm 0.00 in0.0 mm 0.33 in8.4 mm
07:17 PM 21.2°F-6.0°C 20.7°F-6.3°C 98% 25.0 mph WNW40.2 kmh WNW -- 29.49 in998.6 mb 0.00 in0.0 mm 0.00 in0.0 mm 0.33 in8.4 mm
07:18 PM 21.2°F-6.0°C 20.7°F-6.3°C 98% 23.0 mph NW37.0 kmh NW -- 29.49 in998.6 mb 0.00 in0.0 mm 0.00 in0.0 mm 0.33 in8.4 mm
07:20 PM 21.2°F-6.0°C 20.7°F-6.3°C 98% 16.0 mph WNW25.7 kmh WNW -- 29.50 in999.0 mb 0.00 in0.0 mm 0.00 in0.0 mm 0.33 in8.4 mm
07:21 PM 21.2°F-6.0°C 20.7°F-6.3°C 98% 27.0 mph WNW43.5 kmh WNW -- 29.50 in999.0 mb 0.00 in0.0 mm 0.00 in0.0 mm 0.33 in8.4 mm
07:24 PM 21.2°F-6.0°C 20.7°F-6.3°C 98% 32.0 mph W51.5 kmh W -- 29.50 in999.0 mb 0.00 in0.0 mm 0.00 in0.0 mm 0.33 in8.4 mm
07:33 PM 21.2°F-6.0°C 20.7°F-6.3°C 98% 24.0 mph NNW38.6 kmh NNW -- 29.52 in999.7 mb 0.00 in0.0 mm 0.00 in0.0 mm 0.33 in8.4 mm
07:34 PM 21.2°F-6.0°C 20.7°F-6.3°C 98% 31.0 mph NW49.9 kmh NW -- 29.52 in999.7 mb 0.00 in0.0 mm 0.00 in0.0 mm 0.33 in8.4 mm
07:36 PM 21.2°F-6.0°C 20.7°F-6.3°C 98% 13.0 mph NW20.9 kmh NW -- 29.53 in1000.0 mb 0.00 in0.0 mm 0.00 in0.0 mm 0.33 in8.4 mm
07:37 PM 21.2°F-6.0°C 20.7°F-6.3°C 98% 19.0 mph NW30.6 kmh NW -- 29.53 in1000.0 mb 0.00 in0.0 mm 0.00 in0.0 mm 0.33 in8.4 mm
07:38 PM 21.2°F-6.0°C 20.7°F-6.3°C 98% 19.0 mph NW30.6 kmh NW -- 29.54 in1000.3 mb 0.00 in0.0 mm 0.00 in0.0 mm 0.33 in8.4 mm
07:39 PM 21.2°F-6.0°C 20.7°F-6.3°C 98% 26.0 mph WNW41.8 kmh WNW -- 29.54 in1000.3 mb 0.00 in0.0 mm 0.00 in0.0 mm 0.33 in8.4 mm
07:40 PM 21.2°F-6.0°C 20.7°F-6.3°C 98% 21.0 mph WNW33.8 kmh WNW -- 29.54 in1000.3 mb 0.00 in0.0 mm 0.00 in0.0 mm 0.33 in8.4 mm
07:42 PM 21.2°F-6.0°C 20.7°F-6.3°C 98% 25.0 mph W40.2 kmh W -- 29.54 in1000.3 mb 0.00 in0.0 mm 0.00 in0.0 mm 0.33 in8.4 mm
07:43 PM 21.2°F-6.0°C 20.7°F-6.3°C 98% 17.0 mph W27.4 kmh W -- 29.55 in1000.7 mb 0.00 in0.0 mm 0.00 in0.0 mm 0.33 in8.4 mm
07:57 PM 21.2°F-6.0°C 20.7°F-6.3°C 98% 32.0 mph W51.5 kmh W -- 29.56 in1001.0 mb 0.00 in0.0 mm 0.00 in0.0 mm 0.33 in8.4 mm
08:00 PM 21.2°F-6.0°C 20.7°F-6.3°C 98% 27.0 mph NNW43.5 kmh NNW -- 29.56 in1001.0 mb 0.00 in0.0 mm 0.00 in0.0 mm 0.33 in8.4 mm
08:07 PM 21.2°F-6.0°C 20.7°F-6.3°C 98% 33.0 mph W53.1 kmh W -- 29.56 in1001.0 mb 0.00 in0.0 mm 0.00 in0.0 mm 0.33 in8.4 mm
08:32 PM 20.7°F-6.3°C 20.2°F-6.6°C 98% 26.0 mph W41.8 kmh W -- 29.58 in1001.7 mb 0.00 in0.0 mm 0.00 in0.0 mm 0.33 in8.4 mm
08:34 PM 20.7°F-6.3°C 20.2°F-6.6°C 98% 29.0 mph WNW46.7 kmh WNW -- 29.58 in1001.7 mb 0.00 in0.0 mm 0.00 in0.0 mm 0.33 in8.4 mm
08:36 PM 20.7°F-6.3°C 20.2°F-6.6°C 98% 25.0 mph WNW40.2 kmh WNW -- 29.58 in1001.7 mb 0.00 in0.0 mm 0.00 in0.0 mm 0.33 in8.4 mm
08:38 PM 20.7°F-6.3°C 20.2°F-6.6°C 98% 28.0 mph WNW45.1 kmh WNW -- 29.59 in1002.0 mb 0.00 in0.0 mm 0.00 in0.0 mm 0.33 in8.4 mm
08:39 PM 20.7°F-6.3°C 20.2°F-6.6°C 98% 27.0 mph W43.5 kmh W -- 29.59 in1002.0 mb 0.00 in0.0 mm 0.00 in0.0 mm 0.33 in8.4 mm
08:40 PM 20.7°F-6.3°C 20.2°F-6.6°C 98% 32.0 mph WNW51.5 kmh WNW -- 29.59 in1002.0 mb 0.00 in0.0 mm 0.00 in0.0 mm 0.33 in8.4 mm
08:41 PM 20.7°F-6.3°C 20.2°F-6.6°C 98% 25.0 mph W40.2 kmh W -- 29.59 in1002.0 mb 0.00 in0.0 mm 0.00 in0.0 mm 0.33 in8.4 mm
08:42 PM 20.7°F-6.3°C 20.2°F-6.6°C 98% 17.0 mph W27.4 kmh W -- 29.59 in1002.0 mb 0.00 in0.0 mm 0.00 in0.0 mm 0.33 in8.4 mm
08:43 PM 20.7°F-6.3°C 20.2°F-6.6°C 98% 36.0 mph NNW57.9 kmh NNW -- 29.59 in1002.0 mb 0.00 in0.0 mm 0.00 in0.0 mm 0.33 in8.4 mm
08:46 PM 20.7°F-6.3°C 20.2°F-6.6°C 98% 27.0 mph W43.5 kmh W -- 29.60 in1002.4 mb 0.00 in0.0 mm 0.00 in0.0 mm 0.33 in8.4 mm
08:53 PM 20.7°F-6.3°C 20.2°F-6.6°C 98% 22.0 mph W35.4 kmh W -- 29.60 in1002.4 mb 0.00 in0.0 mm 0.00 in0.0 mm 0.33 in8.4 mm
08:54 PM 20.7°F-6.3°C 20.2°F-6.6°C 98% 27.0 mph WNW43.5 kmh WNW -- 29.60 in1002.4 mb 0.00 in0.0 mm 0.00 in0.0 mm 0.33 in8.4 mm
08:55 PM 20.7°F-6.3°C 20.2°F-6.6°C 98% 20.0 mph WNW32.2 kmh WNW -- 29.60 in1002.4 mb 0.00 in0.0 mm 0.00 in0.0 mm 0.33 in8.4 mm
08:56 PM 20.7°F-6.3°C 20.2°F-6.6°C 98% 31.0 mph WNW49.9 kmh WNW -- 29.60 in1002.4 mb 0.00 in0.0 mm 0.00 in0.0 mm 0.33 in8.4 mm
08:57 PM 20.7°F-6.3°C 20.2°F-6.6°C 98% 34.0 mph NW54.7 kmh NW -- 29.61 in1002.7 mb 0.00 in0.0 mm 0.00 in0.0 mm 0.33 in8.4 mm
08:58 PM 20.7°F-6.3°C 20.2°F-6.6°C 98% 25.0 mph NW40.2 kmh NW -- 29.61 in1002.7 mb 0.00 in0.0 mm 0.00 in0.0 mm 0.33 in8.4 mm
08:59 PM 20.7°F-6.3°C 20.2°F-6.6°C 98% 22.0 mph NW35.4 kmh NW -- 29.61 in1002.7 mb 0.00 in0.0 mm 0.00 in0.0 mm 0.33 in8.4 mm
09:00 PM 20.7°F-6.3°C 20.2°F-6.6°C 98% 20.0 mph NW32.2 kmh NW -- 29.61 in1002.7 mb 0.00 in0.0 mm 0.00 in0.0 mm 0.33 in8.4 mm
09:01 PM 20.7°F-6.3°C 20.2°F-6.6°C 98% 25.0 mph WNW40.2 kmh WNW -- 29.61 in1002.7 mb 0.00 in0.0 mm 0.00 in0.0 mm 0.33 in8.4 mm
09:24 PM 20.7°F-6.3°C 20.2°F-6.6°C 98% 23.0 mph NW37.0 kmh NW -- 29.62 in1003.0 mb 0.00 in0.0 mm 0.00 in0.0 mm 0.33 in8.4 mm
10:16 PM 20.4°F-6.4°C 20.0°F-6.7°C 98% 16.0 mph NW25.7 kmh NW -- 29.68 in1005.1 mb 0.00 in0.0 mm 0.00 in0.0 mm 0.33 in8.4 mm
10:30 PM 20.4°F-6.4°C 20.0°F-6.7°C 98% 18.0 mph WNW29.0 kmh WNW -- 29.68 in1005.1 mb 0.00 in0.0 mm 0.00 in0.0 mm 0.33 in8.4 mm
10:31 PM 20.4°F-6.4°C 20.0°F-6.7°C 98% 22.0 mph WNW35.4 kmh WNW -- 29.68 in1005.1 mb 0.00 in0.0 mm 0.00 in0.0 mm 0.33 in8.4 mm
10:35 PM 20.4°F-6.4°C 20.0°F-6.7°C 98% 18.0 mph WNW29.0 kmh WNW -- 29.69 in1005.4 mb 0.00 in0.0 mm 0.00 in0.0 mm 0.33 in8.4 mm
10:38 PM 20.4°F-6.4°C 20.0°F-6.7°C 98% 17.0 mph WNW27.4 kmh WNW -- 29.69 in1005.4 mb 0.00 in0.0 mm 0.00 in0.0 mm 0.33 in8.4 mm
10:42 PM 20.2°F-6.6°C 19.6°F-6.9°C 98% 17.0 mph WNW27.4 kmh WNW -- 29.69 in1005.4 mb 0.00 in0.0 mm 0.00 in0.0 mm 0.33 in8.4 mm
10:53 PM 20.0°F-6.7°C 19.5°F-6.9°C 98% 23.0 mph W37.0 kmh W -- 29.70 in1005.8 mb 0.00 in0.0 mm 0.00 in0.0 mm 0.33 in8.4 mm
10:54 PM 20.0°F-6.7°C 19.5°F-6.9°C 98% 20.0 mph W32.2 kmh W -- 29.70 in1005.8 mb 0.00 in0.0 mm 0.00 in0.0 mm 0.33 in8.4 mm
10:58 PM 20.0°F-6.7°C 19.5°F-6.9°C 98% 22.0 mph NW35.4 kmh NW -- 29.70 in1005.8 mb 0.00 in0.0 mm 0.00 in0.0 mm 0.33 in8.4 mm
10:59 PM 20.0°F-6.7°C 19.5°F-6.9°C 98% 17.0 mph NW27.4 kmh NW -- 29.70 in1005.8 mb 0.00 in0.0 mm 0.00 in0.0 mm 0.33 in8.4 mm
11:03 PM 19.8°F-6.8°C 19.3°F-7.1°C 98% 30.0 mph NW48.3 kmh NW -- 29.70 in1005.8 mb 0.00 in0.0 mm 0.00 in0.0 mm 0.33 in8.4 mm
11:09 PM 19.8°F-6.8°C 19.3°F-7.1°C 98% 30.0 mph NW48.3 kmh NW -- 29.71 in1006.1 mb 0.00 in0.0 mm 0.00 in0.0 mm 0.33 in8.4 mm
11:10 PM 19.8°F-6.8°C 19.3°F-7.1°C 98% 24.0 mph NW38.6 kmh NW -- 29.71 in1006.1 mb 0.00 in0.0 mm 0.00 in0.0 mm 0.33 in8.4 mm
11:11 PM 19.8°F-6.8°C 19.3°F-7.1°C 98% 25.0 mph NW40.2 kmh NW -- 29.71 in1006.1 mb 0.00 in0.0 mm 0.00 in0.0 mm 0.33 in8.4 mm
11:13 PM 19.8°F-6.8°C 19.3°F-7.1°C 98% 28.0 mph NW45.1 kmh NW -- 29.71 in1006.1 mb 0.00 in0.0 mm 0.00 in0.0 mm 0.33 in8.4 mm
11:14 PM 19.8°F-6.8°C 19.3°F-7.1°C 98% 28.0 mph NW45.1 kmh NW -- 29.72 in1006.4 mb 0.00 in0.0 mm 0.00 in0.0 mm 0.33 in8.4 mm
11:15 PM 19.7°F-6.8°C 19.3°F-7.1°C 98% 23.0 mph NW37.0 kmh NW -- 29.71 in1006.1 mb 0.00 in0.0 mm 0.00 in0.0 mm 0.33 in8.4 mm
11:16 PM 19.7°F-6.8°C 19.3°F-7.1°C 98% 17.0 mph NW27.4 kmh NW -- 29.72 in1006.4 mb 0.00 in0.0 mm 0.00 in0.0 mm 0.33 in8.4 mm
11:17 PM 19.7°F-6.8°C 19.3°F-7.1°C 98% 20.0 mph NW32.2 kmh NW -- 29.72 in1006.4 mb 0.00 in0.0 mm 0.00 in0.0 mm 0.33 in8.4 mm
11:18 PM 19.7°F-6.8°C 19.3°F-7.1°C 98% 19.0 mph NW30.6 kmh NW -- 29.72 in1006.4 mb 0.00 in0.0 mm 0.00 in0.0 mm 0.33 in8.4 mm
11:19 PM 19.7°F-6.8°C 19.3°F-7.1°C 98% 29.0 mph WNW46.7 kmh WNW -- 29.72 in1006.4 mb 0.00 in0.0 mm 0.00 in0.0 mm 0.33 in8.4 mm
11:20 PM 19.7°F-6.8°C 19.3°F-7.1°C 98% 24.0 mph WNW38.6 kmh WNW -- 29.72 in1006.4 mb 0.00 in0.0 mm 0.00 in0.0 mm 0.33 in8.4 mm
11:21 PM 19.6°F-6.9°C 19.1°F-7.2°C 98% 20.0 mph WNW32.2 kmh WNW -- 29.72 in1006.4 mb 0.00 in0.0 mm 0.00 in0.0 mm 0.33 in8.4 mm
11:22 PM 19.6°F-6.9°C 19.1°F-7.2°C 98% 21.0 mph NW33.8 kmh NW -- 29.72 in1006.4 mb 0.00 in0.0 mm 0.00 in0.0 mm 0.33 in8.4 mm
11:23 PM 19.6°F-6.9°C 19.1°F-7.2°C 98% 14.0 mph WNW22.5 kmh WNW -- 29.73 in1006.8 mb 0.00 in0.0 mm 0.00 in0.0 mm 0.33 in8.4 mm
11:24 PM 19.6°F-6.9°C 19.1°F-7.2°C 98% 31.0 mph WNW49.9 kmh WNW -- 29.72 in1006.4 mb 0.00 in0.0 mm 0.00 in0.0 mm 0.33 in8.4 mm
11:26 PM 19.6°F-6.9°C 19.1°F-7.2°C 98% 27.0 mph WNW43.5 kmh WNW -- 29.72 in1006.4 mb 0.00 in0.0 mm 0.00 in0.0 mm 0.33 in8.4 mm
11:27 PM 19.2°F-7.1°C 18.7°F-7.4°C 98% 35.0 mph NW56.3 kmh NW -- 29.72 in1006.4 mb 0.00 in0.0 mm 0.00 in0.0 mm 0.33 in8.4 mm
11:28 PM 19.2°F-7.1°C 18.7°F-7.4°C 98% 29.0 mph NNW46.7 kmh NNW -- 29.72 in1006.4 mb 0.00 in0.0 mm 0.00 in0.0 mm 0.33 in8.4 mm
11:29 PM 19.2°F-7.1°C 18.7°F-7.4°C 98% 15.0 mph NNW24.1 kmh NNW -- 29.72 in1006.4 mb 0.00 in0.0 mm 0.00 in0.0 mm 0.33 in8.4 mm
11:31 PM 19.2°F-7.1°C 18.7°F-7.4°C 98% 22.0 mph W35.4 kmh W -- 29.72 in1006.4 mb 0.00 in0.0 mm 0.00 in0.0 mm 0.33 in8.4 mm
11:32 PM 19.2°F-7.1°C 18.7°F-7.4°C 98% 33.0 mph W53.1 kmh W -- 29.72 in1006.4 mb 0.00 in0.0 mm 0.00 in0.0 mm 0.33 in8.4 mm
11:33 PM 19.0°F-7.2°C 18.6°F-7.4°C 98% 24.0 mph NW38.6 kmh NW -- 29.72 in1006.4 mb 0.00 in0.0 mm 0.00 in0.0 mm 0.33 in8.4 mm
11:34 PM 19.0°F-7.2°C 18.6°F-7.4°C 98% 23.0 mph W37.0 kmh W -- 29.72 in1006.4 mb 0.00 in0.0 mm 0.00 in0.0 mm 0.33 in8.4 mm
11:35 PM 19.0°F-7.2°C 18.6°F-7.4°C 98% 20.0 mph W32.2 kmh W -- 29.73 in1006.8 mb 0.00 in0.0 mm 0.00 in0.0 mm 0.33 in8.4 mm
11:36 PM 19.0°F-7.2°C 18.6°F-7.4°C 98% 30.0 mph NW48.3 kmh NW -- 29.73 in1006.8 mb 0.00 in0.0 mm 0.00 in0.0 mm 0.33 in8.4 mm
11:37 PM 19.0°F-7.2°C 18.6°F-7.4°C 98% 26.0 mph NNW41.8 kmh NNW -- 29.73 in1006.8 mb 0.00 in0.0 mm 0.00 in0.0 mm 0.33 in8.4 mm
11:38 PM 19.0°F-7.2°C 18.6°F-7.4°C 98% 24.0 mph W38.6 kmh W -- 29.72 in1006.4 mb 0.00 in0.0 mm 0.00 in0.0 mm 0.33 in8.4 mm
11:39 PM 19.0°F-7.2°C 18.6°F-7.4°C 98% 23.0 mph W37.0 kmh W -- 29.73 in1006.8 mb 0.00 in0.0 mm 0.00 in0.0 mm 0.33 in8.4 mm
11:40 PM 19.0°F-7.2°C 18.6°F-7.4°C 98% 19.0 mph NNW30.6 kmh NNW -- 29.72 in1006.4 mb 0.00 in0.0 mm 0.00 in0.0 mm 0.33 in8.4 mm
11:41 PM 18.8°F-7.3°C 18.4°F-7.6°C 98% 22.0 mph NNW35.4 kmh NNW -- 29.72 in1006.4 mb 0.00 in0.0 mm 0.00 in0.0 mm 0.33 in8.4 mm
11:42 PM 18.8°F-7.3°C 18.4°F-7.6°C 98% 23.0 mph NNW37.0 kmh NNW -- 29.72 in1006.4 mb 0.00 in0.0 mm 0.00 in0.0 mm 0.33 in8.4 mm
11:43 PM 18.8°F-7.3°C 18.4°F-7.6°C 98% 22.0 mph NNW35.4 kmh NNW -- 29.73 in1006.8 mb 0.00 in0.0 mm 0.00 in0.0 mm 0.33 in8.4 mm
11:44 PM 18.8°F-7.3°C 18.4°F-7.6°C 98% 27.0 mph NW43.5 kmh NW -- 29.72 in1006.4 mb 0.00 in0.0 mm 0.00 in0.0 mm 0.33 in8.4 mm
11:45 PM 18.8°F-7.3°C 18.4°F-7.6°C 98% 23.0 mph WNW37.0 kmh WNW -- 29.73 in1006.8 mb 0.00 in0.0 mm 0.00 in0.0 mm 0.33 in8.4 mm
11:46 PM 18.8°F-7.3°C 18.4°F-7.6°C 98% 24.0 mph WNW38.6 kmh WNW -- 29.73 in1006.8 mb 0.00 in0.0 mm 0.00 in0.0 mm 0.33 in8.4 mm
11:47 PM 18.8°F-7.3°C 18.4°F-7.6°C 98% 25.0 mph NW40.2 kmh NW -- 29.73 in1006.8 mb 0.00 in0.0 mm 0.00 in0.0 mm 0.33 in8.4 mm
11:49 PM 18.8°F-7.3°C 18.4°F-7.6°C 98% 22.0 mph W35.4 kmh W -- 29.73 in1006.8 mb 0.00 in0.0 mm 0.00 in0.0 mm 0.33 in8.4 mm
11:50 PM 18.8°F-7.3°C 18.4°F-7.6°C 98% 24.0 mph W38.6 kmh W -- 29.73 in1006.8 mb 0.00 in0.0 mm 0.00 in0.0 mm 0.33 in8.4 mm
11:52 PM 18.8°F-7.3°C 18.4°F-7.6°C 98% 28.0 mph W45.1 kmh W -- 29.73 in1006.8 mb 0.00 in0.0 mm 0.00 in0.0 mm 0.33 in8.4 mm
11:54 PM 18.8°F-7.3°C 18.4°F-7.6°C 98% 22.0 mph NW35.4 kmh NW -- 29.73 in1006.8 mb 0.00 in0.0 mm 0.00 in0.0 mm 0.33 in8.4 mm